BA182 / G-STBG 7700 Squawk Report (25th of June, 2019)

Aircraft B77W Reg No. G-STBG Age 6 years old
Model 777 Jet engines 2 First flight 22-03-13
Registered 13-09-13 Rollout N/A Delivered 13-09-13
Construction No. 38430 Line No. 1135 Series 336(ER)
ADSHEX 406947 Airline name British Airways Owner N/A
Airfield based Heathrow~Gtr London~G First tracked 2017-07-16 03:55:00

Flight history for G-STBG

Time Lat Lon Altitude Heading Speed Vertical Rate
2019-06-25 10:10:38 GMT 51.471840 -0.483528 0 180 6 0
2019-06-25 10:10:21 GMT 51.472298 -0.483584 0 180 8 0
2019-06-25 10:10:16 GMT 51.472481 -0.483584 0 180 8 0
2019-06-25 10:09:28 GMT 51.474648 -0.483608 0 180 11 0
2019-06-25 10:08:20 GMT 51.475800 -0.480633 0 270 13 0
2019-06-25 10:08:10 GMT 51.475800 -0.479668 0 270 14 0
2019-06-25 10:07:38 GMT 51.475811 -0.476254 0 270 15 0
2019-06-25 10:07:24 GMT 51.475811 -0.474769 0 270 14 0
2019-06-25 10:07:18 GMT 51.475811 -0.474148 0 270 14 0
2019-06-25 10:07:07 GMT 51.475822 -0.473117 0 270 13 0
2019-06-25 10:06:40 GMT 51.475834 -0.470575 0 270 11 0
2019-06-25 10:06:14 GMT 51.475868 -0.468496 0 258 10 0
2019-06-25 10:05:58 GMT 51.475918 -0.467567 0 270 8 0
2019-06-25 10:04:10 GMT 51.475925 -0.467067 0 270 0 0
2019-06-25 10:04:05 GMT 51.475918 -0.467072 0 270 0 0
2019-06-25 10:02:45 GMT 51.475925 -0.467067 0 270 0 0
2019-06-25 10:02:31 GMT 51.475918 -0.467072 0 270 0 0
2019-06-25 10:02:18 GMT 51.475925 -0.467067 0 270 0 0
2019-06-25 10:02:10 GMT 51.475925 -0.467049 0 270 2 0
2019-06-25 10:02:00 GMT 51.475929 -0.466728 0 270 6 0
2019-06-25 10:01:49 GMT 51.475925 -0.466195 0 270 8 0
2019-06-25 09:59:35 GMT 51.477489 -0.461979 0 109 14 0
2019-06-25 09:59:14 GMT 51.477585 -0.466678 0 90 86 0
2019-06-25 09:59:04 GMT 51.477573 -0.473767 0 90 140 0
2019-06-25 09:58:58 GMT 51.477558 -0.480194 -75 89 145 -512
2019-06-25 09:58:48 GMT 51.477512 -0.490952 75 89 147 -704
2019-06-25 09:58:37 GMT 51.477448 -0.503293 200 89 146 -704
2019-06-25 09:58:30 GMT 51.477402 -0.510196 300 89 145 -768
2019-06-25 09:58:26 GMT 51.477417 -0.515137 350 89 145 -768
2019-06-25 09:58:19 GMT 51.477371 -0.522003 425 89 145 -832
2019-06-25 09:58:16 GMT 51.477356 -0.525191 500 89 144 -768
2019-06-25 09:58:12 GMT 51.477325 -0.529251 525 89 144 -768
2019-06-25 09:58:09 GMT 51.477325 -0.533524 575 89 144 -768
2019-06-25 09:58:06 GMT 51.477325 -0.535202 575 89 144 -896
2019-06-25 09:58:03 GMT 51.477310 -0.539295 900 89 148 -832
2019-06-25 09:57:57 GMT 51.477264 -0.545753 725 89 146 -832
2019-06-25 09:57:51 GMT 51.477234 -0.552444 850 89 147 -704
2019-06-25 09:57:47 GMT 51.477234 -0.556793 850 89 166 -896
2019-06-25 09:57:44 GMT 51.477234 -0.558929 900 89 150 -832
2019-06-25 09:57:41 GMT 51.477219 -0.563124 925 89 149 -768
2019-06-25 09:57:37 GMT 51.477184 -0.570450 1,000 89 162 -896
2019-06-25 09:57:30 GMT 51.477139 -0.574951 1,050 89 154 -768
2019-06-25 09:57:26 GMT 51.477139 -0.579987 1,100 89 159 -896
2019-06-25 09:57:23 GMT 51.477127 -0.582572 1,175 89 164 -896
2019-06-25 09:57:20 GMT 51.477139 -0.586624 1,200 89 165 -832
2019-06-25 09:57:16 GMT 51.477093 -0.592041 1,275 89 166 -896
2019-06-25 09:57:13 GMT 51.477093 -0.595932 1,300 89 166 -896
2019-06-25 09:57:09 GMT 51.477036 -0.600611 1,450 89 165 -896
2019-06-25 09:57:05 GMT 51.477036 -0.604990 1,425 89 165 -832
2019-06-25 09:57:02 GMT 51.476997 -0.612106 1,500 89 164 -832
2019-06-25 09:56:59 GMT 51.476997 -0.617447 1,525 89 165 -832
2019-06-25 09:56:55 GMT 51.476952 -0.625305 1,675 89 165 -832
2019-06-25 09:56:50 GMT 51.476952 -0.625305 1,725 89 166 -768
2019-06-25 09:56:46 GMT 51.476906 -0.629654 1,725 89 165 -832
2019-06-25 09:56:43 GMT 51.476898 -0.632902 1,775 89 162 -896
2019-06-25 09:56:40 GMT 51.476898 -0.635351 1,750 89 164 -896
2019-06-25 09:56:37 GMT 51.476852 -0.640696 1,825 89 163 -896
2019-06-25 09:56:34 GMT 51.476860 -0.648193 2,275 89 162 -896
2019-06-25 09:56:31 GMT 51.476860 -0.648193 1,925 89 163 -896
2019-06-25 09:56:28 GMT 51.476814 -0.650101 1,950 89 162 -832
2019-06-25 09:56:24 GMT 51.476814 -0.654907 2,075 89 160 -832
2019-06-25 09:56:20 GMT 51.476765 -0.660172 2,275 89 160 -832
2019-06-25 09:56:17 GMT 51.476765 -0.662994 2,100 89 160 -832
2019-06-25 09:56:14 GMT 51.476761 -0.667494 2,125 89 161 -896
2019-06-25 09:56:11 GMT 51.476719 -0.670624 2,175 89 161 -960
2019-06-25 09:56:08 GMT 51.476719 -0.673904 2,225 89 162 -896
2019-06-25 09:56:05 GMT 51.476669 -0.678480 2,275 89 162 -896
2019-06-25 09:56:00 GMT 51.476669 -0.684270 2,400 89 164 -896
2019-06-25 09:55:56 GMT 51.476627 -0.688782 2,400 89 164 -768
2019-06-25 09:55:52 GMT 51.476627 -0.693207 2,450 89 166 -960
2019-06-25 09:55:49 GMT 51.476582 -0.697098 2,475 89 167 -1024
2019-06-25 09:55:46 GMT 51.476578 -0.701343 2,550 89 170 -832
2019-06-25 09:55:42 GMT 51.476536 -0.706100 2,600 89 188 -1088
2019-06-25 09:55:39 GMT 51.476536 -0.710144 2,725 89 178 -896
2019-06-25 09:55:36 GMT 51.476532 -0.714111 2,775 89 186 -1152
2019-06-25 09:55:32 GMT 51.476486 -0.718689 2,725 89 185 -1152
2019-06-25 09:55:29 GMT 51.476440 -0.724182 2,825 89 189 -1088
2019-06-25 09:55:26 GMT 51.476440 -0.728364 2,850 89 189 -1088
2019-06-25 09:55:23 GMT 51.476395 -0.732574 2,900 89 191 -1088
2019-06-25 09:55:20 GMT 51.476395 -0.737686 2,975 89 193 -1088
2019-06-25 09:55:17 GMT 51.476349 -0.740585 3,025 89 195 -1024
2019-06-25 09:55:13 GMT 51.476349 -0.745773 3,075 89 194 -1088
2019-06-25 09:55:10 GMT 51.476303 -0.750040 3,300 89 196 -1024
2019-06-25 09:55:06 GMT 51.476299 -0.755539 3,200 89 195 -1024
2019-06-25 09:55:02 GMT 51.476257 -0.762214 3,275 89 196 -1024
2019-06-25 09:54:59 GMT 51.476208 -0.770035 3,375 89 196 -1024
2019-06-25 09:54:53 GMT 51.476208 -0.775833 3,425 89 196 -1088
2019-06-25 09:54:50 GMT 51.476208 -0.779266 3,500 89 196 -1088
2019-06-25 09:54:47 GMT 51.476162 -0.783920 3,525 89 196 -1152
2019-06-25 09:54:44 GMT 51.476162 -0.786819 3,575 89 196 -1152
2019-06-25 09:54:41 GMT 51.476162 -0.796127 3,750 90 195 -1088
2019-06-25 09:54:38 GMT 51.476162 -0.796127 3,750 90 195 -960
2019-06-25 09:54:34 GMT 51.476166 -0.802150 3,750 90 195 -1024
2019-06-25 09:54:31 GMT 51.476162 -0.812836 3,925 90 194 -832
2019-06-25 09:54:27 GMT 51.476162 -0.812836 3,900 89 193 -640
2019-06-25 09:54:24 GMT 51.476166 -0.817145 3,925 89 193 -512
2019-06-25 09:54:21 GMT 51.476120 -0.821154 3,950 89 192 -384
2019-06-25 09:54:17 GMT 51.476116 -0.827637 3,975 90 191 -384
2019-06-25 09:54:14 GMT 51.476120 -0.830804 4,000 93 189 -448
2019-06-25 09:54:11 GMT 51.476208 -0.836716 4,075 104 186 -512
2019-06-25 09:54:07 GMT 51.476395 -0.840899 4,075 100 187 -448
2019-06-25 09:54:04 GMT 51.476669 -0.845353 4,050 111 187 -384
2019-06-25 09:54:01 GMT 51.477139 -0.849457 4,075 102 186 -512
2019-06-25 09:53:58 GMT 51.477745 -0.853271 4,100 109 185 -512
2019-06-25 09:53:55 GMT 51.479095 -0.859528 4,125 111 185 -448
2019-06-25 09:53:52 GMT 51.479370 -0.860794 4,150 111 187 -384
2019-06-25 09:53:49 GMT 51.480724 -0.866165 4,150 112 186 -384
2019-06-25 09:53:46 GMT 51.482723 -0.873260 4,200 121 184 -704
2019-06-25 09:53:43 GMT 51.483856 -0.876308 4,225 131 184 -704
2019-06-25 09:53:40 GMT 51.483856 -0.876308 4,200 128 184 -704
2019-06-25 09:53:35 GMT 51.489258 -0.884696 4,275 144 184 -768
2019-06-25 09:53:32 GMT 51.489258 -0.884696 4,650 196 209 -768
2019-06-25 09:53:29 GMT 51.490314 -0.885696 4,300 155 187 -832
2019-06-25 09:53:25 GMT 51.494179 -0.888214 4,325 165 191 -896
2019-06-25 09:53:22 GMT 51.496597 -0.889130 4,425 170 193 -896
2019-06-25 09:53:19 GMT 51.499329 -0.889596 4,400 194 207 -896
2019-06-25 09:53:15 GMT 51.503036 -0.889299 4,450 191 205 -960
2019-06-25 09:53:12 GMT 51.505646 -0.888705 4,500 191 205 -960
2019-06-25 09:53:08 GMT 51.509541 -0.887222 4,550 205 219 -640
2019-06-25 09:53:04 GMT 51.513062 -0.885661 4,625 196 209 -768
2019-06-25 09:53:01 GMT 51.516037 -0.884399 4,650 196 211 -768
2019-06-25 09:52:58 GMT 51.522621 -0.881348 4,725 199 214 -704
2019-06-25 09:52:54 GMT 51.522621 -0.881348 4,750 199 214 -704
2019-06-25 09:52:51 GMT 51.525227 -0.879974 4,775 200 216 -640
2019-06-25 09:52:47 GMT 51.528999 -0.877762 4,825 204 219 -640
2019-06-25 09:52:44 GMT 51.531979 -0.875702 4,850 212 223 -832
2019-06-25 09:52:41 GMT 51.535675 -0.872225 4,950 243 234 -832
2019-06-25 09:52:38 GMT 51.537189 -0.870514 5,950 237 232 -896
2019-06-25 09:52:35 GMT 51.539246 -0.867623 4,975 230 230 -896
2019-06-25 09:52:32 GMT 51.542633 -0.861536 5,025 236 231 -896
2019-06-25 09:52:28 GMT 51.544098 -0.858270 5,050 240 233 -896
2019-06-25 09:52:25 GMT 51.546177 -0.852585 5,125 242 234 -832
2019-06-25 09:52:22 GMT 51.547348 -0.849213 5,450 243 236 -1024
2019-06-25 09:52:18 GMT 51.549362 -0.843052 5,200 243 234 -832
2019-06-25 09:52:14 GMT 51.553802 -0.829468 5,275 243 229 -1088
2019-06-25 09:52:10 GMT 51.553802 -0.829468 5,450 243 236 -1024
2019-06-25 09:52:07 GMT 51.554810 -0.826424 5,400 243 235 -960
2019-06-25 09:52:03 GMT 51.557648 -0.817739 5,450 243 236 -1024
2019-06-25 09:52:00 GMT 51.558979 -0.813675 5,475 243 236 -960
2019-06-25 09:51:57 GMT 51.560001 -0.810623 5,525 243 229 -1216
2019-06-25 09:51:54 GMT 51.561630 -0.805588 5,600 243 234 -768
2019-06-25 09:51:51 GMT 51.563370 -0.800369 5,625 243 236 -896
2019-06-25 09:51:48 GMT 51.564892 -0.795670 5,775 243 232 -896
2019-06-25 09:51:45 GMT 51.568222 -0.785522 5,725 243 234 -896
2019-06-25 09:51:42 GMT 51.568222 -0.785522 5,750 243 233 -960
2019-06-25 09:51:39 GMT 51.569412 -0.781811 5,800 243 232 -960
2019-06-25 09:51:35 GMT 51.571499 -0.775375 5,875 243 230 -960
2019-06-25 09:51:32 GMT 51.572571 -0.772012 5,975 243 229 -1088
2019-06-25 09:51:29 GMT 51.574127 -0.767187 6,000 243 230 -1280
2019-06-25 09:51:26 GMT 51.575596 -0.762634 6,000 243 229 -1216
2019-06-25 09:51:23 GMT 51.578903 -0.752258 6,100 243 232 -1664
2019-06-25 09:51:20 GMT 51.578903 -0.752258 6,250 243 233 -1920
2019-06-25 09:51:17 GMT 51.580582 -0.747070 6,250 243 233 -1984
2019-06-25 09:51:14 GMT 51.581543 -0.743953 6,300 243 234 -1984
2019-06-25 09:51:11 GMT 51.583557 -0.737717 6,375 243 234 -1984
2019-06-25 09:51:08 GMT 51.585938 -0.730294 6,525 243 236 -1984
2019-06-25 09:51:05 GMT 51.587841 -0.724335 6,625 243 237 -2048
2019-06-25 09:51:02 GMT 51.587841 -0.724335 6,675 243 237 -2048
2019-06-25 09:50:59 GMT 51.589096 -0.720596 6,800 243 238 -2048
2019-06-25 09:50:56 GMT 51.590958 -0.714951 7,125 243 238 -2176
2019-06-25 09:50:53 GMT 51.592171 -0.711212 7,000 243 238 -2176
2019-06-25 09:50:50 GMT 51.593719 -0.706540 7,100 242 239 -2240
2019-06-25 09:50:47 GMT 51.595100 -0.702438 7,200 242 239 -2304
2019-06-25 09:50:44 GMT 51.596546 -0.698090 7,250 242 239 -2304
2019-06-25 09:50:41 GMT 51.597988 -0.693665 7,950 243 238 -2368
2019-06-25 09:50:38 GMT 51.601109 -0.684280 7,600 243 239 -2304
2019-06-25 09:50:32 GMT 51.602737 -0.679245 7,825 243 239 -2176
2019-06-25 09:50:29 GMT 51.604294 -0.674546 7,900 242 239 -2240
2019-06-25 09:50:26 GMT 51.606041 -0.669174 7,950 241 238 -2560
2019-06-25 09:50:23 GMT 51.608047 -0.663188 8,100 242 240 -2368
2019-06-25 09:50:20 GMT 51.609512 -0.658809 8,225 241 239 -2496
2019-06-25 09:50:17 GMT 51.610699 -0.655365 8,675 241 238 -2560
2019-06-25 09:50:14 GMT 51.612000 -0.651703 8,400 241 239 -2496
2019-06-25 09:50:11 GMT 51.613956 -0.646133 8,625 240 238 -2560
2019-06-25 09:50:08 GMT 51.615540 -0.641861 8,625 239 237 -2560
2019-06-25 09:50:05 GMT 51.617523 -0.636762 8,800 235 236 -2496
2019-06-25 09:50:02 GMT 51.619766 -0.631565 8,950 234 235 -2496
2019-06-25 09:49:59 GMT 51.621323 -0.628225 9,050 232 234 -2432
2019-06-25 09:49:56 GMT 51.623245 -0.624365 9,100 231 234 -2432
2019-06-25 09:49:53 GMT 51.625874 -0.619278 9,325 231 235 -2304
2019-06-25 09:49:50 GMT 51.628189 -0.614715 9,425 231 235 -2240
2019-06-25 09:49:47 GMT 51.629738 -0.611801 9,525 231 235 -2240
2019-06-25 09:49:44 GMT 51.631531 -0.608257 9,625 231 235 -2240
2019-06-25 09:49:41 GMT 51.634003 -0.603431 9,925 231 235 -2240
2019-06-25 09:49:38 GMT 51.636349 -0.598831 9,850 231 235 -2176
2019-06-25 09:49:35 GMT 51.637848 -0.595860 10,125 232 238 -1664
2019-06-25 09:49:32 GMT 51.640209 -0.591202 10,350 232 237 -1728
2019-06-25 09:49:29 GMT 51.642120 -0.587311 10,175 232 240 -1344
2019-06-25 09:49:26 GMT 51.644165 -0.583166 10,200 232 240 -1280
2019-06-25 09:49:23 GMT 51.646088 -0.579232 10,300 233 241 -1088
2019-06-25 09:49:20 GMT 51.650871 -0.569305 10,375 233 242 -1088
2019-06-25 09:49:17 GMT 51.650871 -0.569305 10,375 233 241 -1216
2019-06-25 09:49:13 GMT 51.652733 -0.565262 10,450 233 241 -1344
2019-06-25 09:49:10 GMT 51.654785 -0.561045 10,550 233 241 -1344
2019-06-25 09:49:07 GMT 51.657391 -0.555649 10,575 233 240 -1408
2019-06-25 09:49:04 GMT 51.659019 -0.552292 10,675 232 239 -1344
2019-06-25 09:49:01 GMT 51.660973 -0.548325 10,700 232 240 -1344
2019-06-25 09:48:57 GMT 51.663895 -0.542561 10,825 228 237 -1152
2019-06-25 09:48:54 GMT 51.666096 -0.538483 10,925 217 236 -448
2019-06-25 09:48:51 GMT 51.668701 -0.534173 10,925 223 236 -1152
2019-06-25 09:48:48 GMT 51.672935 -0.528564 11,000 217 236 -448
2019-06-25 09:48:45 GMT 51.676289 -0.525284 11,000 123 250 0
2019-06-25 09:48:42 GMT 51.676289 -0.525284 11,000 205 234 64
2019-06-25 09:48:38 GMT 51.680878 -0.522148 11,000 182 235 64
2019-06-25 09:48:34 GMT 51.685089 -0.520366 11,000 184 235 64
2019-06-25 09:48:31 GMT 51.687698 -0.519772 11,000 180 236 64
2019-06-25 09:48:28 GMT 51.691418 -0.519562 11,000 180 236 64
2019-06-25 09:48:25 GMT 51.694244 -0.519772 11,000 170 238 64
2019-06-25 09:48:22 GMT 51.697517 -0.520477 11,000 166 238 128
2019-06-25 09:48:19 GMT 51.700287 -0.521405 11,000 163 239 128
2019-06-25 09:48:15 GMT 51.704781 -0.523376 11,000 157 241 128
2019-06-25 09:48:12 GMT 51.709122 -0.526082 11,000 154 242 192
2019-06-25 09:48:09 GMT 51.710922 -0.527496 11,000 151 242 192
2019-06-25 09:48:06 GMT 51.714462 -0.530701 11,000 146 243 192
2019-06-25 09:48:03 GMT 51.717766 -0.534439 11,000 137 246 192
2019-06-25 09:48:00 GMT 51.719444 -0.536804 11,000 132 247 128
2019-06-25 09:47:57 GMT 51.721680 -0.540466 11,000 130 248 128
2019-06-25 09:47:54 GMT 51.724411 -0.545976 11,000 127 249 64
2019-06-25 09:47:50 GMT 51.726704 -0.551071 11,000 124 249 0
2019-06-25 09:47:47 GMT 51.728519 -0.555420 11,000 124 249 0
2019-06-25 09:47:44 GMT 51.732384 -0.564651 11,000 123 250 0
2019-06-25 09:47:38 GMT 51.734432 -0.569611 11,000 124 247 64
2019-06-25 09:47:35 GMT 51.736526 -0.574570 11,000 124 249 0
2019-06-25 09:47:32 GMT 51.738190 -0.578564 11,000 124 249 0
2019-06-25 09:47:29 GMT 51.740112 -0.583191 11,000 124 249 0
2019-06-25 09:47:26 GMT 51.742859 -0.589624 11,000 124 249 0
2019-06-25 09:47:23 GMT 51.743637 -0.591480 11,000 124 249 0
2019-06-25 09:47:20 GMT 51.745972 -0.596973 11,000 124 249 64
2019-06-25 09:47:17 GMT 51.748032 -0.601873 11,000 124 249 0
2019-06-25 09:47:14 GMT 51.749935 -0.606461 11,000 124 247 0
2019-06-25 09:47:11 GMT 51.752151 -0.611671 11,000 124 247 0
2019-06-25 09:47:08 GMT 51.754078 -0.616226 11,000 124 246 -64
2019-06-25 09:47:05 GMT 51.755383 -0.619278 11,000 124 247 0
2019-06-25 09:47:02 GMT 51.759659 -0.629264 11,050 124 252 -1216
2019-06-25 09:46:59 GMT 51.762222 -0.635277 11,000 124 247 64
2019-06-25 09:46:55 GMT 51.762222 -0.635277 11,000 124 247 128
2019-06-25 09:46:52 GMT 51.764179 -0.639877 11,000 124 248 64
2019-06-25 09:46:49 GMT 51.766846 -0.646338 11,000 124 252 -1024
2019-06-25 09:46:45 GMT 51.769070 -0.651550 11,000 123 250 64
2019-06-25 09:46:41 GMT 51.772018 -0.658660 11,000 123 251 0
2019-06-25 09:46:38 GMT 51.773300 -0.661778 11,000 124 252 -64
2019-06-25 09:46:34 GMT 51.778053 -0.673370 11,000 124 251 -192
2019-06-25 09:46:31 GMT 51.778053 -0.673370 11,000 124 251 -192
2019-06-25 09:46:28 GMT 51.779205 -0.676105 11,000 124 251 -192
2019-06-25 09:46:25 GMT 51.781452 -0.681381 11,025 123 250 -448
2019-06-25 09:46:22 GMT 51.783546 -0.686340 11,025 124 251 -320
2019-06-25 09:46:19 GMT 51.785980 -0.692213 11,050 124 251 -768
2019-06-25 09:46:13 GMT 51.789783 -0.701218 11,100 124 252 -1024
2019-06-25 09:46:10 GMT 51.791832 -0.706177 11,125 123 251 -1088
2019-06-25 09:46:07 GMT 51.793137 -0.709305 11,325 123 252 -1024
2019-06-25 09:46:04 GMT 51.795090 -0.714037 11,375 124 252 -1216
2019-06-25 09:46:01 GMT 51.797558 -0.719910 11,300 124 252 -1152
2019-06-25 09:45:58 GMT 51.799652 -0.724945 11,375 123 252 -1024
2019-06-25 09:45:55 GMT 51.803650 -0.734599 11,475 124 252 -1152
2019-06-25 09:45:52 GMT 51.803650 -0.734599 11,500 124 252 -1152
2019-06-25 09:45:49 GMT 51.805481 -0.738979 11,575 124 252 -1216
2019-06-25 09:45:46 GMT 51.807194 -0.743027 11,600 124 252 -1216
2019-06-25 09:45:43 GMT 51.808868 -0.747070 11,700 124 252 -1216
2019-06-25 09:45:40 GMT 51.811337 -0.753021 12,925 124 252 -1024
2019-06-25 09:45:37 GMT 51.813152 -0.757370 11,775 124 252 -1216
2019-06-25 09:45:34 GMT 51.814865 -0.761471 11,800 124 252 -1280
2019-06-25 09:45:30 GMT 51.817749 -0.768301 11,925 124 252 -1280
2019-06-25 09:45:27 GMT 51.820972 -0.776062 12,025 124 251 -1088
2019-06-25 09:45:24 GMT 51.823582 -0.782318 12,050 124 251 -1088
2019-06-25 09:45:21 GMT 51.823582 -0.782318 12,075 124 251 -1024
2019-06-25 09:45:17 GMT 51.826187 -0.788498 12,225 124 252 -1024
2019-06-25 09:45:14 GMT 51.828369 -0.793836 12,250 123 252 -1024
2019-06-25 09:45:11 GMT 51.830330 -0.798492 12,300 123 252 -960
2019-06-25 09:45:08 GMT 51.834751 -0.809174 12,350 123 254 -896
2019-06-25 09:45:04 GMT 51.834751 -0.809174 12,375 123 255 -768
2019-06-25 09:45:01 GMT 51.836975 -0.814547 12,450 123 256 -768
2019-06-25 09:44:58 GMT 51.838150 -0.817413 12,450 123 256 -640
2019-06-25 09:44:55 GMT 51.842468 -0.827983 12,500 123 257 -1152
2019-06-25 09:44:49 GMT 51.844574 -0.833105 12,600 123 257 -1408
2019-06-25 09:44:46 GMT 51.846577 -0.837860 12,675 123 257 -1344
2019-06-25 09:44:43 GMT 51.848438 -0.842361 12,700 123 257 -1280
2019-06-25 09:44:40 GMT 51.850021 -0.846176 12,800 124 257 -1152
2019-06-25 09:44:37 GMT 51.852036 -0.850921 12,875 123 257 -1280
2019-06-25 09:44:34 GMT 51.856400 -0.861435 13,050 124 257 -1152
2019-06-25 09:44:31 GMT 51.856400 -0.861435 13,025 123 257 -1088
2019-06-25 09:44:28 GMT 51.858170 -0.865619 13,025 123 257 -1088
2019-06-25 09:44:25 GMT 51.860172 -0.870361 13,050 123 257 -1024
2019-06-25 09:44:22 GMT 51.862034 -0.874863 13,100 123 257 -1024
2019-06-25 09:44:19 GMT 51.864685 -0.881271 13,250 123 259 -1088
2019-06-25 09:44:16 GMT 51.866035 -0.884476 13,225 123 259 -1024
2019-06-25 09:44:13 GMT 51.868011 -0.889224 13,400 123 259 -1088
2019-06-25 09:44:10 GMT 51.870319 -0.894699 13,350 123 259 -1088
2019-06-25 09:44:07 GMT 51.871902 -0.898590 13,425 124 259 -1088
2019-06-25 09:44:04 GMT 51.875954 -0.908203 13,500 124 259 -1216
2019-06-25 09:44:01 GMT 51.877945 -0.912979 13,500 124 260 -1216
2019-06-25 09:43:58 GMT 51.877945 -0.912979 13,650 124 259 -1216
2019-06-25 09:43:55 GMT 51.879868 -0.917507 14,150 123 261 -1280
2019-06-25 09:43:52 GMT 51.881908 -0.922318 13,625 124 260 -1216
2019-06-25 09:43:49 GMT 51.886753 -0.933914 13,850 124 260 -1152
2019-06-25 09:43:46 GMT 51.886753 -0.933914 13,775 124 260 -1152
2019-06-25 09:43:43 GMT 51.888794 -0.938737 13,850 124 261 -1152
2019-06-25 09:43:40 GMT 51.890442 -0.942523 13,875 124 261 -1152
2019-06-25 09:43:37 GMT 51.892090 -0.946383 13,925 123 261 -1280
2019-06-25 09:43:34 GMT 51.894943 -0.953142 14,000 124 261 -1216
2019-06-25 09:43:31 GMT 51.896343 -0.956360 14,050 124 262 -1280
2019-06-25 09:43:28 GMT 51.898529 -0.961539 14,250 123 261 -1280
2019-06-25 09:43:25 GMT 51.900558 -0.966415 14,150 123 261 -1280
2019-06-25 09:43:22 GMT 51.905281 -0.977705 14,375 123 262 -1024
2019-06-25 09:43:19 GMT 51.905281 -0.977705 14,325 123 261 -1024
2019-06-25 09:43:15 GMT 51.907562 -0.983276 14,375 122 262 -960
2019-06-25 09:43:12 GMT 51.909943 -0.989151 14,425 122 263 -1024
2019-06-25 09:43:09 GMT 51.911377 -0.992850 14,475 122 263 -1024
2019-06-25 09:43:06 GMT 51.913284 -0.997849 14,500 121 263 -1216
2019-06-25 09:43:02 GMT 51.917336 -1.008153 15,125 121 272 -512
2019-06-25 09:42:59 GMT 51.917336 -1.008153 14,650 123 263 -1024
2019-06-25 09:42:56 GMT 51.920269 -1.015372 14,725 122 265 -1024
2019-06-25 09:42:53 GMT 51.921619 -1.018668 14,750 122 265 -1024
2019-06-25 09:42:50 GMT 51.923538 -1.023712 14,775 121 265 -960
2019-06-25 09:42:47 GMT 51.925369 -1.028442 14,850 122 266 -896
2019-06-25 09:42:43 GMT 51.927704 -1.034470 15,150 122 267 -704
2019-06-25 09:42:40 GMT 51.930359 -1.041260 14,975 122 267 -640
2019-06-25 09:42:37 GMT 51.932236 -1.045990 15,100 122 269 -576
2019-06-25 09:42:34 GMT 51.934616 -1.052094 15,025 122 269 -512
2019-06-25 09:42:31 GMT 51.936329 -1.056492 15,025 122 269 -512
2019-06-25 09:42:28 GMT 51.938423 -1.061986 15,075 121 271 -512
2019-06-25 09:42:22 GMT 51.942215 -1.071930 15,125 121 272 -512
2019-06-25 09:42:19 GMT 51.944477 -1.077837 15,150 121 272 -512
2019-06-25 09:42:16 GMT 51.946804 -1.084115 15,175 121 275 -512
2019-06-25 09:42:13 GMT 51.948257 -1.088028 15,175 121 275 -512
2019-06-25 09:42:10 GMT 51.949585 -1.091537 15,225 121 277 -512
2019-06-25 09:42:07 GMT 51.951736 -1.097183 15,275 121 277 -512
2019-06-25 09:42:04 GMT 51.954533 -1.104675 15,300 121 280 -512
2019-06-25 09:42:01 GMT 51.956161 -1.108913 15,275 121 280 -512
2019-06-25 09:41:58 GMT 51.958584 -1.115348 15,325 121 282 -512
2019-06-25 09:41:55 GMT 51.959930 -1.118958 15,350 121 283 -512
2019-06-25 09:41:51 GMT 51.962681 -1.126256 15,375 121 285 -576
2019-06-25 09:41:48 GMT 51.965286 -1.133270 15,425 120 288 -576
2019-06-25 09:41:45 GMT 51.966888 -1.137695 15,475 120 289 -576
2019-06-25 09:41:42 GMT 51.971104 -1.149248 15,525 117 294 -512
2019-06-25 09:41:36 GMT 51.973618 -1.156464 15,550 118 293 -512
2019-06-25 09:41:33 GMT 51.974781 -1.159921 15,550 118 297 -832
2019-06-25 09:41:30 GMT 51.976685 -1.165771 15,600 118 305 -896
2019-06-25 09:41:27 GMT 51.978653 -1.172104 15,625 117 296 -768
2019-06-25 09:41:24 GMT 51.980850 -1.179276 15,625 117 296 -768
2019-06-25 09:41:21 GMT 51.984745 -1.190526 15,825 122 295 -1024
2019-06-25 09:41:18 GMT 51.984745 -1.190526 15,725 123 295 -1088
2019-06-25 09:41:15 GMT 51.986839 -1.195705 15,850 127 294 -1216
2019-06-25 09:41:12 GMT 51.989723 -1.202140 15,800 127 294 -1216
2019-06-25 09:41:09 GMT 51.994949 -1.212769 15,900 129 293 -1536
2019-06-25 09:41:06 GMT 51.994949 -1.212769 16,000 130 292 -1664
2019-06-25 09:41:03 GMT 51.997787 -1.218109 16,000 131 292 -1728
2019-06-25 09:41:00 GMT 51.999573 -1.221390 16,100 131 291 -1472
2019-06-25 09:40:57 GMT 52.002777 -1.227264 16,175 131 290 -1216
2019-06-25 09:40:54 GMT 52.007275 -1.235334 16,300 131 289 -1216
2019-06-25 09:40:51 GMT 52.009789 -1.239886 16,350 131 289 -1216
2019-06-25 09:40:48 GMT 52.013699 -1.247027 16,400 131 289 -1216
2019-06-25 09:40:45 GMT 52.013699 -1.247027 16,400 131 288 -1216
2019-06-25 09:40:42 GMT 52.015469 -1.250244 16,475 131 288 -1152
2019-06-25 09:40:39 GMT 52.017937 -1.254796 16,525 131 288 -1216
2019-06-25 09:40:36 GMT 52.020775 -1.259975 17,875 132 284 -1216
2019-06-25 09:40:33 GMT 52.023743 -1.265411 16,625 131 287 -1152
2019-06-25 09:40:30 GMT 52.026733 -1.270883 16,725 131 286 -1216
2019-06-25 09:40:27 GMT 52.028503 -1.274100 16,750 131 284 -1152
2019-06-25 09:40:24 GMT 52.033390 -1.283125 16,875 131 286 -1152
2019-06-25 09:40:21 GMT 52.033390 -1.283125 16,900 131 284 -1152
2019-06-25 09:40:18 GMT 52.037064 -1.289902 16,950 131 284 -1152
2019-06-25 09:40:15 GMT 52.039169 -1.293716 17,000 131 284 -1152
2019-06-25 09:40:12 GMT 52.042282 -1.299515 17,050 131 284 -1152
2019-06-25 09:40:06 GMT 52.047455 -1.309052 17,175 131 282 -1216
2019-06-25 09:40:03 GMT 52.049561 -1.312866 17,200 131 281 -1216
2019-06-25 09:40:00 GMT 52.051781 -1.317025 17,350 131 281 -1216
2019-06-25 09:39:57 GMT 52.054199 -1.321420 17,350 131 280 -1216
2019-06-25 09:39:54 GMT 52.057480 -1.327438 17,400 131 280 -1216
2019-06-25 09:39:51 GMT 52.060593 -1.333084 17,525 131 279 -1152
2019-06-25 09:39:48 GMT 52.062115 -1.335938 17,725 131 279 -1152
2019-06-25 09:39:45 GMT 52.065559 -1.342215 17,650 131 278 -1216
2019-06-25 09:39:41 GMT 52.069004 -1.348415 17,675 131 279 -1152
2019-06-25 09:39:38 GMT 52.071213 -1.352463 17,825 131 283 -1152
2019-06-25 09:39:35 GMT 52.074776 -1.359009 17,775 131 279 -1152
2019-06-25 09:39:31 GMT 52.077347 -1.363754 18,250 131 281 -1152
2019-06-25 09:39:27 GMT 52.080643 -1.369681 17,975 131 279 -1152
2019-06-25 09:39:24 GMT 52.083572 -1.374969 17,975 131 281 -1152
2019-06-25 09:39:21 GMT 52.088379 -1.383820 18,025 131 281 -1152
2019-06-25 09:39:18 GMT 52.088379 -1.383820 18,075 131 281 -1152
2019-06-25 09:39:14 GMT 52.091492 -1.389465 18,125 131 281 -1152
2019-06-25 09:39:11 GMT 52.094795 -1.395499 18,175 131 281 -1152
2019-06-25 09:39:08 GMT 52.096710 -1.398926 18,450 132 283 -1152
2019-06-25 09:39:05 GMT 52.099823 -1.404648 18,325 131 283 -1152
2019-06-25 09:39:02 GMT 52.101929 -1.408386 18,500 132 284 -1216
2019-06-25 09:38:59 GMT 52.105087 -1.414108 18,400 132 284 -1216
2019-06-25 09:38:56 GMT 52.107037 -1.417629 18,450 132 284 -1216
2019-06-25 09:38:53 GMT 52.113041 -1.428380 18,575 132 286 -1216
2019-06-25 09:38:50 GMT 52.113041 -1.428380 18,600 132 286 -1216
2019-06-25 09:38:46 GMT 52.116253 -1.434108 18,675 132 286 -1216
2019-06-25 09:38:43 GMT 52.121281 -1.442976 18,900 131 290 -1216
2019-06-25 09:38:40 GMT 52.121281 -1.442976 18,825 132 289 -1216
2019-06-25 09:38:37 GMT 52.124313 -1.448441 18,850 132 289 -1216
2019-06-25 09:38:34 GMT 52.130547 -1.459848 18,975 130 292 -1216
2019-06-25 09:38:31 GMT 52.130547 -1.459848 19,000 128 294 -1088
2019-06-25 09:38:28 GMT 52.132969 -1.464556 19,150 120 303 -896
2019-06-25 09:38:25 GMT 52.134842 -1.468353 19,075 108 314 -1024
2019-06-25 09:38:22 GMT 52.137623 -1.474365 19,325 118 305 -896
2019-06-25 09:38:19 GMT 52.142120 -1.486359 19,275 110 312 -960
2019-06-25 09:38:15 GMT 52.142120 -1.486359 19,400 108 314 -1088
2019-06-25 09:38:12 GMT 52.144455 -1.494827 19,300 109 313 -1024
2019-06-25 09:38:09 GMT 52.146141 -1.502302 19,375 108 314 -1088
2019-06-25 09:38:06 GMT 52.146839 -1.505912 19,400 106 316 -1088
2019-06-25 09:38:03 GMT 52.148254 -1.513596 19,450 106 317 -1152
2019-06-25 09:38:00 GMT 52.149765 -1.521835 19,550 106 317 -1408
2019-06-25 09:37:57 GMT 52.152054 -1.534162 19,650 106 316 -1728
2019-06-25 09:37:54 GMT 52.152054 -1.534162 19,650 106 316 -1856
2019-06-25 09:37:51 GMT 52.153290 -1.540985 19,750 106 315 -1856
2019-06-25 09:37:48 GMT 52.154343 -1.546402 19,850 106 314 -1728
2019-06-25 09:37:45 GMT 52.156036 -1.555481 19,900 106 314 -1536
2019-06-25 09:37:42 GMT 52.157410 -1.562653 20,025 107 315 -1344
2019-06-25 09:37:39 GMT 52.158710 -1.569475 20,075 107 315 -1344
2019-06-25 09:37:36 GMT 52.159550 -1.573948 20,200 107 315 -1344
2019-06-25 09:37:33 GMT 52.160946 -1.581168 20,225 107 315 -1280
2019-06-25 09:37:30 GMT 52.162262 -1.587982 20,425 105 328 -896
2019-06-25 09:37:26 GMT 52.164249 -1.598432 20,325 107 316 -1216
2019-06-25 09:37:23 GMT 52.165741 -1.606064 20,425 107 316 -1216
2019-06-25 09:37:20 GMT 52.166840 -1.611557 20,475 107 318 -1024
2019-06-25 09:37:17 GMT 52.168346 -1.619306 20,500 107 318 -1024
2019-06-25 09:37:13 GMT 52.170162 -1.628409 20,750 108 320 -768
2019-06-25 09:37:10 GMT 52.171143 -1.633377 20,650 107 320 -832
2019-06-25 09:37:07 GMT 52.172607 -1.640701 20,650 108 320 -832
2019-06-25 09:37:04 GMT 52.173981 -1.647635 20,725 108 326 -832
2019-06-25 09:37:01 GMT 52.175282 -1.654070 20,725 108 324 -704
2019-06-25 09:36:58 GMT 52.176819 -1.661447 20,775 108 325 -768
2019-06-25 09:36:55 GMT 52.179844 -1.676357 21,200 106 331 -1536
2019-06-25 09:36:52 GMT 52.179844 -1.676357 20,875 107 329 -1344
2019-06-25 09:36:46 GMT 52.182587 -1.689911 20,975 107 329 -1408
2019-06-25 09:36:43 GMT 52.183868 -1.696472 21,125 107 330 -1408
2019-06-25 09:36:40 GMT 52.185699 -1.705933 21,125 107 330 -1408
2019-06-25 09:36:36 GMT 52.187386 -1.714966 21,225 106 331 -1472
2019-06-25 09:36:33 GMT 52.188271 -1.719753 21,275 106 331 -1536
2019-06-25 09:36:30 GMT 52.189865 -1.728821 21,325 105 331 -1600
2019-06-25 09:36:26 GMT 52.191788 -1.739883 21,625 105 332 -1728
2019-06-25 09:36:23 GMT 52.192703 -1.745148 21,525 105 332 -1792
2019-06-25 09:36:19 GMT 52.194260 -1.754303 21,675 105 331 -1792
2019-06-25 09:36:16 GMT 52.195484 -1.761501 21,725 107 329 -1728
2019-06-25 09:36:13 GMT 52.196651 -1.768171 21,750 106 331 -1856
2019-06-25 09:36:10 GMT 52.198139 -1.776254 22,225 117 320 -1472
2019-06-25 09:36:07 GMT 52.199341 -1.782379 21,975 109 327 -1536
2019-06-25 09:36:03 GMT 52.201862 -1.793989 22,025 111 325 -1408
2019-06-25 09:36:00 GMT 52.203030 -1.798540 22,200 125 317 -1280
2019-06-25 09:35:57 GMT 52.205521 -1.806793 22,300 127 316 -1280
2019-06-25 09:35:53 GMT 52.209000 -1.815796 22,250 122 318 -1344
2019-06-25 09:35:50 GMT 52.210739 -1.819611 22,325 128 315 -1280
2019-06-25 09:35:47 GMT 52.213364 -1.824751 22,450 133 314 -1216
2019-06-25 09:35:44 GMT 52.216415 -1.829910 22,425 140 311 -1536
2019-06-25 09:35:41 GMT 52.220577 -1.835815 22,500 143 311 -1664
2019-06-25 09:35:38 GMT 52.224255 -1.840288 22,550 144 310 -1728
2019-06-25 09:35:35 GMT 52.226631 -1.842878 22,650 146 309 -1792
2019-06-25 09:35:32 GMT 52.233334 -1.849941 22,775 147 309 -1728
2019-06-25 09:35:26 GMT 52.238174 -1.854963 22,950 147 309 -1600
2019-06-25 09:35:23 GMT 52.240784 -1.857710 23,000 147 308 -1536
2019-06-25 09:35:20 GMT 52.245159 -1.862183 23,050 147 308 -1536
2019-06-25 09:35:17 GMT 52.248276 -1.865387 23,125 147 308 -1536
2019-06-25 09:35:14 GMT 52.251663 -1.868896 23,825 148 307 -1792
2019-06-25 09:35:11 GMT 52.259857 -1.877289 23,475 148 309 -1728
2019-06-25 09:35:08 GMT 52.259857 -1.877289 23,325 147 309 -1472
2019-06-25 09:35:05 GMT 52.263500 -1.880938 23,425 148 309 -1600
2019-06-25 09:35:02 GMT 52.266174 -1.883698 23,475 148 309 -1664
2019-06-25 09:34:58 GMT 52.270760 -1.888314 23,625 148 308 -1856
2019-06-25 09:34:55 GMT 52.275650 -1.893258 23,650 148 308 -1856
2019-06-25 09:34:52 GMT 52.278534 -1.896162 23,750 148 308 -1792
2019-06-25 09:34:49 GMT 52.283615 -1.901321 23,900 148 307 -1792
2019-06-25 09:34:46 GMT 52.287243 -1.905029 24,000 148 307 -1664
2019-06-25 09:34:43 GMT 52.290848 -1.908646 24,075 148 307 -1600
2019-06-25 09:34:40 GMT 52.293015 -1.910836 24,125 148 307 -1472
2019-06-25 09:34:37 GMT 52.296158 -1.914062 24,175 148 307 -1408
2019-06-25 09:34:34 GMT 52.303627 -1.921587 24,300 148 310 -1088
2019-06-25 09:34:28 GMT 52.308243 -1.926270 24,525 148 310 -1024
2019-06-25 09:34:25 GMT 52.311680 -1.929670 24,425 148 311 -960
2019-06-25 09:34:22 GMT 52.315842 -1.933899 24,675 148 311 -832
2019-06-25 09:34:19 GMT 52.318523 -1.936576 24,500 148 313 -704
2019-06-25 09:34:16 GMT 52.325226 -1.943283 24,550 148 317 -576
2019-06-25 09:34:13 GMT 52.325226 -1.943283 24,575 148 317 -640
2019-06-25 09:34:10 GMT 52.330215 -1.948242 24,625 148 321 -1024
2019-06-25 09:34:07 GMT 52.333000 -1.951015 24,600 148 320 -832
2019-06-25 09:34:04 GMT 52.337814 -1.955719 24,650 148 321 -1152
2019-06-25 09:34:01 GMT 52.341339 -1.959229 25,050 148 323 -1344
2019-06-25 09:33:58 GMT 52.345200 -1.963021 25,075 148 323 -1664
2019-06-25 09:33:54 GMT 52.349758 -1.967573 24,850 148 323 -1536
2019-06-25 09:33:51 GMT 52.353104 -1.970825 24,975 148 323 -1536
2019-06-25 09:33:48 GMT 52.357441 -1.975106 25,100 148 323 -1664
2019-06-25 09:33:45 GMT 52.364613 -1.982169 25,450 148 323 -1856
2019-06-25 09:33:42 GMT 52.364613 -1.982169 25,325 148 323 -1728
2019-06-25 09:33:39 GMT 52.369732 -1.987270 25,300 148 324 -1792
2019-06-25 09:33:36 GMT 52.372292 -1.989859 25,525 147 328 -1792
2019-06-25 09:33:33 GMT 52.377411 -1.994960 25,500 148 323 -1856
2019-06-25 09:33:30 GMT 52.382534 -2.000061 25,975 148 324 -1856
2019-06-25 09:33:27 GMT 52.384277 -2.001801 26,075 148 322 -1216
2019-06-25 09:33:23 GMT 52.389404 -2.006912 25,825 148 322 -1920
2019-06-25 09:33:20 GMT 52.393433 -2.011032 25,850 148 322 -1920
2019-06-25 09:33:17 GMT 52.398270 -2.015913 26,125 148 322 -1664
2019-06-25 09:33:14 GMT 52.401806 -2.019523 26,025 148 322 -1536
2019-06-25 09:33:11 GMT 52.405609 -2.023392 26,275 147 324 -1024
2019-06-25 09:33:05 GMT 52.412418 -2.030352 26,425 147 325 -960
2019-06-25 09:33:02 GMT 52.416779 -2.034760 26,250 146 329 -1536
2019-06-25 09:32:59 GMT 52.419342 -2.037430 26,300 147 327 -1088
2019-06-25 09:32:56 GMT 52.425220 -2.043457 26,375 147 328 -1664
2019-06-25 09:32:53 GMT 52.431107 -2.049484 26,500 147 328 -2176
2019-06-25 09:32:50 GMT 52.431107 -2.049484 26,525 147 327 -2496
2019-06-25 09:32:47 GMT 52.436485 -2.055071 26,675 147 326 -2688
2019-06-25 09:32:44 GMT 52.440582 -2.059309 26,725 147 325 -1984
2019-06-25 09:32:41 GMT 52.447659 -2.066685 26,950 147 325 -1472
2019-06-25 09:32:38 GMT 52.447659 -2.066685 26,975 147 325 -1664
2019-06-25 09:32:35 GMT 52.451935 -2.071152 27,250 147 325 -1472
2019-06-25 09:32:32 GMT 52.455002 -2.074356 27,175 147 326 -1472
2019-06-25 09:32:29 GMT 52.459808 -2.079398 27,250 147 327 -1536
2019-06-25 09:32:26 GMT 52.466419 -2.086382 27,350 146 327 -1472
2019-06-25 09:32:23 GMT 52.466419 -2.086382 27,875 146 327 -1472
2019-06-25 09:32:20 GMT 52.469959 -2.090149 27,425 146 327 -1472
2019-06-25 09:32:17 GMT 52.472984 -2.093445 27,525 146 327 -1472
2019-06-25 09:32:14 GMT 52.477295 -2.098007 27,725 146 329 -1536
2019-06-25 09:32:11 GMT 52.486156 -2.107649 27,750 146 329 -1472
2019-06-25 09:32:08 GMT 52.486156 -2.107649 27,850 146 329 -1472
2019-06-25 09:32:05 GMT 52.489471 -2.111206 27,950 146 330 -1536
2019-06-25 09:32:02 GMT 52.493282 -2.115339 27,850 146 331 -1472
2019-06-25 09:31:59 GMT 52.496109 -2.118378 27,975 146 331 -1472
2019-06-25 09:31:56 GMT 52.500183 -2.122803 28,025 146 331 -1472
2019-06-25 09:31:53 GMT 52.502701 -2.125549 28,100 146 332 -1472
2019-06-25 09:31:49 GMT 52.508083 -2.131426 28,200 146 332 -1472
2019-06-25 09:31:46 GMT 52.513718 -2.137547 28,250 146 333 -1536
2019-06-25 09:31:43 GMT 52.516277 -2.140372 28,600 146 333 -1536
2019-06-25 09:31:40 GMT 52.520653 -2.145081 28,550 146 335 -1536
2019-06-25 09:31:37 GMT 52.524490 -2.149277 28,525 146 335 -1536
2019-06-25 09:31:34 GMT 52.527328 -2.152405 28,650 146 339 -1536
2019-06-25 09:31:31 GMT 52.536896 -2.162781 28,725 146 336 -1472
2019-06-25 09:31:28 GMT 52.536896 -2.162781 28,775 146 336 -1472
2019-06-25 09:31:24 GMT 52.541557 -2.167838 28,800 146 336 -1472
2019-06-25 09:31:21 GMT 52.545189 -2.171762 28,875 144 356 -1600
2019-06-25 09:31:17 GMT 52.553787 -2.181091 29,050 146 339 -1536
2019-06-25 09:31:14 GMT 52.554543 -2.181963 29,050 146 339 -1536
2019-06-25 09:31:11 GMT 52.557709 -2.185338 29,100 146 339 -1536
2019-06-25 09:31:08 GMT 52.562412 -2.190438 29,300 146 340 -1536
2019-06-25 09:31:05 GMT 52.565826 -2.194138 29,325 146 341 -1536
2019-06-25 09:31:02 GMT 52.570789 -2.199541 29,425 145 351 -1600
2019-06-25 09:30:59 GMT 52.576050 -2.205270 29,750 146 345 -1536
2019-06-25 09:30:56 GMT 52.578964 -2.208481 29,725 146 343 -1536
2019-06-25 09:30:53 GMT 52.582123 -2.211914 29,575 146 343 -1536
2019-06-25 09:30:50 GMT 52.585281 -2.215424 29,975 145 348 -1536
2019-06-25 09:30:47 GMT 52.589493 -2.220078 29,800 146 345 -1536
2019-06-25 09:30:44 GMT 52.594299 -2.225342 30,100 145 348 -1536
2019-06-25 09:30:41 GMT 52.598255 -2.229675 29,875 146 347 -1536
2019-06-25 09:30:38 GMT 52.600910 -2.232657 29,950 145 347 -1536
2019-06-25 09:30:35 GMT 52.606216 -2.238543 30,200 145 349 -1536
2019-06-25 09:30:32 GMT 52.610229 -2.242966 30,175 145 350 -1536
2019-06-25 09:30:29 GMT 52.613434 -2.246552 30,175 145 350 -1600
2019-06-25 09:30:26 GMT 52.621948 -2.256165 30,325 145 350 -1600
2019-06-25 09:30:19 GMT 52.627304 -2.262192 30,550 145 353 -1600
2019-06-25 09:30:16 GMT 52.629959 -2.265244 31,125 145 353 -1600
2019-06-25 09:30:13 GMT 52.639618 -2.276154 30,700 145 353 -1600
2019-06-25 09:30:10 GMT 52.639618 -2.276154 30,725 145 353 -1600
2019-06-25 09:30:06 GMT 52.645523 -2.282867 30,775 145 354 -1600
2019-06-25 09:30:03 GMT 52.648224 -2.285919 31,100 144 357 -1600
2019-06-25 09:30:00 GMT 52.651978 -2.290268 30,925 144 355 -1600
2019-06-25 09:29:57 GMT 52.657097 -2.296143 31,050 144 357 -1600
2019-06-25 09:29:53 GMT 52.661133 -2.300873 31,125 144 357 -1600
2019-06-25 09:29:50 GMT 52.666782 -2.307521 31,425 146 425 -2112
2019-06-25 09:29:47 GMT 52.669434 -2.310660 31,800 143 364 -1664
2019-06-25 09:29:44 GMT 52.673763 -2.315761 31,350 144 360 -1600
2019-06-25 09:29:41 GMT 52.677795 -2.320557 31,550 144 360 -1600
2019-06-25 09:29:38 GMT 52.688599 -2.333450 31,550 143 362 -1600
2019-06-25 09:29:34 GMT 52.688599 -2.333450 31,700 143 363 -1600
2019-06-25 09:29:31 GMT 52.692104 -2.337655 31,725 143 363 -1600
2019-06-25 09:29:28 GMT 52.696995 -2.343462 31,825 143 363 -1600
2019-06-25 09:29:25 GMT 52.704021 -2.351937 32,950 143 365 -1728
2019-06-25 09:29:22 GMT 52.704021 -2.351937 32,125 144 368 -1856
2019-06-25 09:29:19 GMT 52.707329 -2.355861 32,275 144 367 -1728
2019-06-25 09:29:16 GMT 52.712215 -2.361747 32,125 144 365 -1728
2019-06-25 09:29:12 GMT 52.721527 -2.372890 32,375 144 367 -1728
2019-06-25 09:29:09 GMT 52.721527 -2.372890 32,325 144 367 -1728
2019-06-25 09:29:06 GMT 52.725903 -2.378069 32,375 144 367 -1792
2019-06-25 09:29:02 GMT 52.731125 -2.384338 32,650 144 369 -1984
2019-06-25 09:28:59 GMT 52.736378 -2.390547 32,650 144 369 -1920
2019-06-25 09:28:56 GMT 52.739170 -2.393764 32,700 144 370 -2048
2019-06-25 09:28:53 GMT 52.744492 -2.399979 32,825 144 370 -2368
2019-06-25 09:28:50 GMT 52.747547 -2.403573 33,875 145 376 -2624
2019-06-25 09:28:47 GMT 52.753464 -2.410431 33,025 144 372 -2880
2019-06-25 09:28:44 GMT 52.755974 -2.413304 34,300 145 373 -2944
2019-06-25 09:28:41 GMT 52.759933 -2.417934 33,425 145 373 -2944
2019-06-25 09:28:38 GMT 52.765614 -2.424369 33,500 145 374 -2880
2019-06-25 09:28:35 GMT 52.769852 -2.429276 33,650 145 375 -2688
2019-06-25 09:28:32 GMT 52.773834 -2.433853 33,825 145 377 -2496
2019-06-25 09:28:29 GMT 52.778088 -2.438729 33,900 145 377 -2496
2019-06-25 09:28:26 GMT 52.780975 -2.442025 34,700 145 390 -1984
2019-06-25 09:28:23 GMT 52.784977 -2.446655 34,300 145 379 -2560
2019-06-25 09:28:20 GMT 52.790405 -2.452927 34,325 145 382 -2496
2019-06-25 09:28:17 GMT 52.794754 -2.457877 34,400 145 382 -2496
2019-06-25 09:28:14 GMT 52.799103 -2.462845 34,500 145 382 -2496
2019-06-25 09:28:11 GMT 52.803459 -2.467843 34,675 145 385 -2496
2019-06-25 09:28:08 GMT 52.806347 -2.471218 34,700 145 386 -2496
2019-06-25 09:28:05 GMT 52.815144 -2.481262 35,075 145 390 -2112
2019-06-25 09:27:59 GMT 52.821945 -2.489090 35,125 145 394 -1408
2019-06-25 09:27:56 GMT 52.824921 -2.492447 35,250 145 396 -1088
2019-06-25 09:27:53 GMT 52.830040 -2.498213 35,250 145 404 -768
2019-06-25 09:27:50 GMT 52.835487 -2.504412 35,275 146 417 -1472
2019-06-25 09:27:47 GMT 52.838604 -2.507865 35,375 145 406 -768
2019-06-25 09:27:44 GMT 52.847309 -2.517674 35,375 146 419 -1920
2019-06-25 09:27:38 GMT 52.853039 -2.524030 35,400 146 419 -1920
2019-06-25 09:27:35 GMT 52.859161 -2.530823 35,550 145 426 -2176
2019-06-25 09:27:32 GMT 52.862720 -2.534781 35,700 146 425 -2112
2019-06-25 09:27:29 GMT 52.872162 -2.545242 35,825 145 428 -2176
2019-06-25 09:27:23 GMT 52.877380 -2.551117 36,050 144 432 -2176
2019-06-25 09:27:20 GMT 52.882599 -2.557144 36,100 131 452 -2176
2019-06-25 09:27:17 GMT 52.887440 -2.563032 36,350 135 449 -2112
2019-06-25 09:27:14 GMT 52.892559 -2.569545 36,325 137 446 -2112
2019-06-25 09:27:11 GMT 52.897293 -2.575836 36,550 128 456 -2304
2019-06-25 09:27:08 GMT 52.901001 -2.581177 36,475 135 447 -2112
2019-06-25 09:27:05 GMT 52.906155 -2.588928 36,550 135 447 -2112
2019-06-25 09:27:02 GMT 52.911163 -2.597122 36,875 133 451 -2240
2019-06-25 09:26:59 GMT 52.915974 -2.605565 36,900 131 452 -2176
2019-06-25 09:26:56 GMT 52.919037 -2.611237 37,025 129 454 -2240
2019-06-25 09:26:53 GMT 52.923889 -2.620773 37,125 129 454 -2368
2019-06-25 09:26:50 GMT 52.928101 -2.629395 37,325 127 456 -2560
2019-06-25 09:26:47 GMT 52.930710 -2.634811 37,300 128 455 -2496
2019-06-25 09:26:44 GMT 52.934830 -2.643585 37,475 127 455 -2560
2019-06-25 09:26:41 GMT 52.942371 -2.659555 38,225 128 460 -1728
2019-06-25 09:26:38 GMT 52.947536 -2.670462 38,000 128 457 -1984
2019-06-25 09:26:35 GMT 52.947536 -2.670462 37,925 128 456 -2240
2019-06-25 09:26:32 GMT 52.950394 -2.676544 38,050 128 459 -1792
2019-06-25 09:26:28 GMT 52.956161 -2.688599 38,150 128 458 -1728
2019-06-25 09:26:25 GMT 52.959038 -2.694632 38,350 128 458 -1792
2019-06-25 09:26:22 GMT 52.963989 -2.705078 38,250 128 459 -1792
2019-06-25 09:26:19 GMT 52.966644 -2.710571 38,400 128 459 -1728
2019-06-25 09:26:16 GMT 52.971603 -2.721078 39,000 129 460 -128
2019-06-25 09:26:13 GMT 52.978497 -2.735439 38,625 128 461 -1600
2019-06-25 09:26:10 GMT 52.978497 -2.735439 38,825 128 461 -1408
2019-06-25 09:26:07 GMT 52.982731 -2.744228 38,625 128 461 -1472
2019-06-25 09:26:04 GMT 52.988037 -2.755293 38,850 128 462 -896
2019-06-25 09:26:01 GMT 52.990448 -2.760239 38,850 128 462 -960
2019-06-25 09:25:58 GMT 52.996044 -2.771851 38,875 128 462 -960
2019-06-25 09:25:55 GMT 52.999512 -2.778931 38,925 128 461 -576
2019-06-25 09:25:52 GMT 53.002213 -2.784500 38,950 128 461 -448
2019-06-25 09:25:49 GMT 53.007568 -2.795410 38,975 128 461 -384
2019-06-25 09:25:46 GMT 53.011547 -2.803632 39,000 128 460 0
2019-06-25 09:25:43 GMT 53.015579 -2.811890 39,000 128 460 64
2019-06-25 09:25:40 GMT 53.019287 -2.819519 39,000 128 460 64
2019-06-25 09:25:36 GMT 53.024094 -2.829437 39,000 128 460 64
2019-06-25 09:25:33 GMT 53.028118 -2.837612 39,000 128 459 0
2019-06-25 09:25:30 GMT 53.032608 -2.846909 39,000 128 459 0
2019-06-25 09:25:27 GMT 53.037151 -2.856288 39,000 128 459 0
2019-06-25 09:25:24 GMT 53.045624 -2.873788 39,000 128 459 0
2019-06-25 09:25:21 GMT 53.045624 -2.873788 39,000 128 459 0
2019-06-25 09:25:18 GMT 53.049347 -2.881478 39,000 129 459 -64
2019-06-25 09:25:14 GMT 53.054947 -2.892990 39,000 128 460 64
2019-06-25 09:25:11 GMT 53.057602 -2.898483 39,000 128 460 64
2019-06-25 09:25:08 GMT 53.061592 -2.906747 39,000 128 460 0
2019-06-25 09:25:05 GMT 53.065315 -2.914359 39,000 128 460 0
2019-06-25 09:25:02 GMT 53.069824 -2.923660 39,000 128 458 0
2019-06-25 09:24:59 GMT 53.073833 -2.931937 39,000 128 460 0
2019-06-25 09:24:56 GMT 53.078888 -2.942352 39,000 128 459 0
2019-06-25 09:24:53 GMT 53.081543 -2.947845 39,000 128 459 0
2019-06-25 09:24:50 GMT 53.085564 -2.956029 39,000 128 459 64
2019-06-25 09:24:47 GMT 53.089291 -2.963719 39,000 128 458 0
2019-06-25 09:24:43 GMT 53.095669 -2.976891 39,000 128 458 0
2019-06-25 09:24:40 GMT 53.099625 -2.985142 39,000 128 458 0
2019-06-25 09:24:37 GMT 53.103580 -2.993371 39,000 128 458 0
2019-06-25 09:24:34 GMT 53.106747 -2.999995 39,000 128 458 -64
2019-06-25 09:24:31 GMT 53.111252 -3.009312 39,000 128 458 0
2019-06-25 09:24:28 GMT 53.113907 -3.014805 39,000 128 458 0
2019-06-25 09:24:24 GMT 53.119968 -3.027460 39,000 128 458 0
2019-06-25 09:24:21 GMT 53.127640 -3.043370 39,000 128 458 0
2019-06-25 09:24:18 GMT 53.127640 -3.043370 39,000 128 458 0
2019-06-25 09:24:15 GMT 53.136353 -3.061550 39,000 128 458 0
2019-06-25 09:24:12 GMT 53.136353 -3.061550 39,000 128 458 0
2019-06-25 09:24:09 GMT 53.144314 -3.077949 39,000 128 458 0
2019-06-25 09:24:06 GMT 53.144314 -3.077949 39,000 128 458 0
2019-06-25 09:24:03 GMT 53.151993 -3.093907 39,000 129 459 -64
2019-06-25 09:23:57 GMT 53.160461 -3.111485 39,000 128 458 0
2019-06-25 09:23:54 GMT 53.160461 -3.111485 39,000 128 458 64
2019-06-25 09:23:50 GMT 53.164425 -3.119713 39,000 128 458 0
2019-06-25 09:23:47 GMT 53.168427 -3.127965 39,000 133 457 0
2019-06-25 09:23:44 GMT 53.173454 -3.138374 39,000 128 459 0
2019-06-25 09:23:41 GMT 53.177444 -3.146641 39,000 128 459 0
2019-06-25 09:23:38 GMT 53.181152 -3.154332 39,000 129 459 0
2019-06-25 09:23:35 GMT 53.185188 -3.162528 39,000 129 459 -64
2019-06-25 09:23:32 GMT 53.189514 -3.171252 39,000 130 458 -64
2019-06-25 09:23:29 GMT 53.193333 -3.178846 39,000 131 457 -128
2019-06-25 09:23:26 GMT 53.197708 -3.187408 39,000 131 457 -128
2019-06-25 09:23:23 GMT 53.200745 -3.193255 39,000 132 457 -64
2019-06-25 09:23:20 GMT 53.204971 -3.201141 39,000 132 457 -128
2019-06-25 09:23:17 GMT 53.208977 -3.208493 39,000 133 457 0
2019-06-25 09:23:14 GMT 53.214142 -3.217702 39,000 133 457 0
2019-06-25 09:23:11 GMT 53.219101 -3.226371 39,000 133 457 0
2019-06-25 09:23:08 GMT 53.222893 -3.232969 39,000 133 457 0
2019-06-25 09:23:05 GMT 53.227295 -3.240574 39,000 133 458 0
2019-06-25 09:23:02 GMT 53.231647 -3.248237 39,000 133 458 -64
2019-06-25 09:22:59 GMT 53.236347 -3.256315 39,000 133 458 -64
2019-06-25 09:22:56 GMT 53.244541 -3.270614 39,000 133 458 -64
2019-06-25 09:22:53 GMT 53.244541 -3.270614 39,000 133 458 -64
2019-06-25 09:22:50 GMT 53.250965 -3.281762 39,000 133 458 0
2019-06-25 09:22:47 GMT 53.258331 -3.294407 39,000 133 458 0
2019-06-25 09:22:41 GMT 53.262745 -3.302038 39,000 133 458 -64
2019-06-25 09:22:35 GMT 53.271835 -3.317793 39,000 133 458 -64
2019-06-25 09:22:32 GMT 53.277409 -3.327403 39,000 133 458 -64
2019-06-25 09:22:29 GMT 53.280338 -3.332493 39,000 133 458 -64
2019-06-25 09:22:25 GMT 53.286530 -3.343218 39,000 134 464 0
2019-06-25 09:22:22 GMT 53.296555 -3.360482 39,000 134 460 0
2019-06-25 09:22:18 GMT 53.296555 -3.360482 39,000 134 461 0
2019-06-25 09:22:15 GMT 53.301865 -3.369664 39,000 134 461 0
2019-06-25 09:22:12 GMT 53.304245 -3.373744 39,000 134 465 64
2019-06-25 09:22:09 GMT 53.315907 -3.393725 39,000 134 467 64
2019-06-25 09:22:05 GMT 53.315907 -3.393725 39,000 118 483 320
2019-06-25 09:22:02 GMT 53.319489 -3.399865 39,000 134 465 64
2019-06-25 09:21:59 GMT 53.326447 -3.411647 39,000 134 467 64
2019-06-25 09:21:56 GMT 53.329514 -3.416748 39,000 134 468 0
2019-06-25 09:21:53 GMT 53.334061 -3.424422 39,000 134 468 0
2019-06-25 09:21:50 GMT 53.338623 -3.432207 39,000 134 470 64
2019-06-25 09:21:47 GMT 53.347374 -3.447203 39,000 133 471 64
2019-06-25 09:21:44 GMT 53.347374 -3.447203 39,000 133 471 64
2019-06-25 09:21:41 GMT 53.351566 -3.454554 39,000 133 471 128
2019-06-25 09:21:38 GMT 53.358353 -3.466736 39,000 131 473 192
2019-06-25 09:21:35 GMT 53.360138 -3.470032 39,000 130 473 256
2019-06-25 09:21:32 GMT 53.365265 -3.479841 39,000 128 475 384
2019-06-25 09:21:29 GMT 53.369202 -3.487688 39,000 127 475 384
2019-06-25 09:21:26 GMT 53.372700 -3.495187 39,000 126 476 384
2019-06-25 09:21:23 GMT 53.378128 -3.507621 39,000 123 479 320
2019-06-25 09:21:20 GMT 53.381104 -3.514919 39,000 121 479 320
2019-06-25 09:21:17 GMT 53.384445 -3.523629 39,000 120 480 320
2019-06-25 09:21:14 GMT 53.388294 -3.534447 39,000 119 481 320
2019-06-25 09:21:11 GMT 53.390213 -3.540266 39,000 116 484 320
2019-06-25 09:21:08 GMT 53.394531 -3.554158 39,000 115 484 320
2019-06-25 09:21:05 GMT 53.397400 -3.564279 39,000 113 485 320
2019-06-25 09:21:02 GMT 53.399872 -3.573853 39,000 110 487 320
2019-06-25 09:20:59 GMT 53.402527 -3.584996 39,000 109 488 384
2019-06-25 09:20:56 GMT 53.404724 -3.594884 39,000 108 489 384
2019-06-25 09:20:53 GMT 53.406822 -3.605616 39,000 101 493 384
2019-06-25 09:20:50 GMT 53.410267 -3.625973 39,000 104 491 384
2019-06-25 09:20:44 GMT 53.411865 -3.637024 39,000 102 493 384
2019-06-25 09:20:41 GMT 53.413246 -3.648188 39,000 97 495 320
2019-06-25 09:20:38 GMT 53.415714 -3.673796 39,000 97 496 320
2019-06-25 09:20:35 GMT 53.415714 -3.673796 39,000 96 497 256
2019-06-25 09:20:32 GMT 53.417110 -3.696738 39,000 95 497 256
2019-06-25 09:20:29 GMT 53.417110 -3.696738 39,000 94 497 192
2019-06-25 09:20:26 GMT 53.417633 -3.708200 39,000 93 498 64
2019-06-25 09:20:22 GMT 53.418133 -3.719680 39,000 93 498 64
2019-06-25 09:20:19 GMT 53.418732 -3.734331 39,000 93 498 64
2019-06-25 09:20:15 GMT 53.419205 -3.745853 39,000 93 498 0
2019-06-25 09:20:12 GMT 53.419903 -3.762737 39,000 93 498 0
2019-06-25 09:20:09 GMT 53.420181 -3.770411 39,000 93 498 0
2019-06-25 09:20:06 GMT 53.421207 -3.794969 39,000 93 498 0
2019-06-25 09:20:00 GMT 53.421753 -3.808018 39,000 93 497 0
2019-06-25 09:19:57 GMT 53.422119 -3.817200 39,000 93 497 0
2019-06-25 09:19:54 GMT 53.422558 -3.828735 39,000 93 497 0
2019-06-25 09:19:51 GMT 53.423023 -3.839479 39,000 93 497 0
2019-06-25 09:19:48 GMT 53.423996 -3.863185 39,000 93 497 64
2019-06-25 09:19:45 GMT 53.424500 -3.875427 39,000 93 496 64
2019-06-25 09:19:42 GMT 53.424500 -3.875427 39,000 93 496 0
2019-06-25 09:19:38 GMT 53.425117 -3.889968 39,000 93 496 64
2019-06-25 09:19:35 GMT 53.425957 -3.911375 39,000 93 496 64
2019-06-25 09:19:32 GMT 53.425957 -3.911375 39,000 93 496 0
2019-06-25 09:19:29 GMT 53.426559 -3.926643 39,000 93 496 64
2019-06-25 09:19:25 GMT 53.427063 -3.939619 39,000 93 495 0
2019-06-25 09:19:22 GMT 53.427586 -3.952655 39,000 93 495 0
2019-06-25 09:19:19 GMT 53.427956 -3.961783 39,000 93 495 0
2019-06-25 09:19:16 GMT 53.428345 -3.971715 39,000 93 495 0
2019-06-25 09:19:13 GMT 53.428841 -3.983190 39,000 93 495 0
2019-06-25 09:19:10 GMT 53.429447 -3.998458 39,000 93 495 0
2019-06-25 09:19:07 GMT 53.429867 -4.009121 39,000 93 494 0
2019-06-25 09:19:04 GMT 53.430935 -4.036506 39,000 93 494 0
2019-06-25 09:19:00 GMT 53.431309 -4.045715 39,000 93 492 0
2019-06-25 09:18:57 GMT 53.431820 -4.059367 39,000 93 493 0
2019-06-25 09:18:54 GMT 53.431820 -4.059367 39,000 93 493 0
2019-06-25 09:18:51 GMT 53.432236 -4.070827 39,000 93 491 0
2019-06-25 09:18:48 GMT 53.432613 -4.080694 39,000 93 492 0
2019-06-25 09:18:45 GMT 53.433029 -4.092892 39,000 93 492 0
2019-06-25 09:18:42 GMT 53.433472 -4.104257 39,000 93 492 0
2019-06-25 09:18:39 GMT 53.433964 -4.117207 39,000 93 492 0
2019-06-25 09:18:33 GMT 53.434895 -4.141523 39,000 93 492 0
2019-06-25 09:18:28 GMT 53.435593 -4.159779 39,000 93 490 0
2019-06-25 09:18:25 GMT 53.435871 -4.167373 39,000 93 490 0
2019-06-25 09:18:22 GMT 53.436310 -4.178728 39,000 93 492 0
2019-06-25 09:18:19 GMT 53.436768 -4.190813 39,000 93 491 0
2019-06-25 09:18:16 GMT 53.437180 -4.201486 39,000 93 492 64
2019-06-25 09:18:13 GMT 53.437775 -4.216631 39,000 93 491 0
2019-06-25 09:18:10 GMT 53.438198 -4.228040 39,000 93 491 0
2019-06-25 09:18:07 GMT 53.438522 -4.237087 39,000 93 491 0
2019-06-25 09:18:03 GMT 53.439102 -4.251552 39,000 93 491 0
2019-06-25 09:18:00 GMT 53.439548 -4.264392 39,000 93 491 0
2019-06-25 09:17:57 GMT 53.440014 -4.276590 39,000 93 491 0
2019-06-25 09:17:54 GMT 53.440479 -4.288707 39,000 93 491 0
2019-06-25 09:17:51 GMT 53.440758 -4.296301 39,000 93 491 0
2019-06-25 09:17:48 GMT 53.441162 -4.307661 39,000 93 491 0
2019-06-25 09:17:45 GMT 53.441574 -4.318255 39,000 93 491 0
2019-06-25 09:17:42 GMT 53.442123 -4.333400 39,000 93 491 0
2019-06-25 09:17:36 GMT 53.442902 -4.356158 39,000 93 491 0
2019-06-25 09:17:33 GMT 53.443268 -4.365261 39,000 93 491 0
2019-06-25 09:17:30 GMT 53.443634 -4.375933 39,000 93 491 0
2019-06-25 09:17:27 GMT 53.444065 -4.387261 39,000 93 492 0
2019-06-25 09:17:24 GMT 53.444458 -4.398690 39,000 93 491 0
2019-06-25 09:17:21 GMT 53.444996 -4.413111 39,000 93 491 0
2019-06-25 09:17:17 GMT 53.445374 -4.424430 39,000 93 491 0
2019-06-25 09:17:14 GMT 53.445786 -4.435811 39,000 93 492 0
2019-06-25 09:17:11 GMT 53.446335 -4.450248 39,000 93 492 0
2019-06-25 09:17:08 GMT 53.446857 -4.464731 39,000 93 490 0
2019-06-25 09:17:05 GMT 53.447090 -4.472324 39,000 93 492 0
2019-06-25 09:17:02 GMT 53.447460 -4.482907 39,000 93 492 0
2019-06-25 09:16:59 GMT 53.447983 -4.497410 39,000 93 491 0
2019-06-25 09:16:54 GMT 53.448898 -4.523228 39,000 93 491 0
2019-06-25 09:16:51 GMT 53.448898 -4.523228 39,000 93 491 0
2019-06-25 09:16:48 GMT 53.449280 -4.534607 39,000 93 491 0
2019-06-25 09:16:45 GMT 53.450069 -4.557387 39,000 93 491 0
2019-06-25 09:16:39 GMT 53.450638 -4.573295 39,000 93 491 0
2019-06-25 09:16:34 GMT 53.451141 -4.588518 39,000 93 491 0
2019-06-25 09:16:31 GMT 53.451653 -4.602868 39,000 93 490 64
2019-06-25 09:16:28 GMT 53.452072 -4.615066 39,000 93 490 0
2019-06-25 09:16:25 GMT 53.452305 -4.622659 39,000 93 490 0
2019-06-25 09:16:22 GMT 53.452724 -4.634696 39,000 93 490 0
2019-06-25 09:16:18 GMT 53.453281 -4.651417 39,000 93 490 0
2019-06-25 09:16:14 GMT 53.453747 -4.665070 39,000 93 490 0
2019-06-25 09:16:11 GMT 53.454121 -4.677187 39,000 93 490 0
2019-06-25 09:16:08 GMT 53.454586 -4.690839 39,000 93 490 0
2019-06-25 09:16:04 GMT 53.455376 -4.713539 39,000 93 488 0
2019-06-25 09:15:58 GMT 53.455811 -4.726397 39,000 93 490 0
2019-06-25 09:15:55 GMT 53.456085 -4.735500 39,000 93 489 0
2019-06-25 09:15:52 GMT 53.456543 -4.749076 39,000 93 489 0
2019-06-25 09:15:49 GMT 53.457275 -4.771755 39,000 93 489 0
2019-06-25 09:15:46 GMT 53.457275 -4.771755 39,000 93 488 0
2019-06-25 09:15:43 GMT 53.457596 -4.780858 39,000 93 489 0
2019-06-25 09:15:40 GMT 53.458008 -4.794434 39,000 93 489 64
2019-06-25 09:15:37 GMT 53.458374 -4.805028 39,000 93 488 0
2019-06-25 09:15:34 GMT 53.458649 -4.814131 39,000 93 488 0
2019-06-25 09:15:30 GMT 53.459332 -4.836004 39,000 93 488 0
2019-06-25 09:15:27 GMT 53.459892 -4.852645 39,000 93 488 0
2019-06-25 09:15:21 GMT 53.460342 -4.866943 39,000 93 488 0
2019-06-25 09:15:18 GMT 53.461166 -4.892604 39,000 93 488 0
2019-06-25 09:15:15 GMT 53.461166 -4.892604 39,000 93 488 0
2019-06-25 09:15:12 GMT 53.461441 -4.900138 39,000 93 488 0
2019-06-25 09:15:09 GMT 53.461708 -4.908465 39,000 93 488 0
2019-06-25 09:15:06 GMT 53.462494 -4.933332 39,000 93 488 0
2019-06-25 09:15:00 GMT 53.462814 -4.943926 39,000 93 488 64
2019-06-25 09:14:57 GMT 53.463226 -4.955933 39,000 93 488 0
2019-06-25 09:14:54 GMT 53.463638 -4.969509 39,000 93 488 0
2019-06-25 09:14:51 GMT 53.463989 -4.980846 39,000 92 488 0
2019-06-25 09:14:48 GMT 53.464314 -4.991428 39,000 92 488 0
2019-06-25 09:14:45 GMT 53.464733 -5.004999 39,000 92 488 0
2019-06-25 09:14:42 GMT 53.465012 -5.014788 39,000 92 488 0
2019-06-25 09:14:39 GMT 53.465244 -5.021560 39,000 92 488 0
2019-06-25 09:14:36 GMT 53.466038 -5.047248 39,000 92 488 0
2019-06-25 09:14:30 GMT 53.466339 -5.058498 39,000 92 488 0
2019-06-25 09:14:26 GMT 53.466843 -5.075134 39,000 93 486 0
2019-06-25 09:14:20 GMT 53.467575 -5.099226 39,000 92 488 0
2019-06-25 09:14:17 GMT 53.467758 -5.104523 39,000 92 488 0
2019-06-25 09:14:13 GMT 53.468269 -5.121083 39,000 92 488 0
2019-06-25 09:14:09 GMT 53.468689 -5.136189 39,000 92 487 0
2019-06-25 09:14:06 GMT 53.468994 -5.145996 39,000 92 487 0
2019-06-25 09:14:03 GMT 53.469406 -5.159572 39,000 92 487 0
2019-06-25 09:13:59 GMT 53.469852 -5.173914 39,000 92 487 0
2019-06-25 09:13:55 GMT 53.470734 -5.201712 39,000 92 487 0
2019-06-25 09:13:48 GMT 53.471203 -5.217536 39,000 92 487 0
2019-06-25 09:13:45 GMT 53.471558 -5.228864 39,000 92 487 0
2019-06-25 09:13:42 GMT 53.471970 -5.242362 39,000 93 486 0
2019-06-25 09:13:39 GMT 53.472198 -5.249895 39,000 93 486 0
2019-06-25 09:13:36 GMT 53.472565 -5.260411 39,000 93 486 0
2019-06-25 09:13:32 GMT 53.473019 -5.274730 39,000 93 486 0
2019-06-25 09:13:29 GMT 53.474030 -5.305533 39,000 93 486 0
2019-06-25 09:13:25 GMT 53.474030 -5.305533 39,000 93 486 0
2019-06-25 09:13:21 GMT 53.474415 -5.316817 39,000 93 486 0
2019-06-25 09:13:17 GMT 53.474880 -5.330308 39,000 93 486 0
2019-06-25 09:13:14 GMT 53.475357 -5.343122 39,000 93 486 64
2019-06-25 09:13:11 GMT 53.475861 -5.358824 39,000 93 485 -128
2019-06-25 09:13:08 GMT 53.476089 -5.367135 39,000 92 486 0
2019-06-25 09:13:04 GMT 53.476463 -5.379908 39,000 94 485 -192
2019-06-25 09:13:01 GMT 53.476959 -5.394130 39,000 94 485 -192
2019-06-25 09:12:58 GMT 53.477348 -5.403900 39,000 94 484 -192
2019-06-25 09:12:55 GMT 53.477814 -5.412867 39,000 95 484 -192
2019-06-25 09:12:52 GMT 53.478836 -5.429993 39,000 96 484 -128
2019-06-25 09:12:49 GMT 53.479248 -5.435957 39,000 103 480 -64
2019-06-25 09:12:46 GMT 53.480530 -5.452279 39,000 108 478 -64
2019-06-25 09:12:43 GMT 53.481033 -5.458165 39,000 99 483 -192
2019-06-25 09:12:40 GMT 53.482132 -5.470014 39,000 100 481 -192
2019-06-25 09:12:37 GMT 53.483261 -5.481047 39,000 100 481 -192
2019-06-25 09:12:34 GMT 53.484512 -5.491987 39,000 101 481 -128
2019-06-25 09:12:31 GMT 53.486252 -5.506662 39,000 101 481 -128
2019-06-25 09:12:28 GMT 53.487263 -5.514652 39,000 102 480 -64
2019-06-25 09:12:25 GMT 53.488987 -5.527739 39,000 102 480 -64
2019-06-25 09:12:22 GMT 53.490524 -5.539371 39,000 103 480 -64
2019-06-25 09:12:19 GMT 53.491734 -5.548015 39,000 103 479 -128
2019-06-25 09:12:16 GMT 53.493301 -5.558847 39,000 108 478 -128
2019-06-25 09:12:12 GMT 53.495087 -5.570382 39,000 108 482 0
2019-06-25 09:12:08 GMT 53.498299 -5.588083 39,000 109 479 0
2019-06-25 09:12:05 GMT 53.500992 -5.601458 39,000 108 478 -64
2019-06-25 09:12:02 GMT 53.502411 -5.608442 39,000 109 479 0
2019-06-25 09:11:59 GMT 53.504860 -5.620395 39,000 109 479 0
2019-06-25 09:11:56 GMT 53.506714 -5.629551 39,000 109 479 0
2019-06-25 09:11:53 GMT 53.509472 -5.642853 39,000 109 479 0
2019-06-25 09:11:50 GMT 53.510742 -5.649170 39,000 109 479 64
2019-06-25 09:11:46 GMT 53.514496 -5.667376 39,000 108 478 64
2019-06-25 09:11:42 GMT 53.516190 -5.675773 39,000 108 478 64
2019-06-25 09:11:39 GMT 53.518524 -5.686994 39,000 108 478 64
2019-06-25 09:11:36 GMT 53.520641 -5.697542 39,000 108 481 0
2019-06-25 09:11:33 GMT 53.523651 -5.712263 39,000 108 478 0
2019-06-25 09:11:28 GMT 53.526489 -5.726310 39,000 108 478 0
2019-06-25 09:11:25 GMT 53.528648 -5.736802 39,000 108 479 0
2019-06-25 09:11:22 GMT 53.533630 -5.761387 39,000 108 481 64
2019-06-25 09:11:18 GMT 53.533630 -5.761387 39,000 108 479 0
2019-06-25 09:11:15 GMT 53.536377 -5.774770 39,000 108 481 0
2019-06-25 09:11:12 GMT 53.538097 -5.783171 39,000 108 479 0
2019-06-25 09:11:09 GMT 53.540661 -5.795854 39,000 108 481 0
2019-06-25 09:11:03 GMT 53.544250 -5.813494 39,000 108 482 0
2019-06-25 09:11:00 GMT 53.546711 -5.825500 39,000 108 481 0
2019-06-25 09:10:57 GMT 53.548714 -5.835356 39,000 108 481 0
2019-06-25 09:10:54 GMT 53.551601 -5.849493 39,000 108 483 0
2019-06-25 09:10:49 GMT 53.556381 -5.872820 39,000 108 482 0
2019-06-25 09:10:43 GMT 53.558945 -5.885533 39,000 108 482 0
2019-06-25 09:10:40 GMT 53.561420 -5.897558 39,000 108 483 0
2019-06-25 09:10:36 GMT 53.563423 -5.907494 39,000 108 483 0
2019-06-25 09:10:33 GMT 53.565857 -5.919591 39,000 108 483 0
2019-06-25 09:10:30 GMT 53.568314 -5.931648 39,000 108 483 0
2019-06-25 09:10:27 GMT 53.570312 -5.941584 39,000 108 483 0
2019-06-25 09:10:24 GMT 53.575058 -5.965027 39,000 108 483 0
2019-06-25 09:10:21 GMT 53.575058 -5.965027 39,000 108 483 0
2019-06-25 09:10:18 GMT 53.577347 -5.976406 39,000 108 483 0
2019-06-25 09:10:15 GMT 53.579205 -5.985610 39,000 108 483 0
2019-06-25 09:10:12 GMT 53.581207 -5.995546 39,000 108 483 0
2019-06-25 09:10:09 GMT 53.583488 -6.006936 39,000 108 483 0
2019-06-25 09:10:06 GMT 53.585442 -6.016873 39,000 108 483 0
2019-06-25 09:10:02 GMT 53.588470 -6.031808 39,000 108 483 0
2019-06-25 09:09:59 GMT 53.590714 -6.043187 39,000 108 483 0
2019-06-25 09:09:56 GMT 53.592892 -6.053790 39,000 108 483 0
2019-06-25 09:09:53 GMT 53.594612 -6.062353 39,000 108 483 0
2019-06-25 09:09:49 GMT 53.597733 -6.077944 39,000 108 483 0
2019-06-25 09:09:45 GMT 53.600620 -6.092161 39,000 108 483 0
2019-06-25 09:09:42 GMT 53.603180 -6.104925 39,000 108 483 0
2019-06-25 09:09:39 GMT 53.605042 -6.114127 39,000 108 483 0
2019-06-25 09:09:35 GMT 53.609417 -6.136187 39,000 108 483 0
2019-06-25 09:09:32 GMT 53.609417 -6.136187 39,000 108 483 0
2019-06-25 09:09:29 GMT 53.612137 -6.149676 39,000 108 483 0
2019-06-25 09:09:26 GMT 53.613556 -6.156817 39,000 108 483 0
2019-06-25 09:09:23 GMT 53.616539 -6.171731 39,000 108 483 0
2019-06-25 09:09:19 GMT 53.618912 -6.183812 39,000 108 482 0
2019-06-25 09:09:16 GMT 53.621613 -6.197339 39,000 108 482 0
2019-06-25 09:09:11 GMT 53.624172 -6.210103 39,000 108 483 0
2019-06-25 09:09:08 GMT 53.626282 -6.220773 39,000 108 483 0
2019-06-25 09:09:05 GMT 53.628845 -6.233564 39,000 108 482 0
2019-06-25 09:09:01 GMT 53.631248 -6.245647 39,000 108 482 0
2019-06-25 09:08:57 GMT 53.635071 -6.264875 39,000 108 482 0
2019-06-25 09:08:52 GMT 53.638184 -6.280491 39,000 108 482 0
2019-06-25 09:08:47 GMT 53.640976 -6.294695 39,000 108 482 0
2019-06-25 09:08:44 GMT 53.643265 -6.306074 39,000 108 482 0
2019-06-25 09:08:41 GMT 53.645508 -6.317453 39,000 108 482 64
2019-06-25 09:08:37 GMT 53.648754 -6.333780 39,000 108 482 0
2019-06-25 09:08:34 GMT 53.650475 -6.342262 39,000 108 482 0
2019-06-25 09:08:31 GMT 53.652988 -6.355106 39,000 108 482 0
2019-06-25 09:08:28 GMT 53.655121 -6.365792 39,000 108 482 0
2019-06-25 09:08:25 GMT 53.657505 -6.377887 39,000 108 482 0
2019-06-25 09:08:22 GMT 53.659332 -6.387137 39,000 108 482 0
2019-06-25 09:08:19 GMT 53.661182 -6.396386 39,000 108 482 0
2019-06-25 09:08:16 GMT 53.663818 -6.409895 39,000 108 482 0
2019-06-25 09:08:13 GMT 53.665932 -6.420539 39,000 108 482 0
2019-06-25 09:08:10 GMT 53.667480 -6.428336 39,000 108 482 0
2019-06-25 09:08:06 GMT 53.670170 -6.441866 39,000 108 482 0
2019-06-25 09:08:02 GMT 53.673386 -6.458235 39,000 108 482 0
2019-06-25 09:07:59 GMT 53.675034 -6.466788 39,000 108 482 0
2019-06-25 09:07:56 GMT 53.677383 -6.478864 39,000 108 481 0
2019-06-25 09:07:53 GMT 53.679474 -6.489546 39,000 108 480 0
2019-06-25 09:07:49 GMT 53.681992 -6.502337 39,000 108 481 0
2019-06-25 09:07:45 GMT 53.685059 -6.517953 39,000 108 481 0
2019-06-25 09:07:41 GMT 53.688080 -6.533569 39,000 108 481 0
2019-06-25 09:07:35 GMT 53.691582 -6.551325 39,000 108 481 0
2019-06-25 09:07:32 GMT 53.693771 -6.562715 39,000 108 480 0
2019-06-25 09:07:29 GMT 53.695724 -6.572652 39,000 108 480 0
2019-06-25 09:07:25 GMT 53.699203 -6.590384 39,000 108 480 0
2019-06-25 09:07:21 GMT 53.701824 -6.603833 39,000 108 480 0
2019-06-25 09:07:14 GMT 53.706524 -6.627987 39,000 108 479 0
2019-06-25 09:07:11 GMT 53.708588 -6.638646 39,000 108 479 0
2019-06-25 09:07:08 GMT 53.710236 -6.647121 39,000 108 479 64
2019-06-25 09:07:04 GMT 53.713367 -6.663450 39,000 108 480 0
2019-06-25 09:07:01 GMT 53.715454 -6.674116 39,000 108 480 0
2019-06-25 09:06:58 GMT 53.717510 -6.684696 39,000 108 480 0
2019-06-25 09:06:54 GMT 53.720947 -6.702445 39,000 108 480 0
2019-06-25 09:06:49 GMT 53.723465 -6.715236 39,000 108 480 0
2019-06-25 09:06:46 GMT 53.725388 -6.725202 39,000 108 480 0
2019-06-25 09:06:43 GMT 53.728180 -6.739328 39,000 108 480 0
2019-06-25 09:06:39 GMT 53.730499 -6.751422 39,000 108 480 0
2019-06-25 09:06:36 GMT 53.732300 -6.760672 39,000 108 480 0
2019-06-25 09:06:33 GMT 53.735321 -6.776289 39,000 108 479 0
2019-06-25 09:06:30 GMT 53.737389 -6.786966 39,000 108 480 0
2019-06-25 09:06:27 GMT 53.738785 -6.794075 39,000 108 480 0
2019-06-25 09:06:24 GMT 53.740814 -6.804696 39,000 107 479 0
2019-06-25 09:06:21 GMT 53.742603 -6.813947 39,000 107 479 0
2019-06-25 09:06:18 GMT 53.745350 -6.828164 39,000 107 479 0
2019-06-25 09:06:14 GMT 53.748051 -6.842301 39,000 107 479 0
2019-06-25 09:06:11 GMT 53.749832 -6.851545 39,000 107 479 0
2019-06-25 09:06:07 GMT 53.752304 -6.864336 39,000 107 479 0
2019-06-25 09:06:04 GMT 53.754456 -6.875637 39,000 107 479 64
2019-06-25 09:06:01 GMT 53.756523 -6.886327 39,000 107 479 64
2019-06-25 09:05:58 GMT 53.761131 -6.910400 39,000 107 479 0
2019-06-25 09:05:55 GMT 53.761131 -6.910400 39,000 107 479 0
2019-06-25 09:05:52 GMT 53.762760 -6.918963 39,000 107 479 -64
2019-06-25 09:05:49 GMT 53.765076 -6.930961 39,000 107 480 0
2019-06-25 09:05:45 GMT 53.767136 -6.941663 39,000 107 479 -64
2019-06-25 09:05:42 GMT 53.770393 -6.958708 39,000 107 479 0
2019-06-25 09:05:38 GMT 53.772171 -6.967922 39,000 107 480 0
2019-06-25 09:05:35 GMT 53.775192 -6.983538 39,000 107 480 0
2019-06-25 09:05:31 GMT 53.777237 -6.994252 39,000 107 480 0
2019-06-25 09:05:28 GMT 53.779148 -7.004188 39,000 107 480 0
2019-06-25 09:05:24 GMT 53.781464 -7.016340 39,000 107 480 0
2019-06-25 09:05:21 GMT 53.785946 -7.039813 39,000 107 481 0
2019-06-25 09:05:18 GMT 53.787899 -7.049830 39,000 107 481 0
2019-06-25 09:05:15 GMT 53.787899 -7.049830 39,000 107 481 0
2019-06-25 09:05:11 GMT 53.790756 -7.064758 39,000 107 481 0
2019-06-25 09:05:08 GMT 53.793346 -7.078346 39,000 107 481 0
2019-06-25 09:05:04 GMT 53.795105 -7.087594 39,000 107 481 0
2019-06-25 09:05:00 GMT 53.798126 -7.103367 39,000 107 481 0
2019-06-25 09:04:57 GMT 53.800278 -7.114746 39,000 107 481 0
2019-06-25 09:04:54 GMT 53.801926 -7.123378 39,000 107 481 0
2019-06-25 09:04:50 GMT 53.804901 -7.139073 39,000 107 481 0
2019-06-25 09:04:45 GMT 53.808151 -7.156259 39,000 107 481 0
2019-06-25 09:04:42 GMT 53.810196 -7.166963 39,000 107 481 0
2019-06-25 09:04:39 GMT 53.812618 -7.179889 39,000 107 481 0
2019-06-25 09:04:35 GMT 53.815643 -7.195641 39,000 107 481 0
2019-06-25 09:04:29 GMT 53.819134 -7.214221 39,000 107 482 0
2019-06-25 09:04:26 GMT 53.821045 -7.224319 39,000 107 482 0
2019-06-25 09:04:23 GMT 53.823349 -7.236459 39,000 107 482 0
2019-06-25 09:04:19 GMT 53.828247 -7.262277 39,000 107 482 0
2019-06-25 09:04:16 GMT 53.828247 -7.262277 39,000 107 482 0
2019-06-25 09:04:13 GMT 53.830399 -7.273734 39,000 107 481 0
2019-06-25 09:04:08 GMT 53.833286 -7.288782 39,000 107 482 0
2019-06-25 09:04:05 GMT 53.835846 -7.302455 39,000 107 482 0
2019-06-25 09:04:02 GMT 53.837570 -7.311724 39,000 107 482 0
2019-06-25 09:03:59 GMT 53.839478 -7.321822 39,000 107 482 0
2019-06-25 09:03:56 GMT 53.842072 -7.335493 39,000 107 482 0
2019-06-25 09:03:52 GMT 53.847347 -7.363506 39,000 107 482 0
2019-06-25 09:03:48 GMT 53.847347 -7.363506 39,000 107 483 64
2019-06-25 09:03:45 GMT 53.848801 -7.371355 39,000 107 482 0
2019-06-25 09:03:41 GMT 53.852188 -7.389356 39,000 107 482 0
2019-06-25 09:03:37 GMT 53.854431 -7.401568 39,000 107 482 64
2019-06-25 09:03:34 GMT 53.856190 -7.410925 39,000 107 482 0
2019-06-25 09:03:30 GMT 53.859169 -7.426677 39,000 107 482 0
2019-06-25 09:03:27 GMT 53.860931 -7.436018 39,000 107 482 0
2019-06-25 09:03:24 GMT 53.862942 -7.446792 39,000 107 482 0
2019-06-25 09:03:20 GMT 53.866562 -7.466152 39,000 107 482 0
2019-06-25 09:03:17 GMT 53.867455 -7.471188 39,000 107 482 0
2019-06-25 09:03:13 GMT 53.871094 -7.490557 39,000 107 481 0
2019-06-25 09:03:09 GMT 53.873089 -7.501319 39,000 107 481 0
2019-06-25 09:03:06 GMT 53.875626 -7.514962 39,000 107 481 0
2019-06-25 09:03:00 GMT 53.879608 -7.536464 39,000 107 481 0
2019-06-25 09:02:57 GMT 53.880936 -7.543605 39,000 107 481 0
2019-06-25 09:02:54 GMT 53.883316 -7.556553 39,000 107 481 0
2019-06-25 09:02:51 GMT 53.885052 -7.565864 39,000 107 481 0
2019-06-25 09:02:48 GMT 53.887299 -7.577977 39,000 107 479 0
2019-06-25 09:02:45 GMT 53.891006 -7.598066 39,000 107 480 0
2019-06-25 09:02:39 GMT 53.893112 -7.609523 39,000 107 480 0
2019-06-25 09:02:36 GMT 53.895340 -7.621684 39,000 107 480 64
2019-06-25 09:02:33 GMT 53.897095 -7.630947 39,000 107 480 0
2019-06-25 09:02:30 GMT 53.898651 -7.639579 39,000 107 479 0
2019-06-25 09:02:27 GMT 53.901161 -7.653108 39,000 107 479 0
2019-06-25 09:02:23 GMT 53.903687 -7.666731 39,000 107 479 0
2019-06-25 09:02:20 GMT 53.905678 -7.677505 39,000 107 479 -64
2019-06-25 09:02:17 GMT 53.909729 -7.699690 39,000 107 479 0
2019-06-25 09:02:14 GMT 53.909729 -7.699690 39,000 107 479 -64
2019-06-25 09:02:11 GMT 53.911331 -7.708322 39,000 107 479 0
2019-06-25 09:02:07 GMT 53.914333 -7.724762 39,000 107 479 0
2019-06-25 09:02:03 GMT 53.917099 -7.739790 39,000 107 479 0
2019-06-25 09:02:00 GMT 53.919083 -7.750531 39,000 107 479 0
2019-06-25 09:01:57 GMT 53.920898 -7.760548 39,000 107 479 0
2019-06-25 09:01:53 GMT 53.923504 -7.774927 39,000 107 479 0
2019-06-25 09:01:47 GMT 53.927078 -7.794250 39,000 107 480 0
2019-06-25 09:01:44 GMT 53.928764 -7.803605 39,000 107 479 0
2019-06-25 09:01:41 GMT 53.931931 -7.820812 39,000 107 479 0
2019-06-25 09:01:37 GMT 53.935608 -7.840845 39,000 107 480 0
2019-06-25 09:01:34 GMT 53.937561 -7.851615 39,000 107 480 0
2019-06-25 09:01:31 GMT 53.937561 -7.851615 39,000 107 480 0
2019-06-25 09:01:28 GMT 53.941662 -7.873804 39,000 107 480 0
2019-06-25 09:01:25 GMT 53.941662 -7.873804 39,000 107 482 0
2019-06-25 09:01:22 GMT 53.944656 -7.890302 39,000 107 480 0
2019-06-25 09:01:19 GMT 53.945850 -7.896827 39,000 107 480 0
2019-06-25 09:01:14 GMT 53.948738 -7.912580 39,000 107 480 0
2019-06-25 09:01:09 GMT 53.951752 -7.929147 39,000 107 481 0
2019-06-25 09:01:06 GMT 53.954361 -7.943508 39,000 107 481 0
2019-06-25 09:01:03 GMT 53.956192 -7.953552 39,000 107 481 0
2019-06-25 09:01:00 GMT 53.958023 -7.963675 39,000 107 481 64
2019-06-25 09:00:57 GMT 53.960003 -7.974459 39,000 107 482 0
2019-06-25 09:00:54 GMT 53.962608 -7.988838 39,000 107 482 0
2019-06-25 09:00:50 GMT 53.964424 -7.998935 39,000 107 482 0
2019-06-25 09:00:47 GMT 53.966564 -8.010487 39,000 107 482 0
2019-06-25 09:00:43 GMT 53.969173 -8.024947 39,000 107 482 0
2019-06-25 09:00:39 GMT 53.971893 -8.040109 39,000 106 483 0
2019-06-25 09:00:36 GMT 53.973999 -8.051644 39,000 106 483 0
2019-06-25 09:00:33 GMT 53.975971 -8.062511 39,000 107 483 0
2019-06-25 09:00:30 GMT 53.977936 -8.073303 39,000 107 483 0
2019-06-25 09:00:27 GMT 53.979767 -8.083426 39,000 107 483 0
2019-06-25 09:00:23 GMT 53.982880 -8.100848 39,000 107 483 -64
2019-06-25 09:00:19 GMT 53.984581 -8.110253 39,000 106 483 -64
2019-06-25 09:00:16 GMT 53.986958 -8.123259 39,000 107 483 0
2019-06-25 09:00:13 GMT 53.989563 -8.137719 39,000 106 483 0
2019-06-25 09:00:10 GMT 53.990982 -8.145656 39,000 106 483 0
2019-06-25 09:00:07 GMT 53.992916 -8.156541 39,000 106 483 0
2019-06-25 09:00:02 GMT 53.996078 -8.173909 39,000 106 483 -64
2019-06-25 08:59:59 GMT 54.000595 -8.199332 39,000 106 483 0
2019-06-25 08:59:56 GMT 54.000595 -8.199332 39,000 106 483 0
2019-06-25 08:59:53 GMT 54.001923 -8.206630 39,000 106 484 0
2019-06-25 08:59:50 GMT 54.003857 -8.217450 39,000 106 484 0
2019-06-25 08:59:47 GMT 54.006317 -8.231271 39,000 106 484 0
2019-06-25 08:59:43 GMT 54.008377 -8.242885 39,000 106 484 0
2019-06-25 08:59:39 GMT 54.011864 -8.262527 39,000 106 484 0
2019-06-25 08:59:36 GMT 54.012886 -8.268343 39,000 106 484 0
2019-06-25 08:59:33 GMT 54.014702 -8.278521 39,000 106 484 0
2019-06-25 08:59:30 GMT 54.017441 -8.293736 39,000 106 484 0
2019-06-25 08:59:26 GMT 54.020004 -8.308254 39,000 106 484 0
2019-06-25 08:59:22 GMT 54.021683 -8.317701 39,000 106 483 0
2019-06-25 08:59:18 GMT 54.024902 -8.335876 39,000 106 483 0
2019-06-25 08:59:14 GMT 54.026852 -8.346782 39,000 106 483 0
2019-06-25 08:59:08 GMT 54.031128 -8.370719 39,000 106 483 0
2019-06-25 08:59:04 GMT 54.033600 -8.384507 39,000 106 483 0
2019-06-25 08:59:01 GMT 54.038086 -8.409877 39,000 106 483 0
2019-06-25 08:58:57 GMT 54.038086 -8.409877 39,000 106 483 0
2019-06-25 08:58:54 GMT 54.042633 -8.435238 39,000 106 483 0
2019-06-25 08:58:50 GMT 54.042633 -8.435238 39,000 106 483 0
2019-06-25 08:58:47 GMT 54.044403 -8.445417 39,000 106 483 0
2019-06-25 08:58:44 GMT 54.047241 -8.461331 39,000 106 483 0
2019-06-25 08:58:37 GMT 54.054920 -8.504872 39,000 106 483 0
2019-06-25 08:58:31 GMT 54.054920 -8.504872 39,000 106 483 0
2019-06-25 08:58:26 GMT 54.059875 -8.533160 39,000 106 482 0
2019-06-25 08:58:23 GMT 54.059875 -8.533160 39,000 106 482 0
2019-06-25 08:58:19 GMT 54.062279 -8.546959 39,000 106 482 0
2019-06-25 08:58:15 GMT 54.064838 -8.561419 39,000 106 482 64
2019-06-25 08:58:12 GMT 54.066742 -8.572318 39,000 106 482 0
2019-06-25 08:58:08 GMT 54.068890 -8.584604 39,000 106 482 0
2019-06-25 08:58:05 GMT 54.071320 -8.598371 39,000 106 482 0
2019-06-25 08:58:02 GMT 54.073215 -8.609242 39,000 106 481 0
2019-06-25 08:57:58 GMT 54.075779 -8.623702 39,000 106 481 64
2019-06-25 08:57:55 GMT 54.077545 -8.633800 39,000 106 481 0
2019-06-25 08:57:52 GMT 54.080109 -8.648341 39,000 106 481 0
2019-06-25 08:57:49 GMT 54.081364 -8.655530 39,000 106 481 0
2019-06-25 08:57:45 GMT 54.083878 -8.670071 39,000 106 481 0
2019-06-25 08:57:42 GMT 54.086792 -8.686654 39,000 106 481 0
2019-06-25 08:57:38 GMT 54.088440 -8.696083 39,000 106 480 0
2019-06-25 08:57:35 GMT 54.090820 -8.709882 39,000 106 480 0
2019-06-25 08:57:31 GMT 54.092331 -8.718515 39,000 106 480 0
2019-06-25 08:57:28 GMT 54.094620 -8.731620 39,000 106 480 0
2019-06-25 08:57:23 GMT 54.097870 -8.750375 39,000 106 480 0
2019-06-25 08:57:18 GMT 54.101009 -8.768463 39,000 106 480 64
2019-06-25 08:57:13 GMT 54.104267 -8.787285 39,000 106 479 0
2019-06-25 08:57:10 GMT 54.106037 -8.797383 39,000 106 479 0
2019-06-25 08:57:07 GMT 54.107525 -8.806027 39,000 106 480 0
2019-06-25 08:57:03 GMT 54.110184 -8.821237 39,000 106 479 0
2019-06-25 08:57:00 GMT 54.113022 -8.837855 39,000 106 480 -64
2019-06-25 08:56:57 GMT 54.114044 -8.843671 39,000 106 480 0
2019-06-25 08:56:53 GMT 54.116512 -8.858131 39,000 106 480 0
2019-06-25 08:56:46 GMT 54.120468 -8.881235 39,000 106 480 64
2019-06-25 08:56:42 GMT 54.123093 -8.896415 39,000 106 480 0
2019-06-25 08:56:39 GMT 54.124878 -8.906538 39,000 106 481 0
2019-06-25 08:56:36 GMT 54.127121 -8.919643 39,000 106 481 0
2019-06-25 08:56:33 GMT 54.129498 -8.933339 39,000 106 480 0
2019-06-25 08:56:28 GMT 54.132244 -8.949334 39,000 106 481 0
2019-06-25 08:56:25 GMT 54.134758 -8.963794 39,000 106 481 0
2019-06-25 08:56:22 GMT 54.135971 -8.971064 39,000 106 481 0
2019-06-25 08:56:17 GMT 54.138996 -8.988513 39,000 106 481 64
2019-06-25 08:56:12 GMT 54.142365 -9.008083 39,000 106 481 0
2019-06-25 08:56:07 GMT 54.145187 -9.024784 39,000 106 481 0
2019-06-25 08:56:04 GMT 54.147079 -9.035706 39,000 106 481 0
2019-06-25 08:56:01 GMT 54.149551 -9.050223 39,000 106 481 0
2019-06-25 08:55:57 GMT 54.152634 -9.068406 39,000 106 481 0
2019-06-25 08:55:53 GMT 54.154037 -9.076355 39,000 106 482 0
2019-06-25 08:55:50 GMT 54.156361 -9.090217 39,000 106 482 0
2019-06-25 08:55:44 GMT 54.159988 -9.111276 39,000 106 482 0
2019-06-25 08:55:39 GMT 54.162460 -9.125793 39,000 106 482 0
2019-06-25 08:55:36 GMT 54.164703 -9.138899 39,000 106 482 0
2019-06-25 08:55:32 GMT 54.167297 -9.154196 39,000 106 482 0
2019-06-25 08:55:28 GMT 54.169144 -9.165109 39,000 106 482 0
2019-06-25 08:55:24 GMT 54.171722 -9.180450 39,000 106 482 0
2019-06-25 08:55:21 GMT 54.173584 -9.191319 39,000 106 482 0
2019-06-25 08:55:18 GMT 54.175781 -9.204424 39,000 106 482 0
2019-06-25 08:55:14 GMT 54.178146 -9.218256 39,000 106 481 0
2019-06-25 08:55:10 GMT 54.180222 -9.230634 39,000 106 481 64
2019-06-25 08:55:07 GMT 54.182289 -9.242976 39,000 106 481 0
2019-06-25 08:55:04 GMT 54.186012 -9.264867 39,000 105 482 0
2019-06-25 08:55:01 GMT 54.186012 -9.264867 39,000 106 481 0
2019-06-25 08:54:58 GMT 54.187820 -9.275757 39,000 106 481 0
2019-06-25 08:54:55 GMT 54.189789 -9.287449 39,000 106 481 0
2019-06-25 08:54:51 GMT 54.192345 -9.302754 39,000 105 482 -64
2019-06-25 08:54:48 GMT 54.194183 -9.313660 39,000 105 482 0
2019-06-25 08:54:44 GMT 54.198769 -9.340641 39,000 105 482 0
2019-06-25 08:54:41 GMT 54.198769 -9.340641 39,000 105 482 0
2019-06-25 08:54:38 GMT 54.201935 -9.359625 39,000 105 482 0
2019-06-25 08:54:32 GMT 54.203796 -9.370632 39,000 105 483 0
2019-06-25 08:54:28 GMT 54.206726 -9.388131 39,000 106 483 0
2019-06-25 08:54:24 GMT 54.208591 -9.399127 39,000 105 484 0
2019-06-25 08:54:20 GMT 54.211292 -9.415202 39,000 106 484 0
2019-06-25 08:54:17 GMT 54.212906 -9.424779 39,000 106 484 0
2019-06-25 08:54:14 GMT 54.214645 -9.435059 39,000 105 485 0
2019-06-25 08:54:11 GMT 54.216457 -9.446061 39,000 105 484 0
2019-06-25 08:54:08 GMT 54.218811 -9.459935 39,000 105 484 0
2019-06-25 08:54:04 GMT 54.221161 -9.473931 39,000 105 485 0
2019-06-25 08:53:59 GMT 54.224213 -9.492266 39,000 105 485 0
2019-06-25 08:53:56 GMT 54.225677 -9.501134 39,000 105 485 0
2019-06-25 08:53:53 GMT 54.227646 -9.512905 39,000 105 486 0
2019-06-25 08:53:50 GMT 54.230072 -9.527579 39,000 105 486 0
2019-06-25 08:53:46 GMT 54.231682 -9.537183 39,000 105 486 0
2019-06-25 08:53:43 GMT 54.237034 -9.569576 39,000 105 486 0
2019-06-25 08:53:38 GMT 54.237034 -9.569576 39,000 105 486 0
2019-06-25 08:53:35 GMT 54.241791 -9.598363 39,000 105 486 64
2019-06-25 08:53:30 GMT 54.241791 -9.598363 39,000 105 486 0
2019-06-25 08:53:27 GMT 54.244263 -9.613037 38,975 105 486 0
2019-06-25 08:53:24 GMT 54.245956 -9.623396 38,975 105 486 0
2019-06-25 08:53:17 GMT 54.249847 -9.646938 39,000 105 486 0
2019-06-25 08:53:13 GMT 54.254471 -9.675031 39,000 105 486 0
2019-06-25 08:53:09 GMT 54.254471 -9.675031 39,000 105 486 0
2019-06-25 08:53:06 GMT 54.257172 -9.691197 39,000 105 486 0
2019-06-25 08:53:02 GMT 54.258774 -9.700766 39,000 105 486 0
2019-06-25 08:52:59 GMT 54.260963 -9.714095 39,000 105 486 0
2019-06-25 08:52:56 GMT 54.262527 -9.723607 39,000 105 485 0
2019-06-25 08:52:53 GMT 54.267883 -9.756095 39,000 105 485 0
2019-06-25 08:52:47 GMT 54.267883 -9.756095 39,000 105 485 0
2019-06-25 08:52:43 GMT 54.270767 -9.773751 39,000 105 485 0
2019-06-25 08:52:38 GMT 54.273193 -9.788504 39,000 105 484 0
2019-06-25 08:52:35 GMT 54.274975 -9.799562 39,000 105 484 0
2019-06-25 08:52:32 GMT 54.277267 -9.813538 39,000 105 484 0
2019-06-25 08:52:27 GMT 54.280884 -9.835591 39,000 105 484 0
2019-06-25 08:52:24 GMT 54.282188 -9.843750 39,000 105 484 0
2019-06-25 08:52:21 GMT 54.283493 -9.851828 39,000 105 484 0
2019-06-25 08:52:15 GMT 54.287109 -9.873882 39,000 105 484 0
2019-06-25 08:52:12 GMT 54.289360 -9.887862 39,000 105 483 0
2019-06-25 08:52:05 GMT 54.293747 -9.915080 39,000 105 483 0
2019-06-25 08:52:01 GMT 54.295212 -9.923886 39,000 105 483 0
2019-06-25 08:51:57 GMT 54.298157 -9.942294 39,000 105 482 0
2019-06-25 08:51:54 GMT 54.299927 -9.953290 39,000 105 482 0
2019-06-25 08:51:51 GMT 54.301975 -9.965765 39,000 105 482 0
2019-06-25 08:51:47 GMT 54.304115 -9.978998 39,000 105 482 0
2019-06-25 08:51:44 GMT 54.305794 -9.989236 39,000 105 482 0
2019-06-25 08:51:40 GMT 54.308865 -10.008295 39,000 105 482 0
2019-06-25 08:51:36 GMT 54.310410 -10.017835 39,000 105 481 0
2019-06-25 08:51:33 GMT 54.311985 -10.027355 39,000 105 481 0
2019-06-25 08:51:30 GMT 54.314255 -10.041262 39,000 105 481 0
2019-06-25 08:51:26 GMT 54.316265 -10.053739 39,000 105 481 0
2019-06-25 08:51:23 GMT 54.317898 -10.063976 39,000 105 481 0
2019-06-25 08:51:20 GMT 54.319931 -10.076402 39,000 105 481 0
2019-06-25 08:51:16 GMT 54.322266 -10.091023 39,000 105 481 0
2019-06-25 08:51:13 GMT 54.324039 -10.102012 39,000 105 481 0
2019-06-25 08:51:10 GMT 54.325905 -10.113747 39,000 105 481 0
2019-06-25 08:51:07 GMT 54.328278 -10.128396 39,000 105 481 0
2019-06-25 08:51:03 GMT 54.330372 -10.141546 39,000 105 480 0
2019-06-25 08:50:59 GMT 54.332001 -10.151783 39,000 105 480 0
2019-06-25 08:50:55 GMT 54.334560 -10.167847 39,000 105 480 0
2019-06-25 08:50:52 GMT 54.336239 -10.178084 39,000 105 480 0
2019-06-25 08:50:48 GMT 54.338425 -10.192000 39,000 105 480 0
2019-06-25 08:50:43 GMT 54.344055 -10.227060 39,000 105 480 0
2019-06-25 08:50:39 GMT 54.344055 -10.227060 39,000 105 480 0
2019-06-25 08:50:35 GMT 54.346161 -10.240308 39,000 105 481 0
2019-06-25 08:50:32 GMT 54.348389 -10.254156 39,000 105 481 0
2019-06-25 08:50:28 GMT 54.350296 -10.265891 39,000 105 481 0
2019-06-25 08:50:25 GMT 54.352020 -10.276902 39,000 105 481 0
2019-06-25 08:50:22 GMT 54.353786 -10.287864 39,000 105 481 0
2019-06-25 08:50:17 GMT 54.356689 -10.306226 39,000 105 481 0
2019-06-25 08:50:13 GMT 54.361633 -10.337004 39,000 105 482 0
2019-06-25 08:50:09 GMT 54.363842 -10.350952 39,000 105 482 0
2019-06-25 08:50:05 GMT 54.363842 -10.350952 39,000 105 481 0
2019-06-25 08:50:00 GMT 54.367104 -10.371510 39,000 105 482 0
2019-06-25 08:49:55 GMT 54.370468 -10.392824 39,000 105 481 0
2019-06-25 08:49:52 GMT 54.371525 -10.399475 39,000 105 481 0
2019-06-25 08:49:47 GMT 54.374405 -10.417866 39,000 105 481 0
2019-06-25 08:49:42 GMT 54.377380 -10.437012 39,000 105 481 0
2019-06-25 08:49:37 GMT 54.380173 -10.454622 39,000 104 481 0
2019-06-25 08:49:34 GMT 54.382233 -10.467870 39,000 105 481 0
2019-06-25 08:49:30 GMT 54.384521 -10.482573 39,000 105 480 0
2019-06-25 08:49:26 GMT 54.386234 -10.493525 39,000 105 480 0
2019-06-25 08:49:23 GMT 54.388184 -10.505999 39,000 105 480 0
2019-06-25 08:49:19 GMT 54.390701 -10.522156 39,000 105 480 0
2019-06-25 08:49:16 GMT 54.392120 -10.530961 39,000 105 480 0
2019-06-25 08:49:13 GMT 54.393822 -10.541964 39,000 105 480 0
2019-06-25 08:49:10 GMT 54.397156 -10.563274 39,000 105 480 0
2019-06-25 08:49:04 GMT 54.398663 -10.572759 39,000 104 480 0
2019-06-25 08:49:01 GMT 54.400711 -10.585993 39,000 104 480 0
2019-06-25 08:48:58 GMT 54.402573 -10.597728 39,000 104 480 0
2019-06-25 08:48:55 GMT 54.404251 -10.608754 39,000 104 480 0
2019-06-25 08:48:52 GMT 54.406540 -10.623456 39,000 104 480 0
2019-06-25 08:48:49 GMT 54.407368 -10.628607 39,000 104 480 0
2019-06-25 08:48:42 GMT 54.411575 -10.655769 39,000 104 480 0
2019-06-25 08:48:37 GMT 54.414093 -10.671925 39,000 104 480 0
2019-06-25 08:48:32 GMT 54.417377 -10.693193 39,000 104 480 0
2019-06-25 08:48:28 GMT 54.419312 -10.705692 39,000 104 480 0
2019-06-25 08:48:21 GMT 54.423660 -10.733562 39,000 104 480 0
2019-06-25 08:48:18 GMT 54.425217 -10.743902 39,000 104 480 0
2019-06-25 08:48:11 GMT 54.429565 -10.771772 39,000 104 480 0
2019-06-25 08:48:06 GMT 54.431808 -10.786474 39,000 104 480 0
2019-06-25 08:48:00 GMT 54.437813 -10.825279 39,000 104 479 0
2019-06-25 08:47:56 GMT 54.437813 -10.825279 39,000 104 479 0
2019-06-25 08:47:49 GMT 54.441910 -10.851662 39,000 104 478 0
2019-06-25 08:47:46 GMT 54.444077 -10.865559 39,000 104 477 0
2019-06-25 08:47:40 GMT 54.446892 -10.883789 39,000 104 477 0
2019-06-25 08:47:36 GMT 54.449127 -10.898438 39,000 104 476 0
2019-06-25 08:47:31 GMT 54.451828 -10.915999 39,000 104 476 0
2019-06-25 08:47:27 GMT 54.454193 -10.931316 39,000 104 476 0
2019-06-25 08:47:24 GMT 54.455750 -10.941494 39,000 104 476 0
2019-06-25 08:47:21 GMT 54.457352 -10.951754 39,000 104 476 0
2019-06-25 08:47:18 GMT 54.458908 -10.961932 39,000 104 476 0
2019-06-25 08:47:15 GMT 54.461231 -10.977256 39,000 104 476 0
2019-06-25 08:47:09 GMT 54.463989 -10.995456 39,000 104 475 0
2019-06-25 08:47:03 GMT 54.467655 -11.019537 39,000 104 475 0
2019-06-25 08:46:58 GMT 54.469986 -11.034878 39,000 104 475 0
2019-06-25 08:46:53 GMT 54.473282 -11.056689 39,000 104 475 0
2019-06-25 08:46:48 GMT 54.475525 -11.071230 39,000 104 475 0
2019-06-25 08:46:42 GMT 54.479462 -11.097484 39,000 104 475 0
2019-06-25 08:46:39 GMT 54.481201 -11.109116 39,000 104 475 0
2019-06-25 08:46:33 GMT 54.483761 -11.125904 39,000 104 474 0
2019-06-25 08:46:28 GMT 54.486603 -11.144798 39,000 104 474 0
2019-06-25 08:46:23 GMT 54.489208 -11.162276 39,000 104 474 0
2019-06-25 08:46:18 GMT 54.492371 -11.183355 39,000 104 473 -64
2019-06-25 08:46:13 GMT 54.494797 -11.199350 39,000 104 472 0
2019-06-25 08:46:07 GMT 54.498146 -11.221868 39,000 104 472 0
2019-06-25 08:46:03 GMT 54.500427 -11.237075 39,000 104 472 0
2019-06-25 08:46:00 GMT 54.502476 -11.250916 39,000 104 471 0
2019-06-25 08:45:57 GMT 54.503593 -11.258157 39,000 104 471 0
2019-06-25 08:45:53 GMT 54.506199 -11.275552 39,000 104 471 0
2019-06-25 08:45:47 GMT 54.509125 -11.295076 39,000 104 472 0
2019-06-25 08:45:42 GMT 54.511734 -11.312525 39,000 104 472 0
2019-06-25 08:45:39 GMT 54.513657 -11.325612 39,000 104 472 0
2019-06-25 08:45:36 GMT 54.514755 -11.332882 39,000 104 472 0
2019-06-25 08:45:31 GMT 54.517464 -11.351041 39,000 104 472 0
2019-06-25 08:45:26 GMT 54.520157 -11.369153 39,000 104 472 0
2019-06-25 08:45:21 GMT 54.523052 -11.388744 39,000 104 472 0
2019-06-25 08:45:16 GMT 54.525845 -11.407637 39,000 104 472 0
2019-06-25 08:45:11 GMT 54.528534 -11.425862 39,000 104 473 0
2019-06-25 08:45:06 GMT 54.531555 -11.446219 39,000 104 473 0
2019-06-25 08:45:00 GMT 54.534271 -11.464400 39,000 104 473 0
2019-06-25 08:44:55 GMT 54.537369 -11.485479 39,000 104 473 0
2019-06-25 08:44:49 GMT 54.540436 -11.505917 39,000 104 473 0
2019-06-25 08:44:45 GMT 54.543346 -11.525574 39,000 104 474 0
2019-06-25 08:44:40 GMT 54.545490 -11.540139 39,000 104 474 0
2019-06-25 08:44:33 GMT 54.549587 -11.567938 39,000 104 474 0
2019-06-25 08:44:28 GMT 54.551727 -11.582503 39,000 104 475 0
2019-06-25 08:44:25 GMT 54.553452 -11.594238 39,000 104 475 0
2019-06-25 08:44:16 GMT 54.558617 -11.629361 39,000 104 475 0
2019-06-25 08:44:13 GMT 54.560341 -11.641013 39,000 104 475 0
2019-06-25 08:44:08 GMT 54.562592 -11.656413 39,000 104 476 0
2019-06-25 08:44:04 GMT 54.564743 -11.671035 39,000 104 476 0
2019-06-25 08:44:01 GMT 54.566025 -11.679840 39,000 104 476 0
2019-06-25 08:43:58 GMT 54.567947 -11.693088 39,000 104 476 0
2019-06-25 08:43:52 GMT 54.571514 -11.717335 39,000 104 477 0
2019-06-25 08:43:48 GMT 54.573532 -11.731217 39,000 103 477 0
2019-06-25 08:43:44 GMT 54.575329 -11.743719 39,000 103 477 0
2019-06-25 08:43:41 GMT 54.577007 -11.755538 39,000 103 477 0
2019-06-25 08:43:34 GMT 54.580765 -11.781221 39,000 103 477 0
2019-06-25 08:43:30 GMT 54.583099 -11.797458 39,000 103 477 0
2019-06-25 08:43:27 GMT 54.586365 -11.820290 39,000 103 477 0
2019-06-25 08:43:23 GMT 54.586365 -11.820290 39,000 103 477 0
2019-06-25 08:43:20 GMT 54.588593 -11.835668 39,000 103 477 0
2019-06-25 08:43:16 GMT 54.590698 -11.850371 39,000 103 476 64
2019-06-25 08:43:13 GMT 54.591671 -11.857078 39,000 103 477 0
2019-06-25 08:43:06 GMT 54.595367 -11.882764 39,000 103 477 0
2019-06-25 08:43:03 GMT 54.597164 -11.895280 39,000 103 476 0
2019-06-25 08:42:59 GMT 54.599396 -11.910715 39,000 103 476 0
2019-06-25 08:42:55 GMT 54.601398 -11.924660 39,000 103 476 0
2019-06-25 08:42:52 GMT 54.602703 -11.933483 39,000 103 476 0
2019-06-25 08:42:48 GMT 54.605450 -11.952542 39,000 103 475 0
2019-06-25 08:42:45 GMT 54.606583 -11.960638 39,000 103 474 0
2019-06-25 08:42:41 GMT 54.608505 -11.973805 39,000 103 475 0
2019-06-25 08:42:37 GMT 54.610897 -11.990662 39,000 103 474 0
2019-06-25 08:42:32 GMT 54.613411 -12.008306 39,000 103 474 0
2019-06-25 08:42:27 GMT 54.616470 -12.029545 39,000 103 474 0
2019-06-25 08:42:20 GMT 54.619629 -12.051517 39,000 103 474 0
2019-06-25 08:42:17 GMT 54.622021 -12.068398 39,000 103 474 0
2019-06-25 08:42:11 GMT 54.624348 -12.084545 39,000 103 474 0
2019-06-25 08:42:06 GMT 54.627235 -12.105103 39,000 103 474 0
2019-06-25 08:42:00 GMT 54.629791 -12.123413 39,000 103 474 0
2019-06-25 08:41:53 GMT 54.633427 -12.149048 39,000 103 473 0
2019-06-25 08:41:49 GMT 54.635475 -12.163696 39,000 103 473 0
2019-06-25 08:41:44 GMT 54.638077 -12.181980 39,000 103 473 0
2019-06-25 08:41:41 GMT 54.640038 -12.195906 39,000 103 473 0
2019-06-25 08:41:35 GMT 54.643433 -12.220028 39,000 103 473 0
2019-06-25 08:41:30 GMT 54.645390 -12.233942 39,000 103 473 0
2019-06-25 08:41:23 GMT 54.649200 -12.260985 39,000 103 472 0
2019-06-25 08:41:17 GMT 54.652187 -12.282132 39,000 103 472 0
2019-06-25 08:41:13 GMT 54.654655 -12.299694 39,000 103 472 0
2019-06-25 08:41:09 GMT 54.656204 -12.310585 39,000 103 472 0
2019-06-25 08:41:03 GMT 54.659683 -12.335465 39,000 103 472 0
2019-06-25 08:40:50 GMT 54.665817 -12.379330 39,000 103 472 0
2019-06-25 08:40:40 GMT 54.670948 -12.416632 39,000 103 471 0
2019-06-25 08:40:29 GMT 54.676346 -12.455346 39,000 103 471 0
2019-06-25 08:40:19 GMT 54.681702 -12.494035 39,000 103 471 0
2019-06-25 08:40:09 GMT 54.686829 -12.531281 39,000 103 471 0
2019-06-25 08:39:59 GMT 54.691681 -12.566340 39,000 103 471 0
2019-06-25 08:39:48 GMT 54.697063 -12.604980 39,000 103 470 0
2019-06-25 08:39:38 GMT 54.702465 -12.644431 39,000 103 470 0
2019-06-25 08:39:28 GMT 54.707493 -12.680969 39,000 103 471 0
2019-06-25 08:39:17 GMT 54.712891 -12.720420 39,000 103 471 0
2019-06-25 08:39:06 GMT 54.718246 -12.759954 39,000 103 472 0
2019-06-25 08:38:54 GMT 54.724503 -12.806100 39,000 103 471 0
2019-06-25 08:38:45 GMT 54.729370 -12.841936 39,000 103 471 0
2019-06-25 08:38:34 GMT 54.734619 -12.880743 39,000 103 471 0
2019-06-25 08:38:25 GMT 54.738449 -12.909352 39,000 103 472 0
2019-06-25 08:38:22 GMT 54.740452 -12.924000 39,000 103 472 0
2019-06-25 08:38:14 GMT 54.743988 -12.950384 39,000 103 472 0
2019-06-25 08:38:07 GMT 54.747986 -12.980427 39,000 102 472 0
2019-06-25 08:38:04 GMT 54.748810 -12.986325 39,000 102 472 0
2019-06-25 08:38:00 GMT 54.751438 -13.006148 39,000 103 473 0
2019-06-25 08:37:54 GMT 54.753998 -13.025208 39,000 103 473 0
2019-06-25 08:37:48 GMT 54.756977 -13.047263 39,000 103 473 0
2019-06-25 08:37:43 GMT 54.759018 -13.062744 39,000 103 473 0
2019-06-25 08:37:39 GMT 54.761864 -13.084051 39,000 102 474 0
2019-06-25 08:37:33 GMT 54.764328 -13.102489 39,000 102 474 0
2019-06-25 08:37:27 GMT 54.767174 -13.123918 39,000 102 474 0
2019-06-25 08:37:22 GMT 54.769501 -13.141646 39,000 102 474 0
2019-06-25 08:37:17 GMT 54.772385 -13.163785 39,000 102 474 0
2019-06-25 08:37:12 GMT 54.774445 -13.179312 39,000 102 474 0
2019-06-25 08:37:07 GMT 54.777557 -13.202981 39,000 102 474 0
2019-06-25 08:37:02 GMT 54.779415 -13.216969 39,000 102 474 0
2019-06-25 08:36:56 GMT 54.782272 -13.238445 39,000 102 474 0
2019-06-25 08:36:51 GMT 54.784607 -13.256136 39,000 102 474 0
2019-06-25 08:36:46 GMT 54.787491 -13.278270 39,000 102 473 0
2019-06-25 08:36:41 GMT 54.789597 -13.294507 39,000 102 473 0
2019-06-25 08:36:34 GMT 54.792892 -13.319630 39,000 102 473 -64
2019-06-25 08:36:30 GMT 54.794632 -13.332879 39,000 102 473 0
2019-06-25 08:36:25 GMT 54.797699 -13.356467 39,000 102 472 0
2019-06-25 08:36:20 GMT 54.799713 -13.371859 39,000 102 472 0
2019-06-25 08:36:14 GMT 54.802094 -13.390314 39,000 102 472 0
2019-06-25 08:36:09 GMT 54.804794 -13.410914 39,000 102 472 0
2019-06-25 08:36:04 GMT 54.807766 -13.433699 39,000 102 472 0
2019-06-25 08:35:59 GMT 54.809860 -13.449929 39,000 102 472 -64
2019-06-25 08:35:54 GMT 54.812511 -13.470487 39,000 102 472 0
2019-06-25 08:35:48 GMT 54.814682 -13.487414 39,000 102 471 0
2019-06-25 08:35:43 GMT 54.817520 -13.509468 39,000 102 471 0
2019-06-25 08:35:38 GMT 54.819626 -13.525705 39,000 102 471 0
2019-06-25 08:35:33 GMT 54.822281 -13.546223 39,000 102 471 0
2019-06-25 08:35:27 GMT 54.824615 -13.564620 39,000 102 471 0
2019-06-25 08:35:22 GMT 54.827503 -13.586675 39,000 102 471 0
2019-06-25 08:35:17 GMT 54.829597 -13.602822 39,000 102 471 0
2019-06-25 08:35:11 GMT 54.832577 -13.626376 39,000 102 471 0
2019-06-25 08:35:07 GMT 54.834484 -13.641025 39,000 102 471 0
2019-06-25 08:34:56 GMT 54.839493 -13.679998 39,000 102 471 0
2019-06-25 08:34:49 GMT 54.843201 -13.709403 39,000 102 471 0
2019-06-25 08:34:39 GMT 54.847427 -13.742482 39,000 102 470 0
2019-06-25 08:34:30 GMT 54.851440 -13.774109 39,000 102 470 0
2019-06-25 08:34:20 GMT 54.856247 -13.812319 39,000 102 470 0
2019-06-25 08:34:09 GMT 54.861237 -13.852063 39,000 102 470 0
2019-06-25 08:33:59 GMT 54.865814 -13.888819 39,000 102 470 0
2019-06-25 08:33:49 GMT 54.870621 -13.927029 39,000 102 470 0
2019-06-25 08:33:39 GMT 54.875500 -13.966037 39,000 102 470 0
2019-06-25 08:33:28 GMT 54.880154 -14.002824 39,000 102 471 0
2019-06-25 08:33:18 GMT 54.885040 -14.041901 39,000 102 471 -64
2019-06-25 08:33:07 GMT 54.889801 -14.080272 39,000 102 471 0
2019-06-25 08:32:57 GMT 54.894630 -14.119346 39,000 102 471 0
2019-06-25 08:32:44 GMT 54.900822 -14.169533 39,000 102 471 0
2019-06-25 08:32:36 GMT 54.903992 -14.195386 39,000 102 471 0
2019-06-25 08:32:26 GMT 54.908646 -14.232955 39,000 102 471 0
2019-06-25 08:32:15 GMT 54.913391 -14.271240 39,000 102 470 -128
2019-06-25 08:32:05 GMT 54.917999 -14.308804 39,025 101 468 128
2019-06-25 08:31:55 GMT 54.922516 -14.346147 38,975 101 465 640
2019-06-25 08:31:45 GMT 54.927124 -14.384017 38,825 101 464 1344
2019-06-25 08:31:34 GMT 54.931778 -14.422545 38,575 101 463 1536
2019-06-25 08:31:24 GMT 54.936172 -14.458977 38,325 101 464 1536
2019-06-25 08:31:13 GMT 54.940704 -14.496945 38,075 101 465 896
2019-06-25 08:31:02 GMT 54.945602 -14.537820 38,000 101 464 0
2019-06-25 08:30:53 GMT 54.949722 -14.572799 38,000 101 464 0
2019-06-25 08:30:42 GMT 54.954437 -14.612220 38,000 101 464 0
2019-06-25 08:30:31 GMT 54.959061 -14.650934 38,000 101 465 -64
2019-06-25 08:30:21 GMT 54.963573 -14.688887 38,000 101 465 0
2019-06-25 08:30:10 GMT 54.968418 -14.729836 38,000 101 466 0
2019-06-25 08:29:59 GMT 54.973068 -14.768695 38,000 101 466 0
2019-06-25 08:29:50 GMT 54.977123 -14.803162 38,000 101 467 0
2019-06-25 08:29:39 GMT 54.981720 -14.842045 38,000 101 467 0
2019-06-25 08:29:29 GMT 54.986160 -14.880254 38,000 101 465 -64
2019-06-25 08:29:19 GMT 54.990482 -14.917603 38,000 102 466 0
2019-06-25 08:29:08 GMT 54.995743 -14.957053 38,000 104 468 0
2019-06-25 08:28:57 GMT 55.001842 -14.996338 38,000 106 470 0
2019-06-25 08:28:47 GMT 55.008133 -15.031720 38,000 108 472 0
2019-06-25 08:28:37 GMT 55.015762 -15.069747 38,000 110 475 0
2019-06-25 08:28:26 GMT 55.024048 -15.106701 38,000 111 476 0
2019-06-25 08:28:16 GMT 55.032257 -15.142957 38,000 111 475 0
2019-06-25 08:28:05 GMT 55.040909 -15.181409 38,000 111 475 0
2019-06-25 08:27:55 GMT 55.048828 -15.217034 38,000 111 476 0
2019-06-25 08:27:44 GMT 55.057240 -15.254850 38,000 111 476 0
2019-06-25 08:27:34 GMT 55.065849 -15.293302 38,000 111 476 0
2019-06-25 08:27:23 GMT 55.074089 -15.330422 38,000 111 475 0
2019-06-25 08:27:13 GMT 55.082329 -15.367459 38,000 111 475 0
2019-06-25 08:27:03 GMT 55.090290 -15.403082 38,000 111 474 0
2019-06-25 08:26:52 GMT 55.098808 -15.441451 38,000 111 473 0
2019-06-25 08:26:42 GMT 55.106956 -15.478405 38,000 111 472 -64
2019-06-25 08:26:31 GMT 55.115250 -15.516007 38,000 111 471 -64
2019-06-25 08:26:21 GMT 55.122875 -15.550648 38,000 110 469 0
2019-06-25 08:26:11 GMT 55.131397 -15.589433 38,000 111 468 -64
2019-06-25 08:26:00 GMT 55.138939 -15.623890 38,000 110 466 0
We lost coverage of the aircraft here for a total of 188 minutes
2019-06-25 05:18:08 GMT 50.144348 -58.155979 37,000 52 492 -64
2019-06-25 05:16:59 GMT 50.050278 -58.347450 37,000 52 492 -64
2019-06-25 05:16:37 GMT 50.018517 -58.411930 37,000 52 492 0
2019-06-25 05:16:27 GMT 50.005249 -58.438805 37,000 52 491 0
2019-06-25 05:16:02 GMT 49.970627 -58.508556 37,000 52 492 0
2019-06-25 05:15:41 GMT 49.941566 -58.567078 37,000 52 490 0
2019-06-25 05:15:36 GMT 49.933548 -58.583221 37,000 52 490 0
2019-06-25 05:15:17 GMT 49.909241 -58.632084 37,000 52 490 0
2019-06-25 05:15:13 GMT 49.902557 -58.645382 37,000 52 489 0
2019-06-25 05:15:03 GMT 49.890125 -58.670258 37,000 52 489 0
2019-06-25 05:14:52 GMT 49.868572 -58.713387 37,000 52 489 0
2019-06-25 05:14:39 GMT 49.854794 -58.741077 37,000 52 489 0
2019-06-25 05:14:06 GMT 49.810616 -58.829262 37,000 52 487 64
2019-06-25 05:14:02 GMT 49.805122 -58.840248 37,000 52 487 0
2019-06-25 05:13:54 GMT 49.792740 -58.864964 37,000 52 486 0
2019-06-25 05:13:32 GMT 49.759094 -58.931820 37,000 52 486 0
2019-06-25 05:13:18 GMT 49.743904 -58.961842 37,000 51 486 0
2019-06-25 05:13:08 GMT 49.729248 -58.990726 37,000 52 485 0
2019-06-25 05:12:56 GMT 49.714874 -59.019135 37,000 51 485 0
2019-06-25 05:12:46 GMT 49.700241 -59.047951 37,000 51 485 0
2019-06-25 05:12:35 GMT 49.685623 -59.076813 37,000 51 485 0
2019-06-25 05:12:15 GMT 49.650330 -59.146561 37,000 52 485 0
2019-06-25 05:12:00 GMT 49.630417 -59.185661 37,000 51 485 64
2019-06-25 05:11:44 GMT 49.608021 -59.229671 37,000 51 485 0
2019-06-25 05:11:30 GMT 49.593933 -59.257362 37,000 51 485 0
2019-06-25 05:11:18 GMT 49.578415 -59.287792 37,000 51 486 0
2019-06-25 05:11:09 GMT 49.565094 -59.313812 37,000 51 486 0
2019-06-25 05:10:51 GMT 49.540890 -59.360840 37,000 51 485 0
2019-06-25 05:10:40 GMT 49.525635 -59.390644 37,000 51 485 0
2019-06-25 05:10:34 GMT 49.517578 -59.406330 37,000 51 485 0
2019-06-25 05:09:48 GMT 49.453674 -59.530720 37,000 51 486 0
2019-06-25 05:09:44 GMT 49.446991 -59.543732 37,000 51 487 0
2019-06-25 05:09:31 GMT 49.430832 -59.575100 37,000 51 487 0
2019-06-25 05:09:22 GMT 49.416550 -59.602638 37,000 51 488 0
2019-06-25 05:09:11 GMT 49.400864 -59.632923 37,000 51 487 0
2019-06-25 05:08:59 GMT 49.386292 -59.660965 37,000 51 486 0
2019-06-25 05:08:49 GMT 49.371208 -59.690094 37,000 51 486 0
2019-06-25 05:08:39 GMT 49.355850 -59.719707 37,000 51 485 0
2019-06-25 05:08:27 GMT 49.341339 -59.747597 37,000 51 485 0
2019-06-25 05:08:17 GMT 49.325123 -59.778706 37,000 51 485 0
2019-06-25 05:08:06 GMT 49.310040 -59.807617 37,000 51 485 0
2019-06-25 05:07:53 GMT 49.293549 -59.839218 37,000 51 484 0
2019-06-25 05:07:44 GMT 49.280151 -59.864864 37,000 51 484 0
2019-06-25 05:07:34 GMT 49.265350 -59.893234 37,000 51 483 0
2019-06-25 05:07:23 GMT 49.250885 -59.920982 37,000 51 483 0
2019-06-25 05:07:11 GMT 49.235554 -59.950298 37,000 51 483 0
2019-06-25 05:07:02 GMT 49.220764 -59.978519 37,000 51 484 0
2019-06-25 05:06:51 GMT 49.205948 -60.006744 37,000 51 485 0
2019-06-25 05:06:40 GMT 49.191376 -60.034500 37,000 51 485 0
2019-06-25 05:06:30 GMT 49.176498 -60.062748 37,000 51 485 0
2019-06-25 05:06:19 GMT 49.160465 -60.093121 37,000 51 485 0
2019-06-25 05:06:07 GMT 49.145599 -60.121342 37,000 51 485 0
2019-06-25 05:05:57 GMT 49.130997 -60.149021 37,000 51 485 0
2019-06-25 05:05:47 GMT 49.116100 -60.177322 37,000 51 486 0
2019-06-25 05:05:35 GMT 49.100880 -60.206089 37,000 51 487 0
2019-06-25 05:05:26 GMT 49.086170 -60.233845 37,000 50 487 0
2019-06-25 05:05:14 GMT 49.070618 -60.263180 37,000 51 488 0
2019-06-25 05:05:03 GMT 49.052746 -60.296799 37,000 50 489 0
2019-06-25 05:04:51 GMT 49.037109 -60.326210 37,000 51 489 0
2019-06-25 05:04:41 GMT 49.022068 -60.354549 37,000 51 489 0
2019-06-25 05:04:30 GMT 49.006943 -60.382900 37,000 51 489 0
2019-06-25 05:04:18 GMT 48.991295 -60.412300 37,000 51 489 0
2019-06-25 05:04:09 GMT 48.976776 -60.439526 37,000 51 489 0
2019-06-25 05:03:58 GMT 48.959106 -60.472694 37,000 50 490 0
2019-06-25 05:03:46 GMT 48.943726 -60.501499 37,000 50 490 0
2019-06-25 05:03:35 GMT 48.928848 -60.529243 37,000 50 491 0
2019-06-25 05:03:25 GMT 48.913422 -60.558048 37,000 50 491 0
2019-06-25 05:03:13 GMT 48.898239 -60.586346 37,000 50 491 0
2019-06-25 05:03:03 GMT 48.883343 -60.614101 37,000 50 491 0
2019-06-25 05:02:53 GMT 48.868443 -60.641857 37,000 50 491 0
2019-06-25 05:02:42 GMT 48.852898 -60.670624 37,000 50 491 0
2019-06-25 05:02:32 GMT 48.837708 -60.698830 37,000 50 491 0
2019-06-25 05:02:20 GMT 48.822498 -60.727074 37,000 50 491 0
2019-06-25 05:02:09 GMT 48.806717 -60.756226 37,000 50 489 -64
2019-06-25 05:02:00 GMT 48.786163 -60.794327 37,000 50 488 0
2019-06-25 05:01:45 GMT 48.771011 -60.822266 37,000 50 487 0
2019-06-25 05:01:34 GMT 48.755905 -60.850174 37,000 50 486 0
2019-06-25 05:01:24 GMT 48.741074 -60.877499 37,000 50 486 0
2019-06-25 05:01:12 GMT 48.725693 -60.905807 37,000 50 486 0
2019-06-25 05:01:03 GMT 48.710907 -60.933132 37,000 50 486 0
2019-06-25 05:00:52 GMT 48.694664 -60.962990 37,000 50 485 0
2019-06-25 05:00:41 GMT 48.679859 -60.990166 37,000 50 485 0
2019-06-25 05:00:30 GMT 48.665058 -61.017345 37,000 50 485 0
2019-06-25 05:00:20 GMT 48.649696 -61.045532 37,000 50 484 0
2019-06-25 05:00:09 GMT 48.635147 -61.072083 37,000 50 484 0
2019-06-25 04:59:59 GMT 48.619812 -61.100182 37,000 50 483 0
2019-06-25 04:59:47 GMT 48.604431 -61.128212 37,000 50 483 0
2019-06-25 04:59:27 GMT 48.565155 -61.199764 37,000 50 482 0
2019-06-25 04:59:08 GMT 48.549225 -61.228706 37,000 50 482 0
2019-06-25 04:58:59 GMT 48.533844 -61.256668 37,000 50 482 0
2019-06-25 04:58:48 GMT 48.519653 -61.282513 37,000 50 482 0
2019-06-25 04:58:37 GMT 48.504032 -61.310940 37,000 50 481 0
2019-06-25 04:58:27 GMT 48.488983 -61.338219 37,000 50 481 0
2019-06-25 04:58:15 GMT 48.473961 -61.365509 37,000 50 482 0
2019-06-25 04:58:05 GMT 48.458313 -61.393856 37,000 50 481 0
2019-06-25 04:57:53 GMT 48.441833 -61.423645 37,000 50 481 0
2019-06-25 04:57:43 GMT 48.427597 -61.449280 37,000 50 481 0
2019-06-25 04:57:34 GMT 48.413910 -61.473858 37,000 50 482 0
2019-06-25 04:57:22 GMT 48.397980 -61.502590 37,000 50 481 0
2019-06-25 04:57:13 GMT 48.383743 -61.528225 37,000 50 480 0
2019-06-25 04:57:01 GMT 48.367813 -61.556889 37,000 50 481 0
2019-06-25 04:56:51 GMT 48.350693 -61.587524 37,000 50 480 -64
2019-06-25 04:56:38 GMT 48.335312 -61.615063 37,000 50 479 -64
2019-06-25 04:56:23 GMT 48.314007 -61.653320 37,025 49 479 -64
2019-06-25 04:56:18 GMT 48.305489 -61.668499 37,025 49 479 0
2019-06-25 04:56:07 GMT 48.290405 -61.695484 37,000 49 479 320
2019-06-25 04:55:57 GMT 48.275024 -61.722954 36,925 49 480 832
2019-06-25 04:55:45 GMT 48.259869 -61.749886 36,750 49 480 1600
2019-06-25 04:55:35 GMT 48.244720 -61.776897 36,450 49 481 1856
2019-06-25 04:55:24 GMT 48.228058 -61.806618 36,125 49 484 1408
2019-06-25 04:55:14 GMT 48.215130 -61.829681 36,000 49 483 0
2019-06-25 04:55:11 GMT 48.210205 -61.838379 36,000 49 484 0
2019-06-25 04:55:04 GMT 48.199581 -61.857292 36,000 49 484 0
2019-06-25 04:54:52 GMT 48.183430 -61.885986 36,000 49 484 64
2019-06-25 04:54:41 GMT 48.168137 -61.913170 36,000 49 486 -64
2019-06-25 04:54:31 GMT 48.153076 -61.939819 36,000 49 486 0
2019-06-25 04:54:20 GMT 48.137421 -61.967560 36,000 49 486 0
2019-06-25 04:54:10 GMT 48.122070 -61.994652 36,000 49 486 0
2019-06-25 04:54:00 GMT 48.107037 -62.021275 36,000 49 484 0
2019-06-25 04:53:49 GMT 48.091690 -62.048241 36,000 49 484 0
2019-06-25 04:53:39 GMT 48.076080 -62.075775 36,000 49 483 0
2019-06-25 04:53:28 GMT 48.061367 -62.101700 36,000 49 483 0
2019-06-25 04:53:19 GMT 48.048100 -62.125080 36,000 49 482 0
2019-06-25 04:53:15 GMT 48.044098 -62.132122 36,000 49 482 0
2019-06-25 04:53:05 GMT 48.029106 -62.158531 36,000 49 481 0
2019-06-25 04:52:56 GMT 48.014420 -62.184265 36,000 49 481 0
2019-06-25 04:52:45 GMT 47.999733 -62.210014 36,000 49 480 0
2019-06-25 04:52:35 GMT 47.984482 -62.236725 36,000 49 480 0
2019-06-25 04:52:23 GMT 47.968681 -62.264381 36,000 49 479 0
2019-06-25 04:50:55 GMT 47.841454 -62.486008 36,000 49 476 0
2019-06-25 04:50:30 GMT 47.807373 -62.545029 36,000 49 475 0
2019-06-25 04:50:21 GMT 47.792202 -62.571293 36,000 49 475 0
2019-06-25 04:48:55 GMT 47.670006 -62.781864 36,000 49 475 -64
2019-06-25 04:48:48 GMT 47.659973 -62.799156 36,000 49 475 -64
2019-06-25 04:47:19 GMT 47.531479 -63.018608 36,000 48 473 0
2019-06-25 04:47:03 GMT 47.510284 -63.054520 36,000 49 472 0
2019-06-25 04:46:57 GMT 47.501949 -63.068638 36,000 48 472 0
2019-06-25 04:46:49 GMT 47.488541 -63.091461 36,000 48 472 0
2019-06-25 04:46:39 GMT 47.476208 -63.112370 36,000 48 472 0
2019-06-25 04:46:28 GMT 47.457958 -63.143356 36,000 48 470 0
2019-06-25 04:46:16 GMT 47.442505 -63.169556 36,000 48 470 0
2019-06-25 04:46:08 GMT 47.431656 -63.187866 36,000 48 470 64
2019-06-25 04:45:56 GMT 47.413696 -63.218216 36,000 48 469 0
2019-06-25 04:45:48 GMT 47.402893 -63.236549 36,000 48 468 0
2019-06-25 04:45:37 GMT 47.387558 -63.262505 36,000 48 467 0
2019-06-25 04:45:26 GMT 47.367645 -63.296013 36,000 48 466 0
2019-06-25 04:45:13 GMT 47.352566 -63.321323 36,000 48 466 0
2019-06-25 04:45:03 GMT 47.337524 -63.346619 36,000 48 466 0
2019-06-25 04:44:55 GMT 47.326447 -63.365196 36,000 48 465 0
2019-06-25 04:44:51 GMT 47.322189 -63.372299 36,000 48 465 0
2019-06-25 04:44:42 GMT 47.307781 -63.396606 36,000 48 465 0
2019-06-25 04:44:33 GMT 47.296738 -63.415077 36,000 48 464 0
2019-06-25 04:44:30 GMT 47.292465 -63.422173 36,000 48 463 0
2019-06-25 04:44:21 GMT 47.277802 -63.446751 36,000 48 462 0
2019-06-25 04:44:13 GMT 47.267700 -63.463722 36,000 48 460 0
2019-06-25 04:44:10 GMT 47.262360 -63.472618 36,000 48 459 0
2019-06-25 04:44:02 GMT 47.252522 -63.489002 36,000 48 458 0
2019-06-25 04:43:58 GMT 47.247448 -63.497383 36,000 48 458 0
2019-06-25 04:43:52 GMT 47.237347 -63.514145 36,000 48 456 -64
2019-06-25 04:43:47 GMT 47.232056 -63.522949 36,000 48 457 -64
2019-06-25 04:43:41 GMT 47.222580 -63.538742 36,000 48 456 -64
2019-06-25 04:43:37 GMT 47.218399 -63.545696 36,000 48 454 0
2019-06-25 04:43:31 GMT 47.207878 -63.563374 36,000 48 454 0
2019-06-25 04:43:24 GMT 47.199280 -63.577675 36,000 48 453 0
2019-06-25 04:43:16 GMT 47.187103 -63.598068 36,000 48 452 -64
2019-06-25 04:43:08 GMT 47.176620 -63.615509 36,000 48 452 -128
2019-06-25 04:43:05 GMT 47.173828 -63.620110 36,000 48 451 -128
2019-06-25 04:42:59 GMT 47.163052 -63.638023 36,025 48 450 -64
2019-06-25 04:42:56 GMT 47.159233 -63.644432 36,025 48 451 0
2019-06-25 04:42:47 GMT 47.149017 -63.661377 36,025 48 451 320
2019-06-25 04:42:38 GMT 47.134418 -63.685703 35,925 48 452 832
2019-06-25 04:42:30 GMT 47.124458 -63.702320 35,825 48 454 1344
2019-06-25 04:42:27 GMT 47.120270 -63.709167 35,775 48 454 1344
2019-06-25 04:42:16 GMT 47.105209 -63.734024 35,450 48 457 1600
2019-06-25 04:42:06 GMT 47.090103 -63.759087 35,150 48 458 896
2019-06-25 04:41:54 GMT 47.074951 -63.784149 35,025 48 456 192
2019-06-25 04:41:45 GMT 47.061035 -63.807220 35,000 48 454 0
2019-06-25 04:41:34 GMT 47.046570 -63.831184 35,000 48 454 -64
2019-06-25 04:41:24 GMT 47.031818 -63.855568 35,000 48 453 0
2019-06-25 04:41:12 GMT 47.016785 -63.880215 35,000 48 452 0
2019-06-25 04:41:02 GMT 47.001526 -63.905342 35,000 48 451 0
2019-06-25 04:40:51 GMT 46.987968 -63.927685 35,000 48 451 -64
2019-06-25 04:40:42 GMT 46.973328 -63.951897 35,000 48 451 0
2019-06-25 04:40:30 GMT 46.957809 -63.977371 35,000 48 451 0
2019-06-25 04:40:19 GMT 46.943390 -64.000992 35,000 48 450 64
2019-06-25 04:40:09 GMT 46.929775 -64.023247 35,000 48 450 0
2019-06-25 04:40:00 GMT 46.900681 -64.070686 35,000 48 449 0
2019-06-25 04:39:49 GMT 46.900681 -64.070686 35,000 48 449 0
2019-06-25 04:39:38 GMT 46.886017 -64.094658 35,000 48 448 -64
2019-06-25 04:39:28 GMT 46.871166 -64.118958 35,000 48 447 -64
2019-06-25 04:39:17 GMT 46.856831 -64.142372 35,000 48 447 0
2019-06-25 04:39:07 GMT 46.842537 -64.165718 35,000 48 446 0
2019-06-25 04:38:53 GMT 46.823593 -64.196663 35,000 48 446 0
2019-06-25 04:38:46 GMT 46.812836 -64.214058 35,000 48 446 0
2019-06-25 04:38:43 GMT 46.808460 -64.221199 35,000 48 445 0
2019-06-25 04:38:34 GMT 46.798035 -64.238159 35,000 48 444 0
2019-06-25 04:38:31 GMT 46.794170 -64.244408 35,000 48 444 0
2019-06-25 04:38:25 GMT 46.784859 -64.259514 35,000 48 444 0
2019-06-25 04:38:20 GMT 46.779694 -64.268013 35,000 48 443 0
2019-06-25 04:38:14 GMT 46.770355 -64.283081 35,000 48 443 0
2019-06-25 04:38:10 GMT 46.764656 -64.292404 35,000 48 443 0
2019-06-25 04:38:03 GMT 46.755344 -64.307442 35,000 48 443 0
2019-06-25 04:38:00 GMT 46.751266 -64.314102 35,000 48 443 0
2019-06-25 04:37:52 GMT 46.740875 -64.330910 35,000 48 442 -64
2019-06-25 04:37:49 GMT 46.737030 -64.337143 35,000 48 442 0
2019-06-25 04:37:41 GMT 46.725830 -64.355301 35,000 48 442 -64
2019-06-25 04:37:38 GMT 46.721695 -64.361931 35,000 48 442 0
2019-06-25 04:37:32 GMT 46.711586 -64.378304 35,000 48 443 0
2019-06-25 04:37:28 GMT 46.707767 -64.384483 35,000 48 443 0
2019-06-25 04:37:21 GMT 46.697617 -64.400848 35,000 48 443 0
2019-06-25 04:37:18 GMT 46.694080 -64.406662 35,000 48 443 0
2019-06-25 04:37:08 GMT 46.678207 -64.432274 35,000 48 442 0
2019-06-25 04:36:57 GMT 46.664246 -64.454781 35,000 47 441 0
2019-06-25 04:36:46 GMT 46.649719 -64.478142 35,000 47 441 -64
2019-06-25 04:36:39 GMT 46.638779 -64.495720 35,000 47 441 -64
2019-06-25 04:36:36 GMT 46.634403 -64.502792 35,000 47 441 0
2019-06-25 04:36:28 GMT 46.625092 -64.517761 35,000 47 441 -64
2019-06-25 04:36:24 GMT 46.620205 -64.525658 35,000 47 441 -64
2019-06-25 04:36:15 GMT 46.605961 -64.548523 35,000 47 441 0
2019-06-25 04:36:05 GMT 46.593658 -64.568321 35,000 48 442 -64
2019-06-25 04:35:55 GMT 46.581333 -64.588142 35,000 48 442 -64
2019-06-25 04:35:46 GMT 46.566528 -64.611969 35,000 47 443 0
2019-06-25 04:35:38 GMT 46.555847 -64.629082 35,000 47 443 0
2019-06-25 04:35:35 GMT 46.552841 -64.633942 35,000 47 443 0
2019-06-25 04:35:25 GMT 46.538040 -64.657700 35,000 47 442 -64
2019-06-25 04:35:13 GMT 46.523190 -64.681389 35,000 47 441 0
2019-06-25 04:35:03 GMT 46.508945 -64.704185 35,000 47 441 0
2019-06-25 04:34:53 GMT 46.494141 -64.727806 35,000 47 441 -64
2019-06-25 04:34:41 GMT 46.479897 -64.750534 35,000 47 441 -64
2019-06-25 04:34:32 GMT 46.465652 -64.773193 35,000 47 440 0
2019-06-25 04:34:20 GMT 46.450848 -64.796745 35,000 47 440 0
2019-06-25 04:34:10 GMT 46.436371 -64.819801 35,000 47 439 64
2019-06-25 04:34:00 GMT 46.421844 -64.842819 35,000 47 439 0
2019-06-25 04:33:49 GMT 46.407646 -64.865410 35,000 47 438 -64
2019-06-25 04:33:39 GMT 46.392891 -64.888824 35,000 47 437 0
2019-06-25 04:33:27 GMT 46.378464 -64.911713 35,000 47 436 -64
2019-06-25 04:33:15 GMT 46.362122 -64.937508 35,000 47 436 -64
2019-06-25 04:33:06 GMT 46.348293 -64.959549 35,000 47 436 0
2019-06-25 04:32:55 GMT 46.332001 -64.985367 35,000 47 436 0
2019-06-25 04:32:43 GMT 46.316776 -65.009399 35,000 47 436 0
2019-06-25 04:32:32 GMT 46.301041 -65.034325 35,000 47 436 0
2019-06-25 04:32:20 GMT 46.285538 -65.058762 35,000 47 436 0
2019-06-25 04:32:09 GMT 46.270596 -65.082321 35,000 47 435 0
2019-06-25 04:31:58 GMT 46.254303 -65.108002 35,000 47 435 0
2019-06-25 04:31:45 GMT 46.239899 -65.130569 35,000 47 434 0
2019-06-25 04:31:35 GMT 46.225487 -65.153252 35,000 47 435 0
2019-06-25 04:31:25 GMT 46.211060 -65.175858 35,000 47 435 0
2019-06-25 04:31:14 GMT 46.196915 -65.198029 35,000 47 435 0
2019-06-25 04:31:04 GMT 46.181961 -65.221436 35,000 47 435 0
2019-06-25 04:30:53 GMT 46.167526 -65.244118 35,000 47 435 0
2019-06-25 04:30:42 GMT 46.153381 -65.266289 35,000 47 435 0
2019-06-25 04:30:32 GMT 46.138901 -65.288795 35,000 47 435 -64
2019-06-25 04:30:20 GMT 46.124191 -65.311867 35,000 47 435 0
2019-06-25 04:30:11 GMT 46.109993 -65.334045 35,000 47 435 0
2019-06-25 04:30:00 GMT 46.096069 -65.355789 35,000 47 435 0
2019-06-25 04:29:50 GMT 46.082153 -65.377510 35,000 47 436 0
2019-06-25 04:29:37 GMT 46.064697 -65.404770 35,000 47 436 0
2019-06-25 04:29:28 GMT 46.051521 -65.425232 35,000 47 438 -64
2019-06-25 04:29:17 GMT 46.035919 -65.449577 35,000 47 437 -64
2019-06-25 04:29:05 GMT 46.019169 -65.475563 35,000 47 437 0
2019-06-25 04:28:58 GMT 46.009552 -65.490440 35,000 47 437 0
2019-06-25 04:28:53 GMT 46.004608 -65.498146 35,000 47 438 0
2019-06-25 04:28:43 GMT 45.990025 -65.520744 35,000 47 438 -64
2019-06-25 04:28:31 GMT 45.975178 -65.543747 35,000 47 438 -64
2019-06-25 04:28:22 GMT 45.960884 -65.565926 35,000 47 438 0
2019-06-25 04:28:10 GMT 45.945988 -65.588928 35,000 47 439 0
2019-06-25 04:28:01 GMT 45.932465 -65.609818 35,000 47 439 0
2019-06-25 04:27:50 GMT 45.917217 -65.633286 35,000 47 440 0
2019-06-25 04:27:43 GMT 45.907562 -65.648201 35,000 47 440 0
2019-06-25 04:27:33 GMT 45.892872 -65.670776 35,000 47 440 -64
2019-06-25 04:27:28 GMT 45.887604 -65.678879 35,000 47 440 -64
2019-06-25 04:27:18 GMT 45.874065 -65.699821 35,000 47 440 0
2019-06-25 04:27:04 GMT 45.854141 -65.730583 35,000 47 440 0
2019-06-25 04:27:01 GMT 45.848648 -65.739098 35,000 47 440 0
2019-06-25 04:26:57 GMT 45.844482 -65.745468 35,000 47 440 0
2019-06-25 04:26:50 GMT 45.834217 -65.761208 35,000 47 440 -64
2019-06-25 04:26:47 GMT 45.830063 -65.767647 35,000 46 440 -64
2019-06-25 04:26:37 GMT 45.815876 -65.789360 35,000 47 440 -64
2019-06-25 04:26:08 GMT 45.775932 -65.850746 35,000 46 440 0
2019-06-25 04:26:03 GMT 45.768951 -65.861359 35,000 46 440 0
2019-06-25 04:25:55 GMT 45.757278 -65.879250 35,000 46 440 0
2019-06-25 04:24:39 GMT 45.652039 -66.039619 35,000 46 440 0
2019-06-25 04:24:20 GMT 45.625305 -66.080284 35,000 46 442 -64
2019-06-25 04:23:49 GMT 45.581772 -66.146339 35,000 46 441 -64
2019-06-25 04:23:35 GMT 45.563873 -66.173470 35,000 46 442 0
2019-06-25 04:23:31 GMT 45.556858 -66.184044 35,000 46 442 -64
2019-06-25 04:23:26 GMT 45.548767 -66.196312 35,000 46 443 0
2019-06-25 04:23:15 GMT 45.535309 -66.216759 35,000 46 442 0
2019-06-25 04:23:06 GMT 45.521851 -66.237099 35,000 46 442 0
2019-06-25 04:22:55 GMT 45.506954 -66.259621 35,000 46 444 -64
2019-06-25 04:22:43 GMT 45.489716 -66.285553 35,000 46 446 0
2019-06-25 04:22:30 GMT 45.472183 -66.311974 35,000 46 447 0
2019-06-25 04:22:20 GMT 45.456894 -66.334991 35,000 46 447 -64
2019-06-25 04:22:13 GMT 45.442989 -66.355949 35,000 46 447 0
2019-06-25 04:22:03 GMT 45.431900 -66.372528 35,000 46 447 -64
2019-06-25 04:21:52 GMT 45.417946 -66.393394 35,000 46 447 0
2019-06-25 04:21:41 GMT 45.402832 -66.416016 35,000 46 447 0
2019-06-25 04:21:29 GMT 45.384895 -66.442902 35,000 46 448 -64
2019-06-25 04:21:21 GMT 45.373810 -66.459572 35,000 46 449 0
2019-06-25 04:21:10 GMT 45.358082 -66.483093 35,000 46 449 -64
2019-06-25 04:20:59 GMT 45.340950 -66.508751 35,000 46 449 0
2019-06-25 04:20:47 GMT 45.325493 -66.531799 35,000 46 449 0
2019-06-25 04:20:37 GMT 45.310318 -66.554390 35,000 46 449 -64
2019-06-25 04:20:27 GMT 45.293373 -66.579628 35,000 46 450 0
2019-06-25 04:20:15 GMT 45.277634 -66.603172 35,000 46 450 0
2019-06-25 04:20:04 GMT 45.263306 -66.624557 35,000 46 451 -64
2019-06-25 04:19:54 GMT 45.247471 -66.648094 35,000 46 451 0
2019-06-25 04:19:42 GMT 45.232819 -66.669876 35,000 46 451 0
2019-06-25 04:19:33 GMT 45.217346 -66.692963 35,000 46 451 0
2019-06-25 04:19:21 GMT 45.202084 -66.715614 35,000 46 450 0
2019-06-25 04:19:12 GMT 45.187408 -66.737366 35,000 46 450 0
2019-06-25 04:19:05 GMT 45.179646 -66.748840 35,000 46 450 -64
2019-06-25 04:19:01 GMT 45.172440 -66.759468 35,000 46 450 0
2019-06-25 04:18:50 GMT 45.156372 -66.783340 35,000 46 449 0
2019-06-25 04:18:43 GMT 45.146873 -66.797340 35,000 46 449 0
2019-06-25 04:18:39 GMT 45.141449 -66.805374 35,000 46 449 0
2019-06-25 04:18:36 GMT 45.137142 -66.811745 35,000 46 449 -64
2019-06-25 04:18:29 GMT 45.126526 -66.827477 35,000 46 449 -64
2019-06-25 04:18:25 GMT 45.121082 -66.835526 35,000 46 448 -64
2019-06-25 04:18:15 GMT 45.107304 -66.855827 35,000 46 449 0
2019-06-25 04:17:55 GMT 45.078022 -66.898903 35,000 46 449 -64
2019-06-25 04:17:44 GMT 45.062759 -66.921318 35,000 46 449 -64
2019-06-25 04:17:36 GMT 45.051533 -66.937820 35,000 46 449 0
2019-06-25 04:17:33 GMT 45.046970 -66.944588 35,000 46 449 0
2019-06-25 04:17:27 GMT 45.036301 -66.960228 35,000 46 450 0
2019-06-25 04:17:22 GMT 45.031677 -66.967033 35,000 46 450 -64
2019-06-25 04:17:15 GMT 45.021599 -66.981834 35,000 46 450 0
2019-06-25 04:17:12 GMT 45.016708 -66.989006 35,000 46 450 0
2019-06-25 04:17:05 GMT 45.006317 -67.004242 35,000 46 451 -64
2019-06-25 04:17:02 GMT 45.001694 -67.011040 35,000 46 451 -64
2019-06-25 04:16:52 GMT 44.987183 -67.032234 35,000 46 453 -64
2019-06-25 04:16:44 GMT 44.975327 -67.049698 35,000 46 453 0
2019-06-25 04:16:41 GMT 44.971836 -67.054855 35,000 46 453 0
2019-06-25 04:16:34 GMT 44.959991 -67.072319 35,000 46 453 0
2019-06-25 04:16:30 GMT 44.956196 -67.077896 35,000 46 454 0
2019-06-25 04:16:23 GMT 44.943439 -67.096657 35,000 46 454 0
2019-06-25 04:16:10 GMT 44.926392 -67.122017 35,000 47 457 0
2019-06-25 04:15:59 GMT 44.911606 -67.144905 35,000 48 458 0
2019-06-25 04:15:56 GMT 44.906570 -67.152946 35,000 48 459 0
2019-06-25 04:15:46 GMT 44.886879 -67.185219 35,000 49 460 0
2019-06-25 04:15:39 GMT 44.883106 -67.191711 35,000 51 462 0
2019-06-25 04:15:28 GMT 44.868675 -67.217171 35,000 51 464 0
2019-06-25 04:15:18 GMT 44.855453 -67.240883 35,000 51 464 0
2019-06-25 04:15:08 GMT 44.841934 -67.265038 35,000 51 462 0
2019-06-25 04:14:57 GMT 44.827896 -67.290123 35,000 51 462 0
2019-06-25 04:14:47 GMT 44.814209 -67.314636 35,000 51 462 0
2019-06-25 04:14:36 GMT 44.799683 -67.340500 35,000 51 461 -64
2019-06-25 04:14:25 GMT 44.785995 -67.365028 35,000 51 458 0
2019-06-25 04:14:15 GMT 44.772308 -67.389420 35,000 51 459 0
2019-06-25 04:14:09 GMT 44.761826 -67.408119 35,000 51 458 0
2019-06-25 04:14:04 GMT 44.757881 -67.415123 35,000 51 458 0
2019-06-25 04:14:00 GMT 44.752899 -67.424011 35,000 51 458 0
2019-06-25 04:13:54 GMT 44.745266 -67.437500 35,000 51 457 -64
2019-06-25 04:13:50 GMT 44.738468 -67.449623 35,000 51 457 0
2019-06-25 04:13:43 GMT 44.731113 -67.462685 35,000 51 457 0
2019-06-25 04:13:33 GMT 44.717743 -67.486397 35,000 51 456 0
2019-06-25 04:13:22 GMT 44.703323 -67.511856 35,000 51 456 0
2019-06-25 04:13:11 GMT 44.688950 -67.537338 35,000 51 455 0
2019-06-25 04:13:02 GMT 44.676910 -67.558662 35,000 51 456 -64
2019-06-25 04:12:51 GMT 44.662544 -67.584137 35,000 51 456 0
2019-06-25 04:12:41 GMT 44.649673 -67.606789 35,000 51 456 0
2019-06-25 04:12:31 GMT 44.635777 -67.631302 35,000 51 456 -64
2019-06-25 04:12:20 GMT 44.621887 -67.655769 35,000 51 456 0
2019-06-25 04:12:10 GMT 44.608749 -67.678917 35,000 51 458 0
2019-06-25 04:12:00 GMT 44.595322 -67.702644 35,000 51 458 0
2019-06-25 04:11:49 GMT 44.581329 -67.727249 35,000 51 459 0
2019-06-25 04:11:39 GMT 44.567345 -67.751884 35,000 51 459 0
2019-06-25 04:11:29 GMT 44.553864 -67.775642 35,000 51 461 0
2019-06-25 04:11:18 GMT 44.540085 -67.799904 35,000 51 461 -64
2019-06-25 04:11:07 GMT 44.526005 -67.824570 35,000 51 460 -64
2019-06-25 04:10:55 GMT 44.509060 -67.854309 35,000 51 460 0
2019-06-25 04:10:47 GMT 44.498199 -67.873337 35,000 51 458 0
2019-06-25 04:10:36 GMT 44.483871 -67.898453 35,000 51 459 -64
2019-06-25 04:10:25 GMT 44.470093 -67.922516 35,000 51 459 -64
2019-06-25 04:10:15 GMT 44.457108 -67.945213 35,000 51 458 0
2019-06-25 04:10:05 GMT 44.443329 -67.969261 35,000 51 457 0
2019-06-25 04:09:55 GMT 44.429855 -67.992752 35,000 51 457 -64
2019-06-25 04:09:44 GMT 44.415302 -68.018097 35,000 51 457 -64
2019-06-25 04:09:34 GMT 44.402641 -68.040207 35,000 51 457 0
2019-06-25 04:09:21 GMT 44.384903 -68.071030 35,000 51 457 -64
2019-06-25 04:09:14 GMT 44.375084 -68.088036 35,000 51 458 -64
2019-06-25 04:09:03 GMT 44.361351 -68.112022 35,000 51 458 0
2019-06-25 04:08:52 GMT 44.347275 -68.136421 35,000 51 458 0
2019-06-25 04:08:41 GMT 44.331848 -68.163101 35,000 51 459 0
2019-06-25 04:08:32 GMT 44.319626 -68.184357 35,000 51 460 0
2019-06-25 04:08:21 GMT 44.305756 -68.208359 35,000 51 460 0
2019-06-25 04:08:11 GMT 44.291931 -68.232353 35,000 51 460 0
2019-06-25 04:08:00 GMT 44.278015 -68.256355 35,000 51 460 0
2019-06-25 04:07:50 GMT 44.264427 -68.279831 35,000 51 460 0
2019-06-25 04:07:40 GMT 44.250320 -68.304161 35,000 51 458 0
2019-06-25 04:07:30 GMT 44.236954 -68.327110 35,000 51 458 0
2019-06-25 04:07:19 GMT 44.222031 -68.352814 35,000 51 458 0
2019-06-25 04:07:09 GMT 44.209259 -68.374786 35,000 51 458 -64
2019-06-25 04:06:58 GMT 44.195110 -68.399071 35,000 51 459 0
2019-06-25 04:06:48 GMT 44.181015 -68.423363 35,000 51 459 -64
2019-06-25 04:06:37 GMT 44.166595 -68.448082 35,000 51 458 0
2019-06-25 04:06:27 GMT 44.153824 -68.470116 35,000 51 458 0
2019-06-25 04:06:23 GMT 44.146866 -68.482002 35,000 51 458 0
2019-06-25 04:06:17 GMT 44.140228 -68.493477 35,000 51 459 -64
2019-06-25 04:06:07 GMT 44.126354 -68.517281 35,000 51 459 0
2019-06-25 04:05:56 GMT 44.112167 -68.541527 35,000 51 459 -64
2019-06-25 04:05:46 GMT 44.098251 -68.565292 35,000 50 459 0
2019-06-25 04:05:35 GMT 44.084335 -68.589119 35,000 50 459 0
2019-06-25 04:05:31 GMT 44.076591 -68.602364 35,000 50 459 -64
2019-06-25 04:05:25 GMT 44.070419 -68.612877 35,000 50 459 0
2019-06-25 04:05:20 GMT 44.063461 -68.624825 35,000 50 459 0
2019-06-25 04:05:14 GMT 44.056198 -68.637154 35,000 50 459 64
2019-06-25 04:05:08 GMT 44.047897 -68.651329 35,000 50 461 0
2019-06-25 04:05:04 GMT 44.042496 -68.660530 35,000 50 460 -64
2019-06-25 04:05:00 GMT 44.035763 -68.671944 35,000 50 460 0
2019-06-25 04:04:54 GMT 44.028221 -68.684761 35,000 50 461 -64
2019-06-25 04:04:48 GMT 44.021240 -68.696724 35,000 50 461 0
2019-06-25 04:04:43 GMT 44.014210 -68.708626 35,000 50 461 0
2019-06-25 04:04:39 GMT 44.007477 -68.720055 35,000 50 461 -64
2019-06-25 04:04:33 GMT 44.000198 -68.732430 35,000 50 462 -64
2019-06-25 04:04:23 GMT 43.986420 -68.755890 35,000 50 463 -64
2019-06-25 04:04:12 GMT 43.972321 -68.779778 35,000 50 463 -64
2019-06-25 04:04:07 GMT 43.963375 -68.794945 35,000 50 464 0
2019-06-25 04:04:02 GMT 43.958221 -68.803665 35,000 50 464 0
2019-06-25 04:03:57 GMT 43.951412 -68.815155 35,000 50 464 0
2019-06-25 04:03:51 GMT 43.944077 -68.827560 35,000 50 464 -64
2019-06-25 04:03:45 GMT 43.935928 -68.841415 35,000 50 464 0
2019-06-25 04:03:41 GMT 43.929932 -68.851509 35,000 50 465 0
2019-06-25 04:03:35 GMT 43.922596 -68.863937 35,000 50 466 -64
2019-06-25 04:03:30 GMT 43.915237 -68.876419 35,000 50 466 -64
2019-06-25 04:03:25 GMT 43.908691 -68.887474 35,000 50 466 -64
2019-06-25 04:03:20 GMT 43.901878 -68.899055 35,000 50 466 -64
2019-06-25 04:03:10 GMT 43.887405 -68.923492 35,000 50 466 0
2019-06-25 04:03:02 GMT 43.876740 -68.941498 35,000 50 466 0
2019-06-25 04:02:59 GMT 43.872925 -68.947975 35,000 50 466 0
2019-06-25 04:02:54 GMT 43.865803 -68.959938 35,000 50 467 0
2019-06-25 04:02:49 GMT 43.859192 -68.971054 35,000 50 468 0
2019-06-25 04:02:44 GMT 43.852070 -68.983025 35,000 50 468 0
2019-06-25 04:02:41 GMT 43.848206 -68.989494 35,000 50 468 0
2019-06-25 04:02:38 GMT 43.844650 -68.995544 35,000 50 468 0
2019-06-25 04:02:33 GMT 43.836658 -69.008919 35,000 50 468 0
2019-06-25 04:02:28 GMT 43.830368 -69.019562 35,000 50 469 0
2019-06-25 04:02:22 GMT 43.822083 -69.033485 35,000 50 469 0
2019-06-25 04:02:18 GMT 43.816040 -69.043640 35,000 50 469 0
2019-06-25 04:02:10 GMT 43.805008 -69.062164 35,000 50 469 0
2019-06-25 04:02:07 GMT 43.801979 -69.067253 35,000 50 470 0
2019-06-25 04:02:01 GMT 43.793427 -69.081650 35,000 50 470 0
2019-06-25 04:01:57 GMT 43.787338 -69.091866 35,000 50 471 0
2019-06-25 04:01:53 GMT 43.780422 -69.103416 35,000 50 471 0
2019-06-25 04:01:47 GMT 43.773254 -69.115517 35,000 50 471 0
2019-06-25 04:01:39 GMT 43.761887 -69.134537 35,000 50 471 0
2019-06-25 04:01:36 GMT 43.758591 -69.140091 35,000 50 472 0
2019-06-25 04:01:32 GMT 43.751656 -69.151741 35,000 50 473 0
2019-06-25 04:01:28 GMT 43.747746 -69.158218 35,000 50 472 0
2019-06-25 04:01:25 GMT 43.743576 -69.165192 35,000 50 473 0
2019-06-25 04:01:19 GMT 43.735245 -69.179184 35,000 50 473 0
2019-06-25 04:01:15 GMT 43.729961 -69.187973 35,000 50 473 0
2019-06-25 04:01:10 GMT 43.723022 -69.199623 35,000 50 473 0
2019-06-25 04:01:05 GMT 43.715195 -69.212654 35,000 50 473 0
2019-06-25 04:01:00 GMT 43.708267 -69.224266 35,000 50 473 0
2019-06-25 04:00:57 GMT 43.704071 -69.231239 35,000 50 473 -64
2019-06-25 04:00:54 GMT 43.700729 -69.236801 35,000 50 473 -64
2019-06-25 04:00:50 GMT 43.694302 -69.247543 35,000 50 473 0
2019-06-25 04:00:47 GMT 43.689560 -69.255447 35,000 50 474 -64
2019-06-25 04:00:44 GMT 43.685970 -69.261475 35,000 50 474 0
2019-06-25 04:00:40 GMT 43.679268 -69.272659 35,000 50 474 0
2019-06-25 04:00:34 GMT 43.672005 -69.284752 35,000 50 474 0
2019-06-25 04:00:29 GMT 43.665024 -69.296455 35,000 50 474 0
2019-06-25 04:00:26 GMT 43.660831 -69.303391 35,000 50 475 0
2019-06-25 04:00:23 GMT 43.657196 -69.309486 35,000 50 475 0
2019-06-25 04:00:18 GMT 43.648270 -69.324432 35,000 50 475 0
2019-06-25 04:00:13 GMT 43.642639 -69.333755 35,000 50 475 0
2019-06-25 04:00:06 GMT 43.632568 -69.350555 35,000 50 476 0
2019-06-25 04:00:03 GMT 43.628632 -69.357071 35,000 50 476 0
2019-06-25 03:59:59 GMT 43.617119 -69.376244 35,000 50 476 0
2019-06-25 03:59:55 GMT 43.617119 -69.376244 35,000 50 476 0
2019-06-25 03:59:52 GMT 43.613434 -69.382301 35,000 50 476 0
2019-06-25 03:59:46 GMT 43.605293 -69.395798 35,000 50 476 0
2019-06-25 03:59:42 GMT 43.599106 -69.406059 35,000 50 476 0
2019-06-25 03:59:37 GMT 43.592911 -69.416328 35,000 50 476 0
2019-06-25 03:59:34 GMT 43.587837 -69.424767 35,000 50 476 -64
2019-06-25 03:59:27 GMT 43.576309 -69.443878 35,000 50 476 0
2019-06-25 03:59:24 GMT 43.573517 -69.448540 35,000 50 476 0
2019-06-25 03:59:21 GMT 43.569870 -69.454582 35,000 50 476 0
2019-06-25 03:59:16 GMT 43.563072 -69.465836 35,000 50 476 0
2019-06-25 03:59:13 GMT 43.558868 -69.472809 35,000 50 476 0
2019-06-25 03:59:10 GMT 43.554646 -69.479828 35,000 50 476 0
2019-06-25 03:59:06 GMT 43.544220 -69.497086 35,000 50 477 0
2019-06-25 03:59:00 GMT 43.539471 -69.505005 35,000 50 477 0
2019-06-25 03:58:55 GMT 43.532673 -69.516190 35,000 50 477 0
2019-06-25 03:58:50 GMT 43.525925 -69.527367 35,000 50 477 0
2019-06-25 03:58:45 GMT 43.517166 -69.541862 35,000 50 477 0
2019-06-25 03:58:42 GMT 43.514877 -69.545563 35,000 50 477 0
2019-06-25 03:58:39 GMT 43.510345 -69.553040 35,000 50 477 0
2019-06-25 03:58:35 GMT 43.503300 -69.564713 35,000 50 477 0
2019-06-25 03:58:32 GMT 43.500507 -69.569351 35,000 50 477 0
2019-06-25 03:58:29 GMT 43.495945 -69.576805 35,000 50 477 0
2019-06-25 03:58:24 GMT 43.488636 -69.588974 35,000 50 477 0
2019-06-25 03:58:19 GMT 43.481838 -69.600151 35,000 50 477 0
2019-06-25 03:58:14 GMT 43.473633 -69.613655 35,000 50 477 0
2019-06-25 03:58:08 GMT 43.466263 -69.625793 35,000 50 478 0
2019-06-25 03:58:02 GMT 43.457794 -69.639778 35,000 50 478 0
2019-06-25 03:57:58 GMT 43.451813 -69.649590 35,000 50 479 0
2019-06-25 03:57:53 GMT 43.445015 -69.660774 35,000 50 479 0
2019-06-25 03:57:50 GMT 43.439941 -69.669212 35,000 50 479 0
2019-06-25 03:57:47 GMT 43.436543 -69.674767 35,000 50 479 0
2019-06-25 03:57:42 GMT 43.429699 -69.686020 35,000 50 479 0
2019-06-25 03:57:37 GMT 43.422638 -69.697716 35,000 50 479 0
2019-06-25 03:57:31 GMT 43.414124 -69.711700 35,000 50 479 0
2019-06-25 03:57:26 GMT 43.406708 -69.723839 35,000 50 479 0
2019-06-25 03:57:22 GMT 43.401348 -69.732712 35,000 50 480 0
2019-06-25 03:57:19 GMT 43.395355 -69.742554 35,000 50 479 0
2019-06-25 03:57:16 GMT 43.393112 -69.746254 35,000 50 479 0
2019-06-25 03:57:11 GMT 43.385429 -69.758865 35,000 50 479 0
2019-06-25 03:57:08 GMT 43.381119 -69.765869 35,000 49 480 0
2019-06-25 03:57:05 GMT 43.377979 -69.770966 35,000 49 480 0
2019-06-25 03:57:02 GMT 43.372009 -69.780746 35,000 49 480 0
2019-06-25 03:56:58 GMT 43.362900 -69.795692 35,000 49 479 0
2019-06-25 03:56:50 GMT 43.356033 -69.806870 35,000 50 479 0
2019-06-25 03:56:47 GMT 43.351727 -69.813866 35,000 49 480 0
2019-06-25 03:56:44 GMT 43.347473 -69.820862 35,000 50 479 0
2019-06-25 03:56:39 GMT 43.340057 -69.833000 35,000 50 479 0
2019-06-25 03:56:34 GMT 43.332916 -69.844597 35,000 50 479 -64
2019-06-25 03:56:30 GMT 43.326965 -69.854393 35,000 50 479 -64
2019-06-25 03:56:27 GMT 43.323235 -69.860428 35,000 50 479 0
2019-06-25 03:56:24 GMT 43.319229 -69.866966 35,000 49 479 0
2019-06-25 03:56:20 GMT 43.312435 -69.878151 35,000 50 479 0
2019-06-25 03:56:17 GMT 43.304169 -69.891632 35,000 49 479 0
2019-06-25 03:56:14 GMT 43.304169 -69.891632 35,000 49 479 0
2019-06-25 03:56:08 GMT 43.296467 -69.904175 35,000 49 479 0
2019-06-25 03:56:05 GMT 43.291904 -69.911629 35,000 50 479 0
2019-06-25 03:56:00 GMT 43.282780 -69.926537 35,000 49 479 0
2019-06-25 03:55:56 GMT 43.276794 -69.936279 35,000 49 479 0
2019-06-25 03:55:53 GMT 43.268490 -69.949753 35,000 49 479 0
2019-06-25 03:55:49 GMT 43.268490 -69.949753 35,000 49 479 0
2019-06-25 03:55:45 GMT 43.263107 -69.958572 35,000 49 479 0
2019-06-25 03:55:42 GMT 43.258808 -69.965584 35,000 49 479 0
2019-06-25 03:55:38 GMT 43.253685 -69.973885 35,000 49 479 0
2019-06-25 03:55:35 GMT 43.248230 -69.982719 35,000 49 480 -64
2019-06-25 03:55:32 GMT 43.244247 -69.989235 35,000 49 479 0
2019-06-25 03:55:28 GMT 43.238232 -69.999001 35,000 49 480 0
2019-06-25 03:55:25 GMT 43.233063 -70.007370 35,000 49 481 0
2019-06-25 03:55:22 GMT 43.230225 -70.012009 35,000 49 481 0
2019-06-25 03:55:17 GMT 43.221909 -70.025452 35,000 49 481 0
2019-06-25 03:55:14 GMT 43.218773 -70.030586 35,000 49 481 0
2019-06-25 03:55:11 GMT 43.215328 -70.036140 35,000 49 481 0
2019-06-25 03:55:08 GMT 43.208485 -70.047325 35,000 49 481 0
2019-06-25 03:55:04 GMT 43.203876 -70.054779 35,000 49 481 0
2019-06-25 03:55:01 GMT 43.200432 -70.060402 35,000 49 481 0
2019-06-25 03:54:57 GMT 43.193298 -70.072075 35,000 50 482 0
2019-06-25 03:54:54 GMT 43.189270 -70.078590 35,000 49 484 0
2019-06-25 03:54:50 GMT 43.184647 -70.086067 35,000 49 483 -64
2019-06-25 03:54:46 GMT 43.177185 -70.098206 35,000 50 484 -64
2019-06-25 03:54:43 GMT 43.174301 -70.102928 35,000 49 484 0
2019-06-25 03:54:40 GMT 43.169987 -70.109909 35,000 49 484 0
2019-06-25 03:54:36 GMT 43.164505 -70.118835 35,000 49 485 0
2019-06-25 03:54:33 GMT 43.160164 -70.125862 35,000 49 485 0
2019-06-25 03:54:30 GMT 43.155556 -70.133385 35,000 49 486 64
2019-06-25 03:54:27 GMT 43.150040 -70.142273 35,000 49 486 64
2019-06-25 03:54:23 GMT 43.143963 -70.152153 35,000 49 487 64
2019-06-25 03:54:19 GMT 43.139603 -70.159203 35,000 49 488 0
2019-06-25 03:54:16 GMT 43.133789 -70.168655 35,000 49 488 0
2019-06-25 03:54:12 GMT 43.129436 -70.175697 35,000 49 488 0
2019-06-25 03:54:09 GMT 43.124783 -70.183281 35,000 49 488 0
2019-06-25 03:54:05 GMT 43.118637 -70.193184 35,000 49 489 0
2019-06-25 03:54:01 GMT 43.112823 -70.202576 35,000 49 488 0
2019-06-25 03:53:55 GMT 43.102577 -70.219048 35,000 49 488 0
2019-06-25 03:53:51 GMT 43.098770 -70.225182 35,000 49 488 0
2019-06-25 03:53:48 GMT 43.094101 -70.232719 35,000 49 487 0
2019-06-25 03:53:44 GMT 43.088566 -70.241615 35,000 49 486 0
2019-06-25 03:53:40 GMT 43.083069 -70.250542 35,000 49 486 0
2019-06-25 03:53:37 GMT 43.078995 -70.257057 35,000 49 485 0
2019-06-25 03:53:32 GMT 43.070549 -70.270645 35,000 49 484 -64
2019-06-25 03:53:28 GMT 43.064777 -70.279930 35,000 49 483 -64
2019-06-25 03:53:23 GMT 43.056679 -70.292946 35,000 49 482 -64
2019-06-25 03:53:20 GMT 43.053791 -70.297592 35,000 49 482 0
2019-06-25 03:53:17 GMT 43.049469 -70.304581 35,000 49 481 0
2019-06-25 03:53:12 GMT 43.042557 -70.315697 35,000 49 481 0
2019-06-25 03:53:09 GMT 43.037933 -70.323105 35,000 49 481 0
2019-06-25 03:53:06 GMT 43.033634 -70.330025 35,000 49 481 0
2019-06-25 03:53:03 GMT 43.023300 -70.346703 35,000 49 481 -64
2019-06-25 03:52:59 GMT 43.023300 -70.346703 35,000 49 481 -64
2019-06-25 03:52:56 GMT 43.018982 -70.353638 35,000 49 481 0
2019-06-25 03:52:52 GMT 43.013809 -70.361938 35,000 49 481 0
2019-06-25 03:52:49 GMT 43.009186 -70.369347 35,000 49 481 0
2019-06-25 03:52:46 GMT 43.004864 -70.376259 35,000 49 481 0
2019-06-25 03:52:42 GMT 42.998245 -70.386909 35,000 49 481 0
2019-06-25 03:52:39 GMT 42.994812 -70.392471 35,000 49 481 0
2019-06-25 03:52:35 GMT 42.986477 -70.405884 35,000 49 481 0
2019-06-25 03:52:32 GMT 42.979248 -70.417381 35,000 49 481 0
2019-06-25 03:52:29 GMT 42.979248 -70.417381 35,000 49 480 0
2019-06-25 03:52:24 GMT 42.973812 -70.426155 35,000 49 480 0
2019-06-25 03:52:21 GMT 42.968307 -70.434944 35,000 49 480 0
2019-06-25 03:52:18 GMT 42.964279 -70.441399 35,000 49 480 0
2019-06-25 03:52:14 GMT 42.959381 -70.449173 35,000 49 480 0
2019-06-25 03:52:11 GMT 42.952446 -70.460289 35,000 49 480 0
2019-06-25 03:52:08 GMT 42.950165 -70.463951 35,000 49 480 0
2019-06-25 03:52:05 GMT 42.945236 -70.471802 35,000 49 480 0
2019-06-25 03:51:58 GMT 42.934570 -70.488808 35,000 49 480 0
2019-06-25 03:51:54 GMT 42.922512 -70.508095 35,000 49 480 0
2019-06-25 03:51:50 GMT 42.922512 -70.508095 35,000 49 480 0
2019-06-25 03:51:47 GMT 42.919628 -70.512741 35,000 49 480 0
2019-06-25 03:51:43 GMT 42.914459 -70.520981 35,000 49 480 0
2019-06-25 03:51:37 GMT 42.904125 -70.537521 35,000 49 478 0
2019-06-25 03:51:33 GMT 42.899826 -70.544426 35,000 49 478 0
2019-06-25 03:51:29 GMT 42.892628 -70.555901 35,000 49 478 0
2019-06-25 03:51:26 GMT 42.885452 -70.567421 35,000 49 479 0
2019-06-25 03:51:23 GMT 42.885452 -70.567421 35,000 49 479 0
2019-06-25 03:51:18 GMT 42.878845 -70.577934 35,000 49 479 -64
2019-06-25 03:51:15 GMT 42.868790 -70.593994 35,000 49 478 0
2019-06-25 03:51:09 GMT 42.864510 -70.600891 35,000 49 478 0
2019-06-25 03:51:06 GMT 42.860184 -70.607727 35,000 49 478 0
2019-06-25 03:51:01 GMT 42.854416 -70.616859 35,000 49 478 0
2019-06-25 03:50:58 GMT 42.847797 -70.627441 35,000 49 478 0
2019-06-25 03:50:55 GMT 42.844955 -70.632019 35,000 49 478 0
2019-06-25 03:50:51 GMT 42.839447 -70.640686 35,000 49 478 0
2019-06-25 03:50:47 GMT 42.834019 -70.649345 35,000 49 479 0
2019-06-25 03:50:44 GMT 42.830246 -70.655312 35,000 49 479 0
2019-06-25 03:50:41 GMT 42.825073 -70.663551 35,000 49 479 0
2019-06-25 03:50:38 GMT 42.819305 -70.672684 35,000 49 479 0
2019-06-25 03:50:35 GMT 42.814980 -70.679558 35,000 49 479 0
2019-06-25 03:50:31 GMT 42.810368 -70.686882 35,000 49 479 0
2019-06-25 03:50:27 GMT 42.804886 -70.695587 35,000 49 479 0
2019-06-25 03:50:24 GMT 42.800262 -70.702888 35,000 49 482 0
2019-06-25 03:50:20 GMT 42.795685 -70.710190 35,000 49 480 0
2019-06-25 03:50:16 GMT 42.787884 -70.722572 35,000 49 480 0
2019-06-25 03:50:13 GMT 42.784439 -70.727997 35,000 49 480 0
2019-06-25 03:50:10 GMT 42.780949 -70.733498 35,000 49 480 0
2019-06-25 03:50:03 GMT 42.770569 -70.749969 35,000 49 480 0
2019-06-25 03:49:59 GMT 42.763916 -70.760506 35,000 49 480 0
2019-06-25 03:49:55 GMT 42.757599 -70.770615 35,000 49 480 0
2019-06-25 03:49:52 GMT 42.754669 -70.775177 35,000 49 480 0
2019-06-25 03:49:49 GMT 42.750092 -70.782478 35,000 49 480 0
2019-06-25 03:49:45 GMT 42.744591 -70.791237 35,000 49 480 0
2019-06-25 03:49:42 GMT 42.740250 -70.798080 35,000 49 480 0
2019-06-25 03:49:38 GMT 42.735031 -70.806320 35,000 49 480 0
2019-06-25 03:49:35 GMT 42.728390 -70.816849 35,000 49 480 0
2019-06-25 03:49:32 GMT 42.725506 -70.821449 35,000 49 480 0
2019-06-25 03:49:28 GMT 42.719685 -70.830582 35,000 49 480 0
2019-06-25 03:49:24 GMT 42.713913 -70.839783 35,000 49 480 0
2019-06-25 03:49:21 GMT 42.710423 -70.845276 35,000 49 481 0
2019-06-25 03:49:17 GMT 42.703766 -70.855827 35,000 49 482 0
2019-06-25 03:49:13 GMT 42.691849 -70.874588 35,000 49 482 0
2019-06-25 03:49:10 GMT 42.691849 -70.874588 35,000 49 482 0
2019-06-25 03:49:04 GMT 42.682583 -70.889221 35,000 49 482 0
2019-06-25 03:49:01 GMT 42.680256 -70.892921 35,000 49 482 0
2019-06-25 03:48:57 GMT 42.674744 -70.901642 35,000 49 482 0
2019-06-25 03:48:51 GMT 42.665730 -70.915787 35,000 49 482 0
2019-06-25 03:48:47 GMT 42.660233 -70.924553 35,000 49 482 0
2019-06-25 03:48:43 GMT 42.653229 -70.935539 35,000 49 482 0
2019-06-25 03:48:39 GMT 42.646553 -70.945999 35,000 49 482 0
2019-06-25 03:48:33 GMT 42.638077 -70.959320 35,000 49 482 0
2019-06-25 03:48:30 GMT 42.635193 -70.963875 35,000 49 482 0
2019-06-25 03:48:26 GMT 42.621506 -70.985413 35,000 49 482 -64
2019-06-25 03:48:21 GMT 42.621506 -70.985413 35,000 49 482 0
2019-06-25 03:48:18 GMT 42.617409 -70.991798 35,000 49 482 0
2019-06-25 03:48:15 GMT 42.613312 -70.998253 35,000 49 482 0
2019-06-25 03:48:11 GMT 42.607224 -71.007820 35,000 49 482 0
2019-06-25 03:48:08 GMT 42.601673 -71.016518 35,000 49 482 0
2019-06-25 03:48:05 GMT 42.598743 -71.021118 35,000 49 482 -64
2019-06-25 03:48:01 GMT 42.593216 -71.029854 35,000 49 483 0
2019-06-25 03:47:57 GMT 42.587357 -71.038971 35,000 49 483 0
2019-06-25 03:47:54 GMT 42.581844 -71.047691 35,000 49 482 -64
2019-06-25 03:47:50 GMT 42.575684 -71.057259 35,000 49 483 0
2019-06-25 03:47:47 GMT 42.571880 -71.063210 35,000 49 482 0
2019-06-25 03:47:44 GMT 42.568085 -71.069183 35,000 49 482 0
2019-06-25 03:47:41 GMT 42.564011 -71.075546 35,000 49 482 -64
2019-06-25 03:47:38 GMT 42.559639 -71.082436 35,000 49 482 0
2019-06-25 03:47:35 GMT 42.555267 -71.089287 35,000 49 482 0
2019-06-25 03:47:32 GMT 42.550888 -71.096169 35,000 49 482 0
2019-06-25 03:47:28 GMT 42.543594 -71.107635 35,000 49 483 0
2019-06-25 03:47:24 GMT 42.539249 -71.114502 35,000 49 483 0
2019-06-25 03:47:21 GMT 42.528728 -71.130981 35,000 49 484 0
2019-06-25 03:47:18 GMT 42.528728 -71.130981 35,000 49 484 0
2019-06-25 03:47:12 GMT 42.514111 -71.153915 35,000 49 484 0
2019-06-25 03:47:07 GMT 42.514111 -71.153915 35,000 49 484 0
2019-06-25 03:47:04 GMT 42.509411 -71.161255 35,000 49 484 0
2019-06-25 03:47:01 GMT 42.503860 -71.169930 35,000 49 485 0
2019-06-25 03:46:58 GMT 42.499447 -71.176842 35,000 49 485 0
2019-06-25 03:46:55 GMT 42.495350 -71.183296 35,000 49 485 0
2019-06-25 03:46:51 GMT 42.489761 -71.191971 35,000 49 485 0
2019-06-25 03:46:48 GMT 42.484177 -71.200729 35,000 49 485 0
2019-06-25 03:46:44 GMT 42.473877 -71.216751 35,000 49 485 0
2019-06-25 03:46:40 GMT 42.473877 -71.216751 35,000 49 486 0
2019-06-25 03:46:37 GMT 42.469757 -71.223183 35,000 48 485 0
2019-06-25 03:46:34 GMT 42.463554 -71.232796 35,000 48 485 0
2019-06-25 03:46:30 GMT 42.457687 -71.241928 35,000 49 485 0
2019-06-25 03:46:27 GMT 42.454151 -71.247421 35,000 49 485 0
2019-06-25 03:46:24 GMT 42.444748 -71.262054 35,000 49 485 0
2019-06-25 03:46:21 GMT 42.444748 -71.262054 35,000 49 485 0
2019-06-25 03:46:18 GMT 42.441212 -71.267548 35,000 49 485 0
2019-06-25 03:46:14 GMT 42.435345 -71.276741 35,000 49 485 0
2019-06-25 03:46:11 GMT 42.431534 -71.282669 35,000 49 485 0
2019-06-25 03:46:08 GMT 42.427105 -71.289520 35,000 49 484 0
2019-06-25 03:46:05 GMT 42.422104 -71.297340 35,000 49 484 0
2019-06-25 03:46:02 GMT 42.418259 -71.303253 35,000 49 484 0
2019-06-25 03:45:58 GMT 42.411530 -71.313751 35,000 49 484 0
2019-06-25 03:45:55 GMT 42.406219 -71.321991 35,000 49 484 0
2019-06-25 03:45:52 GMT 42.402695 -71.327484 35,000 49 484 0
2019-06-25 03:45:49 GMT 42.400059 -71.331543 35,000 49 485 0
2019-06-25 03:45:46 GMT 42.392982 -71.342529 35,000 49 485 0
2019-06-25 03:45:43 GMT 42.389145 -71.348457 35,000 49 485 0
2019-06-25 03:45:40 GMT 42.387070 -71.351669 35,000 49 485 0
2019-06-25 03:45:36 GMT 42.379436 -71.363548 35,000 49 485 0
2019-06-25 03:45:33 GMT 42.374451 -71.371307 35,000 49 484 0
2019-06-25 03:45:30 GMT 42.368820 -71.380028 35,000 49 484 0
2019-06-25 03:45:27 GMT 42.366211 -71.384102 35,000 49 484 0
2019-06-25 03:45:24 GMT 42.361496 -71.391472 35,000 49 484 0
2019-06-25 03:45:21 GMT 42.357971 -71.396904 35,000 49 484 0
2019-06-25 03:45:18 GMT 42.353851 -71.403328 35,000 49 484 0
2019-06-25 03:45:14 GMT 42.346207 -71.415192 35,000 49 484 0
2019-06-25 03:45:11 GMT 42.344147 -71.418350 35,000 49 484 0
2019-06-25 03:45:08 GMT 42.338840 -71.426590 35,000 49 484 0
2019-06-25 03:45:04 GMT 42.331467 -71.437973 35,000 49 484 0
2019-06-25 03:45:01 GMT 42.321758 -71.453033 35,000 49 484 0
2019-06-25 03:44:57 GMT 42.321758 -71.453033 35,000 49 484 0
2019-06-25 03:44:54 GMT 42.318825 -71.457634 35,000 48 485 0
2019-06-25 03:44:50 GMT 42.311462 -71.469063 35,000 48 485 0
2019-06-25 03:44:47 GMT 42.308533 -71.473618 35,000 48 485 0
2019-06-25 03:44:44 GMT 42.303772 -71.480858 35,000 48 485 0
2019-06-25 03:44:41 GMT 42.298462 -71.489098 35,000 48 485 0
2019-06-25 03:44:38 GMT 42.294937 -71.494530 35,000 48 485 0
2019-06-25 03:44:34 GMT 42.288437 -71.504578 35,000 48 486 0
2019-06-25 03:44:30 GMT 42.281937 -71.514626 35,000 48 486 0
2019-06-25 03:44:26 GMT 42.276321 -71.523293 35,000 48 486 0
2019-06-25 03:44:23 GMT 42.272507 -71.529175 35,000 48 486 0
2019-06-25 03:44:19 GMT 42.266266 -71.538750 35,000 48 486 0
2019-06-25 03:44:16 GMT 42.262123 -71.545143 35,000 48 486 0
2019-06-25 03:44:13 GMT 42.257721 -71.551956 35,000 48 486 0
2019-06-25 03:44:10 GMT 42.252365 -71.560135 35,000 48 486 0
2019-06-25 03:44:06 GMT 42.247055 -71.568314 35,000 48 485 0
2019-06-25 03:44:02 GMT 42.235245 -71.586479 35,000 48 485 0
2019-06-25 03:43:59 GMT 42.235245 -71.586479 35,000 48 485 -64
2019-06-25 03:43:56 GMT 42.233170 -71.589661 35,000 48 484 0
2019-06-25 03:43:52 GMT 42.225769 -71.601021 35,000 48 484 -64
2019-06-25 03:43:49 GMT 42.221951 -71.606972 35,000 48 484 -64
2019-06-25 03:43:45 GMT 42.215744 -71.616501 35,000 48 484 0
2019-06-25 03:43:41 GMT 42.209839 -71.625549 35,000 48 484 0
2019-06-25 03:43:38 GMT 42.205421 -71.632324 35,000 48 484 0
2019-06-25 03:43:35 GMT 42.202442 -71.636925 35,000 48 484 0
2019-06-25 03:43:32 GMT 42.195972 -71.646889 35,000 48 484 0
2019-06-25 03:43:28 GMT 42.191528 -71.653709 35,000 48 486 0
2019-06-25 03:43:25 GMT 42.187408 -71.660072 35,000 48 486 0
2019-06-25 03:43:21 GMT 42.179123 -71.672806 35,000 48 486 0
2019-06-25 03:43:17 GMT 42.175907 -71.677811 35,000 48 486 0
2019-06-25 03:43:14 GMT 42.171162 -71.685028 35,000 48 486 0
2019-06-25 03:43:11 GMT 42.161106 -71.700546 35,000 48 486 0
2019-06-25 03:43:08 GMT 42.161106 -71.700546 35,000 48 486 0
2019-06-25 03:43:04 GMT 42.156052 -71.708260 35,000 48 486 0
2019-06-25 03:43:00 GMT 42.148674 -71.719643 35,000 48 486 0
2019-06-25 03:42:57 GMT 42.144241 -71.726425 35,000 48 487 0
2019-06-25 03:42:53 GMT 42.140671 -71.731918 35,000 48 487 0
2019-06-25 03:42:50 GMT 42.133823 -71.742386 35,000 48 487 0
2019-06-25 03:42:47 GMT 42.130287 -71.747879 35,000 48 487 0
2019-06-25 03:42:44 GMT 42.126144 -71.754204 35,000 48 487 0
2019-06-25 03:42:41 GMT 42.121956 -71.760590 35,000 48 487 0
2019-06-25 03:42:38 GMT 42.117508 -71.767441 35,000 48 488 0
2019-06-25 03:42:35 GMT 42.112747 -71.774681 35,000 48 488 0
2019-06-25 03:42:32 GMT 42.108921 -71.780647 35,000 48 488 0
2019-06-25 03:42:29 GMT 42.102962 -71.789711 35,000 48 488 0
2019-06-25 03:42:26 GMT 42.099377 -71.795204 35,000 48 488 0
2019-06-25 03:42:23 GMT 42.094299 -71.802956 35,000 48 488 0
2019-06-25 03:42:19 GMT 42.089275 -71.810661 35,000 48 488 0
2019-06-25 03:42:15 GMT 42.084183 -71.818436 35,000 48 488 0
2019-06-25 03:42:12 GMT 42.078522 -71.827080 35,000 48 488 0
2019-06-25 03:42:08 GMT 42.072281 -71.836601 35,000 48 488 0
2019-06-25 03:42:05 GMT 42.066330 -71.845718 35,000 48 488 0
2019-06-25 03:42:01 GMT 42.063065 -71.850716 35,000 48 488 0
2019-06-25 03:41:58 GMT 42.055897 -71.861633 35,000 48 488 0
2019-06-25 03:41:55 GMT 42.052917 -71.866173 35,000 48 488 0
2019-06-25 03:41:52 GMT 42.047565 -71.874413 35,000 48 488 0
2019-06-25 03:41:47 GMT 42.041290 -71.883919 35,000 48 488 0
2019-06-25 03:41:44 GMT 42.037415 -71.889870 35,000 48 488 0
2019-06-25 03:41:41 GMT 42.032017 -71.898041 35,000 48 488 0
2019-06-25 03:41:37 GMT 42.024845 -71.908966 35,000 48 489 0
2019-06-25 03:41:33 GMT 42.020100 -71.916313 35,000 48 489 0
2019-06-25 03:41:30 GMT 42.015907 -71.922699 35,000 48 489 0
2019-06-25 03:41:27 GMT 42.010509 -71.930878 35,000 48 489 -64
2019-06-25 03:41:24 GMT 42.006317 -71.937263 35,000 48 490 0
2019-06-25 03:41:20 GMT 42.001572 -71.944611 35,000 48 490 0
2019-06-25 03:41:16 GMT 41.993454 -71.956894 35,000 48 490 0
2019-06-25 03:41:13 GMT 41.991074 -71.960571 35,000 48 490 0
2019-06-25 03:41:10 GMT 41.979969 -71.977440 35,000 48 490 0
2019-06-25 03:41:06 GMT 41.979969 -71.977440 35,000 48 490 0
2019-06-25 03:41:03 GMT 41.974274 -71.986107 35,000 48 490 0
2019-06-25 03:41:00 GMT 41.969513 -71.993408 35,000 48 490 0
2019-06-25 03:40:56 GMT 41.965897 -71.998840 35,000 48 490 0
2019-06-25 03:40:53 GMT 41.954498 -72.016129 35,000 48 490 0
2019-06-25 03:40:49 GMT 41.954498 -72.016129 35,000 48 490 0
2019-06-25 03:40:45 GMT 41.948502 -72.025246 35,000 48 490 0
2019-06-25 03:40:42 GMT 41.943378 -72.032944 35,000 48 490 0
2019-06-25 03:40:37 GMT 41.937374 -72.042084 35,000 48 490 0
2019-06-25 03:40:34 GMT 41.931656 -72.050713 35,000 48 490 0
2019-06-25 03:40:31 GMT 41.927444 -72.057076 35,000 48 490 0
2019-06-25 03:40:28 GMT 41.923279 -72.063446 35,000 48 490 0
2019-06-25 03:40:24 GMT 41.918148 -72.071144 35,000 48 490 0
2019-06-25 03:40:21 GMT 41.913353 -72.078423 35,000 48 490 0
2019-06-25 03:40:18 GMT 41.907669 -72.087044 35,000 48 490 0
2019-06-25 03:40:15 GMT 41.902267 -72.095222 35,000 48 490 0
2019-06-25 03:40:10 GMT 41.894733 -72.106590 35,000 48 489 0
2019-06-25 03:40:06 GMT 41.890869 -72.112450 35,000 48 488 -64
2019-06-25 03:40:03 GMT 41.886959 -72.118347 35,000 48 489 -64
2019-06-25 03:40:00 GMT 41.880066 -72.128799 35,000 48 488 -64
2019-06-25 03:39:57 GMT 41.876450 -72.134232 35,000 48 488 -64
2019-06-25 03:39:54 GMT 41.870758 -72.142807 35,000 48 489 -64
2019-06-25 03:39:51 GMT 41.866570 -72.149132 35,000 48 488 -64
2019-06-25 03:39:48 GMT 41.862076 -72.155952 35,000 48 487 -64
2019-06-25 03:39:44 GMT 41.858459 -72.161324 35,000 48 488 -128
2019-06-25 03:39:41 GMT 41.852463 -72.170372 35,025 48 487 -64
2019-06-25 03:39:37 GMT 41.845619 -72.180748 35,025 48 487 -64
2019-06-25 03:39:31 GMT 41.836349 -72.194786 35,025 48 488 128
2019-06-25 03:39:26 GMT 41.830353 -72.203835 35,000 48 488 320
2019-06-25 03:39:23 GMT 41.825275 -72.211472 35,000 48 488 448
2019-06-25 03:39:18 GMT 41.817455 -72.223289 34,950 48 489 896
2019-06-25 03:39:15 GMT 41.815083 -72.226868 34,925 48 489 960
2019-06-25 03:39:12 GMT 41.809681 -72.235046 34,900 48 489 1152
2019-06-25 03:39:09 GMT 41.803940 -72.243660 34,775 48 489 1600
2019-06-25 03:39:03 GMT 41.796413 -72.254974 34,675 48 489 1728
2019-06-25 03:39:00 GMT 41.785309 -72.271690 34,425 48 490 1728
2019-06-25 03:38:56 GMT 41.785309 -72.271690 34,475 48 490 1728
2019-06-25 03:38:52 GMT 41.778351 -72.282059 34,350 48 490 1728
2019-06-25 03:38:48 GMT 41.772301 -72.291122 34,200 48 490 1792
2019-06-25 03:38:45 GMT 41.767776 -72.297905 34,150 48 490 1792
2019-06-25 03:38:42 GMT 41.762970 -72.305145 33,725 48 491 1792
2019-06-25 03:38:39 GMT 41.759354 -72.310577 33,975 48 491 1792
2019-06-25 03:38:36 GMT 41.753586 -72.319168 33,850 48 491 1856
2019-06-25 03:38:33 GMT 41.749352 -72.325554 33,800 48 491 1856
2019-06-25 03:38:29 GMT 41.736687 -72.344589 33,650 48 492 1920
2019-06-25 03:38:25 GMT 41.736687 -72.344589 33,550 48 492 1920
2019-06-25 03:38:22 GMT 41.734268 -72.348228 33,500 48 492 1984
2019-06-25 03:38:19 GMT 41.729095 -72.355957 33,350 48 492 2048
2019-06-25 03:38:15 GMT 41.722771 -72.365471 33,250 48 493 2176
2019-06-25 03:38:12 GMT 41.717278 -72.373650 33,125 48 495 2112
2019-06-25 03:38:09 GMT 41.713646 -72.379143 33,100 48 493 2176
2019-06-25 03:38:05 GMT 41.708496 -72.386917 32,725 48 495 2176
2019-06-25 03:38:02 GMT 41.702408 -72.396034 32,800 48 495 2112
2019-06-25 03:37:58 GMT 41.695999 -72.405586 32,675 48 496 2112
2019-06-25 03:37:54 GMT 41.687164 -72.418877 32,475 48 497 2112
2019-06-25 03:37:47 GMT 41.681030 -72.428055 32,325 48 498 2240
2019-06-25 03:37:43 GMT 41.673706 -72.439102 32,150 48 498 2240
2019-06-25 03:37:40 GMT 41.667931 -72.447868 31,875 48 499 2432
2019-06-25 03:37:36 GMT 41.663647 -72.454323 31,925 48 499 2432
2019-06-25 03:37:33 GMT 41.658154 -72.462624 31,750 48 500 2624
2019-06-25 03:37:30 GMT 41.654160 -72.468628 31,675 48 500 2624
2019-06-25 03:37:25 GMT 41.647728 -72.478340 31,550 48 501 2688
2019-06-25 03:37:21 GMT 41.640015 -72.489914 31,175 48 503 2944
2019-06-25 03:37:17 GMT 41.633530 -72.499672 31,075 48 504 2944
2019-06-25 03:37:14 GMT 41.628593 -72.507149 30,725 48 508 2880
2019-06-25 03:37:11 GMT 41.625523 -72.511871 30,875 48 506 3008
2019-06-25 03:37:08 GMT 41.621193 -72.518387 30,675 48 508 2944
2019-06-25 03:37:05 GMT 41.616863 -72.524971 30,575 48 508 2816
2019-06-25 03:37:00 GMT 41.606598 -72.540543 30,275 48 510 2240
2019-06-25 03:36:57 GMT 41.602890 -72.546219 30,200 48 510 2176
2019-06-25 03:36:54 GMT 41.599453 -72.551414 30,125 48 510 2048
2019-06-25 03:36:51 GMT 41.593212 -72.560867 30,000 48 510 1856
2019-06-25 03:36:48 GMT 41.590393 -72.565071 29,950 48 510 1920
2019-06-25 03:36:45 GMT 41.584763 -72.573563 29,825 48 510 1920
2019-06-25 03:36:42 GMT 41.581055 -72.579239 29,775 48 509 1856
2019-06-25 03:36:38 GMT 41.573242 -72.591011 29,525 48 509 1792
2019-06-25 03:36:35 GMT 41.569199 -72.597160 29,525 48 507 1728
2019-06-25 03:36:32 GMT 41.562675 -72.606979 29,400 48 507 1728
2019-06-25 03:36:28 GMT 41.557091 -72.615479 29,325 48 507 1728
2019-06-25 03:36:24 GMT 41.548096 -72.629051 29,225 48 507 1728
2019-06-25 03:36:21 GMT 41.548096 -72.629051 29,100 48 506 1728
2019-06-25 03:36:17 GMT 41.541870 -72.638420 29,025 48 505 1728
2019-06-25 03:36:14 GMT 41.536331 -72.646843 28,950 48 505 1664
2019-06-25 03:36:07 GMT 41.524319 -72.665047 28,750 48 503 1536
2019-06-25 03:36:03 GMT 41.519669 -72.672005 28,650 48 503 1536
2019-06-25 03:36:00 GMT 41.509232 -72.687798 28,600 48 501 1728
2019-06-25 03:35:57 GMT 41.509232 -72.687798 28,500 48 500 1920
2019-06-25 03:35:53 GMT 41.504673 -72.694748 28,375 48 500 1984
2019-06-25 03:35:50 GMT 41.500076 -72.701653 28,275 48 500 2112
2019-06-25 03:35:46 GMT 41.493034 -72.712311 27,625 48 499 2112
2019-06-25 03:35:42 GMT 41.488148 -72.719658 28,075 48 499 2112
2019-06-25 03:35:38 GMT 41.480186 -72.731667 27,900 48 498 2112
2019-06-25 03:35:35 GMT 41.476822 -72.736732 27,825 48 498 2176
2019-06-25 03:35:32 GMT 41.472565 -72.743164 27,725 48 498 2176
2019-06-25 03:35:27 GMT 41.464600 -72.755089 27,575 48 498 2176
2019-06-25 03:35:24 GMT 41.460030 -72.761940 27,500 48 498 2112
2019-06-25 03:35:21 GMT 41.456680 -72.767006 27,425 48 496 1984
2019-06-25 03:35:17 GMT 41.448715 -72.778870 27,150 48 496 1920
2019-06-25 03:35:14 GMT 41.445053 -72.784363 27,025 48 495 1856
2019-06-25 03:35:11 GMT 41.440796 -72.790726 26,950 48 495 1856
2019-06-25 03:35:06 GMT 41.431957 -72.803902 26,900 47 491 1856
2019-06-25 03:35:03 GMT 41.429214 -72.807961 26,850 48 494 1728
2019-06-25 03:35:00 GMT 41.424911 -72.814262 26,750 48 492 1728
2019-06-25 03:34:57 GMT 41.418549 -72.823769 26,650 47 491 1856
2019-06-25 03:34:54 GMT 41.413055 -72.831818 26,500 47 490 1920
2019-06-25 03:34:50 GMT 41.408775 -72.838081 26,450 47 489 1920
2019-06-25 03:34:46 GMT 41.402721 -72.847023 26,225 47 489 2048
2019-06-25 03:34:43 GMT 41.396626 -72.855896 26,200 47 488 1984
2019-06-25 03:34:40 GMT 41.392342 -72.862099 26,125 47 487 1792
2019-06-25 03:34:35 GMT 41.384720 -72.873169 25,950 47 486 1536
2019-06-25 03:34:29 GMT 41.377117 -72.884109 25,850 47 484 1536
2019-06-25 03:34:26 GMT 41.371021 -72.892853 25,700 47 482 1600
2019-06-25 03:34:23 GMT 41.367645 -72.897644 25,625 46 481 1664
2019-06-25 03:34:20 GMT 41.362152 -72.905457 25,550 46 479 1920
2019-06-25 03:34:17 GMT 41.357613 -72.911888 25,500 46 479 1920
2019-06-25 03:34:13 GMT 41.349976 -72.922607 25,375 46 478 1984
2019-06-25 03:34:09 GMT 41.346313 -72.927734 25,250 46 478 2112
2019-06-25 03:34:06 GMT 41.342056 -72.933655 25,200 46 477 2112
2019-06-25 03:34:02 GMT 41.333778 -72.945099 24,775 45 476 2176
2019-06-25 03:33:55 GMT 41.324844 -72.957214 24,825 45 475 2368
2019-06-25 03:33:52 GMT 41.318024 -72.966370 24,650 45 475 2496
2019-06-25 03:33:49 GMT 41.314957 -72.970520 24,000 44 473 2048
2019-06-25 03:33:44 GMT 41.306854 -72.981262 24,275 44 474 2176
2019-06-25 03:33:41 GMT 41.300915 -72.989044 24,250 44 474 2112
2019-06-25 03:33:38 GMT 41.298752 -72.991882 24,225 44 474 2112
2019-06-25 03:33:34 GMT 41.292812 -72.999657 24,075 44 473 2048
2019-06-25 03:33:31 GMT 41.287132 -73.006897 23,975 44 472 2048
2019-06-25 03:33:28 GMT 41.283096 -73.012146 23,900 44 471 2112
2019-06-25 03:33:25 GMT 41.278061 -73.018616 23,775 44 470 2240
2019-06-25 03:33:21 GMT 41.270554 -73.028259 23,550 44 470 2048
2019-06-25 03:33:18 GMT 41.266464 -73.033485 23,500 44 470 1984
2019-06-25 03:33:14 GMT 41.261810 -73.039490 23,400 44 468 1792
2019-06-25 03:33:10 GMT 41.253986 -73.049469 23,300 43 466 1600
2019-06-25 03:33:07 GMT 41.249954 -73.054626 23,225 44 466 1600
2019-06-25 03:33:04 GMT 41.245331 -73.060577 23,125 43 465 1600
2019-06-25 03:33:00 GMT 41.238533 -73.069260 23,050 44 461 1536
2019-06-25 03:32:57 GMT 41.233887 -73.075195 23,000 44 461 1536
2019-06-25 03:32:53 GMT 41.228989 -73.081482 22,900 44 458 1856
2019-06-25 03:32:50 GMT 41.221958 -73.090477 22,800 44 453 1984
2019-06-25 03:32:46 GMT 41.218002 -73.095520 22,625 44 456 2368
2019-06-25 03:32:43 GMT 41.214092 -73.100594 22,550 44 456 2368
2019-06-25 03:32:39 GMT 41.206783 -73.109894 22,375 43 455 2304
2019-06-25 03:32:36 GMT 41.201019 -73.117249 22,250 43 454 2112
2019-06-25 03:32:33 GMT 41.198917 -73.120003 22,175 43 454 2112
2019-06-25 03:32:29 GMT 41.191956 -73.128845 21,925 44 451 2048
2019-06-25 03:32:25 GMT 41.186813 -73.135422 21,950 44 451 2112
2019-06-25 03:32:21 GMT 41.180202 -73.143852 21,800 44 450 2112
2019-06-25 03:32:18 GMT 41.176014 -73.149223 21,650 44 449 2176
2019-06-25 03:32:15 GMT 41.170349 -73.156494 21,600 44 448 2240
2019-06-25 03:32:12 GMT 41.167374 -73.160339 21,025 44 446 2368
2019-06-25 03:32:09 GMT 41.160828 -73.168701 21,350 44 446 2432
2019-06-25 03:32:06 GMT 41.155762 -73.175186 21,250 44 446 2432
2019-06-25 03:32:02 GMT 41.151619 -73.180496 21,175 44 446 2432
2019-06-25 03:31:58 GMT 41.144257 -73.190002 20,925 44 444 2368
2019-06-25 03:31:54 GMT 41.140137 -73.195312 20,850 44 444 2432
2019-06-25 03:31:51 GMT 41.135422 -73.201355 20,575 44 442 2496
2019-06-25 03:31:47 GMT 41.128922 -73.209656 20,550 43 442 2560
2019-06-25 03:31:44 GMT 41.125690 -73.213829 20,400 44 441 2560
2019-06-25 03:31:41 GMT 41.119537 -73.221741 20,275 44 440 2688
2019-06-25 03:31:35 GMT 41.110466 -73.233368 19,975 44 440 2688
2019-06-25 03:31:32 GMT 41.100815 -73.245789 19,800 44 439 2688
2019-06-25 03:31:28 GMT 41.100815 -73.245789 18,825 43 432 1920
2019-06-25 03:31:25 GMT 41.092621 -73.256287 19,550 44 439 2624
2019-06-25 03:31:22 GMT 41.092621 -73.256287 19,500 44 438 2560
2019-06-25 03:31:18 GMT 41.087097 -73.263390 19,300 43 430 1920
2019-06-25 03:31:15 GMT 41.082489 -73.269318 19,200 44 436 2368
2019-06-25 03:31:12 GMT 41.078705 -73.274170 19,150 44 420 2752
2019-06-25 03:31:08 GMT 41.072620 -73.281990 18,975 44 434 2304
2019-06-25 03:31:04 GMT 41.065685 -73.290855 18,800 43 432 1920
2019-06-25 03:31:00 GMT 41.060516 -73.297470 18,750 43 432 1920
2019-06-25 03:30:57 GMT 41.056465 -73.302528 18,600 43 428 2176
2019-06-25 03:30:54 GMT 41.051300 -73.309082 18,525 43 427 2496
2019-06-25 03:30:51 GMT 41.048458 -73.312706 18,425 43 426 2560
2019-06-25 03:30:48 GMT 41.043293 -73.319199 18,300 43 425 2688
2019-06-25 03:30:45 GMT 41.038467 -73.325317 18,050 43 423 2752
2019-06-25 03:30:42 GMT 41.029697 -73.336426 17,350 36 409 2688
2019-06-25 03:30:39 GMT 41.029697 -73.336426 17,900 43 423 2752
2019-06-25 03:30:36 GMT 41.026566 -73.340332 17,400 43 422 2816
2019-06-25 03:30:33 GMT 41.021229 -73.347160 17,500 44 420 2752
2019-06-25 03:30:30 GMT 41.017876 -73.351402 17,450 44 420 2752
2019-06-25 03:30:27 GMT 41.012287 -73.358582 17,300 43 418 2688
2019-06-25 03:30:23 GMT 41.007774 -73.364204 17,150 42 416 2688
2019-06-25 03:30:20 GMT 41.004375 -73.368324 17,050 41 415 2688
2019-06-25 03:30:16 GMT 40.993855 -73.380241 16,850 39 413 2688
2019-06-25 03:30:13 GMT 40.993855 -73.380241 16,675 38 411 2688
2019-06-25 03:30:10 GMT 40.989712 -73.384674 16,625 37 410 2688
2019-06-25 03:30:07 GMT 40.985184 -73.389282 16,525 36 409 2688
2019-06-25 03:30:03 GMT 40.977562 -73.396660 16,300 34 407 2752
2019-06-25 03:30:00 GMT 40.974792 -73.399231 16,200 33 405 2688
2019-06-25 03:29:57 GMT 40.969460 -73.403969 16,075 32 403 2752
2019-06-25 03:29:53 GMT 40.962845 -73.409546 15,975 31 402 2752
2019-06-25 03:29:50 GMT 40.957405 -73.413826 15,725 29 400 2880
2019-06-25 03:29:47 GMT 40.954193 -73.416260 15,600 28 399 3008
2019-06-25 03:29:44 GMT 40.949341 -73.419861 15,500 28 398 3008
2019-06-25 03:29:41 GMT 40.942841 -73.424438 15,275 26 396 3136
2019-06-25 03:29:38 GMT 40.937248 -73.428123 15,150 26 396 3136
2019-06-25 03:29:34 GMT 40.932312 -73.431396 15,000 26 395 3008
2019-06-25 03:29:30 GMT 40.925079 -73.436096 14,775 26 395 3008
2019-06-25 03:29:27 GMT 40.919510 -73.439735 14,425 26 389 3264
2019-06-25 03:29:24 GMT 40.914597 -73.442993 14,475 26 393 2944
2019-06-25 03:29:21 GMT 40.910019 -73.445984 14,350 26 392 2944
2019-06-25 03:29:18 GMT 40.901913 -73.451279 14,150 26 391 3008
2019-06-25 03:29:12 GMT 40.896702 -73.454651 13,875 26 389 3328
2019-06-25 03:29:09 GMT 40.891533 -73.458023 13,800 26 389 3328
2019-06-25 03:29:05 GMT 40.885712 -73.461830 13,600 26 388 3456
2019-06-25 03:29:02 GMT 40.879894 -73.465576 13,325 26 388 3520
2019-06-25 03:28:59 GMT 40.874405 -73.469116 13,225 26 387 3648
2019-06-25 03:28:56 GMT 40.869873 -73.472046 13,075 26 387 3648
2019-06-25 03:28:50 GMT 40.860527 -73.478058 12,675 26 387 2944
2019-06-25 03:28:44 GMT 40.852150 -73.483490 12,500 26 386 2560
2019-06-25 03:28:41 GMT 40.844788 -73.488281 12,350 26 384 2240
2019-06-25 03:28:37 GMT 40.840652 -73.490921 12,225 26 381 1920
2019-06-25 03:28:33 GMT 40.834625 -73.494812 12,150 26 379 1792
2019-06-25 03:28:30 GMT 40.827713 -73.499268 11,975 26 372 1728
2019-06-25 03:28:27 GMT 40.824005 -73.501709 11,975 26 372 1728
2019-06-25 03:28:24 GMT 40.819656 -73.504517 11,850 26 367 1856
2019-06-25 03:28:19 GMT 40.807526 -73.512390 11,675 26 362 1920
2019-06-25 03:28:16 GMT 40.807526 -73.512390 11,600 26 360 1920
2019-06-25 03:28:12 GMT 40.799454 -73.517570 11,450 26 356 1728
2019-06-25 03:28:06 GMT 40.792053 -73.522400 11,300 26 351 1472
2019-06-25 03:28:03 GMT 40.788235 -73.524818 11,250 25 349 1408
2019-06-25 03:28:00 GMT 40.783264 -73.528015 11,175 25 347 1408
2019-06-25 03:27:57 GMT 40.779236 -73.530640 11,050 25 339 1344
2019-06-25 03:27:54 GMT 40.774109 -73.533936 11,075 25 342 1408
2019-06-25 03:27:51 GMT 40.769028 -73.537170 10,950 25 335 1280
2019-06-25 03:27:47 GMT 40.764816 -73.539856 10,900 25 333 1280
2019-06-25 03:27:43 GMT 40.759552 -73.543213 10,800 25 327 1216
2019-06-25 03:27:40 GMT 40.755459 -73.545792 10,750 25 325 1152
2019-06-25 03:27:37 GMT 40.750854 -73.548767 10,700 26 321 1152
2019-06-25 03:27:34 GMT 40.747360 -73.550972 10,650 26 319 1088
2019-06-25 03:27:31 GMT 40.744446 -73.552856 10,600 26 316 1024
2019-06-25 03:27:26 GMT 40.737122 -73.557617 10,100 25 292 2432
2019-06-25 03:27:23 GMT 40.734009 -73.559570 10,475 26 305 1664
2019-06-25 03:27:20 GMT 40.728928 -73.562927 10,425 26 304 1856
2019-06-25 03:27:17 GMT 40.724396 -73.565857 9,925 26 299 2304
2019-06-25 03:27:14 GMT 40.720638 -73.568321 10,125 26 300 2368
2019-06-25 03:27:11 GMT 40.718170 -73.569946 10,050 26 300 2368
2019-06-25 03:27:05 GMT 40.710163 -73.575066 9,900 26 299 2304
2019-06-25 03:27:01 GMT 40.705444 -73.578125 9,650 26 297 2304
2019-06-25 03:26:58 GMT 40.701965 -73.580322 9,575 25 296 2304
2019-06-25 03:26:55 GMT 40.697021 -73.583496 9,425 26 296 2368
2019-06-25 03:26:52 GMT 40.694092 -73.585388 9,325 25 294 2432
2019-06-25 03:26:49 GMT 40.690891 -73.587425 9,250 25 293 2432
2019-06-25 03:26:45 GMT 40.685715 -73.590698 8,800 25 292 2432
2019-06-25 03:26:42 GMT 40.682281 -73.592896 8,875 25 292 2432
2019-06-25 03:26:39 GMT 40.678391 -73.595337 8,825 25 292 2432
2019-06-25 03:26:34 GMT 40.672829 -73.598976 8,450 31 290 2368
2019-06-25 03:26:31 GMT 40.667770 -73.602417 8,500 29 290 2432
2019-06-25 03:26:28 GMT 40.665661 -73.603966 8,500 29 290 2432
2019-06-25 03:26:24 GMT 40.661224 -73.607300 8,075 32 290 2368
2019-06-25 03:26:21 GMT 40.653946 -73.613281 8,075 33 289 2368
2019-06-25 03:26:18 GMT 40.653946 -73.613281 7,500 38 287 2560
2019-06-25 03:26:13 GMT 40.647923 -73.618576 7,800 35 288 2496
2019-06-25 03:26:10 GMT 40.645737 -73.620567 7,775 36 288 2496
2019-06-25 03:26:07 GMT 40.641033 -73.625130 7,675 37 288 2560
2019-06-25 03:26:03 GMT 40.637466 -73.628784 7,425 38 286 2496
2019-06-25 03:26:00 GMT 40.634995 -73.631409 7,300 38 286 2496
2019-06-25 03:25:57 GMT 40.631447 -73.635117 7,225 38 285 2496
2019-06-25 03:25:54 GMT 40.628139 -73.638611 6,975 38 285 2624
2019-06-25 03:25:51 GMT 40.625671 -73.641235 6,975 38 285 2624
2019-06-25 03:25:48 GMT 40.620941 -73.646240 6,800 38 284 2624
2019-06-25 03:25:45 GMT 40.618271 -73.649033 6,750 38 283 2624
2019-06-25 03:25:42 GMT 40.615997 -73.651428 6,600 38 283 2560
2019-06-25 03:25:39 GMT 40.612919 -73.654655 6,500 38 283 2496
2019-06-25 03:25:36 GMT 40.609863 -73.657837 6,350 37 281 2688
2019-06-25 03:25:32 GMT 40.605145 -73.662766 6,150 37 280 2816
2019-06-25 03:25:26 GMT 40.598740 -73.669189 5,900 37 280 3200
2019-06-25 03:25:22 GMT 40.595810 -73.672058 5,600 37 280 3136
2019-06-25 03:25:19 GMT 40.591038 -73.676811 5,625 36 281 2944
2019-06-25 03:25:14 GMT 40.587112 -73.680725 5,400 37 282 2048
2019-06-25 03:25:11 GMT 40.584595 -73.683167 5,275 37 282 1600
2019-06-25 03:25:08 GMT 40.580608 -73.687111 5,150 36 281 896
2019-06-25 03:25:05 GMT 40.576885 -73.690796 5,100 37 280 384
2019-06-25 03:25:01 GMT 40.573746 -73.693848 5,075 36 280 256
2019-06-25 03:24:58 GMT 40.569809 -73.697723 5,075 36 279 -64
2019-06-25 03:24:54 GMT 40.566086 -73.701408 5,075 36 279 -64
2019-06-25 03:24:51 GMT 40.563198 -73.704216 5,075 36 278 -64
2019-06-25 03:24:47 GMT 40.558823 -73.708496 4,825 62 278 896
2019-06-25 03:24:42 GMT 40.553238 -73.713890 5,075 36 279 0
2019-06-25 03:24:39 GMT 40.550079 -73.716919 5,075 37 279 -64
2019-06-25 03:24:36 GMT 40.548210 -73.718697 5,075 36 278 -64
2019-06-25 03:24:33 GMT 40.544266 -73.722534 5,075 37 279 -64
2019-06-25 03:24:29 GMT 40.540146 -73.726624 5,075 38 280 -64
2019-06-25 03:24:24 GMT 40.535919 -73.731117 5,075 42 281 128
2019-06-25 03:24:21 GMT 40.532959 -73.734436 5,075 42 281 128
2019-06-25 03:24:18 GMT 40.530148 -73.737984 5,075 52 280 384
2019-06-25 03:24:15 GMT 40.527557 -73.741821 5,075 54 279 448
2019-06-25 03:24:12 GMT 40.524979 -73.746414 5,050 61 278 768
2019-06-25 03:24:09 GMT 40.522980 -73.750793 4,850 83 277 1536
2019-06-25 03:24:06 GMT 40.520782 -73.756897 4,975 69 277 1152
2019-06-25 03:24:02 GMT 40.519180 -73.763245 4,925 76 276 1344
2019-06-25 03:23:58 GMT 40.518265 -73.768494 4,850 83 277 1536
2019-06-25 03:23:55 GMT 40.517811 -73.774879 4,775 93 277 1856
2019-06-25 03:23:51 GMT 40.517853 -73.781311 4,650 97 277 1984
2019-06-25 03:23:48 GMT 40.518082 -73.784729 4,625 99 277 2048
2019-06-25 03:23:44 GMT 40.518929 -73.791046 4,200 111 273 2560
2019-06-25 03:23:41 GMT 40.520603 -73.798103 4,325 114 271 2624
2019-06-25 03:23:38 GMT 40.521584 -73.801163 4,250 116 271 2624
2019-06-25 03:23:32 GMT 40.525726 -73.810608 3,975 129 268 2624
2019-06-25 03:23:28 GMT 40.528751 -73.815392 3,825 136 266 2560
2019-06-25 03:23:23 GMT 40.532753 -73.820259 3,675 143 265 2496
2019-06-25 03:23:18 GMT 40.537766 -73.824768 3,450 151 262 2496
2019-06-25 03:23:15 GMT 40.542343 -73.827751 3,300 212 181 3328
2019-06-25 03:23:11 GMT 40.546440 -73.829620 2,750 187 253 1792
2019-06-25 03:23:06 GMT 40.551609 -73.830933 2,975 175 256 2240
2019-06-25 03:23:02 GMT 40.556076 -73.831360 2,850 185 254 1920
2019-06-25 03:22:59 GMT 40.560745 -73.830933 2,675 207 242 1216
2019-06-25 03:22:51 GMT 40.569534 -73.827698 2,500 211 236 1216
2019-06-25 03:22:48 GMT 40.572006 -73.826233 2,350 211 236 1216
2019-06-25 03:22:45 GMT 40.574707 -73.824280 2,425 212 235 1152
2019-06-25 03:22:41 GMT 40.578609 -73.821198 2,350 213 229 768
2019-06-25 03:22:38 GMT 40.581821 -73.818512 2,300 213 222 768
2019-06-25 03:22:34 GMT 40.584988 -73.815887 2,275 213 219 768
2019-06-25 03:22:30 GMT 40.587891 -73.813477 2,225 213 212 832
2019-06-25 03:22:27 GMT 40.590866 -73.810974 2,150 213 202 1024
2019-06-25 03:22:24 GMT 40.593109 -73.809082 2,100 213 202 1024
2019-06-25 03:22:20 GMT 40.596390 -73.806274 2,050 213 197 1088
2019-06-25 03:22:16 GMT 40.599335 -73.803772 1,925 213 188 1344
2019-06-25 03:22:12 GMT 40.601883 -73.801659 1,925 213 188 1344
2019-06-25 03:22:09 GMT 40.604538 -73.799408 1,850 213 185 1664
2019-06-25 03:22:04 GMT 40.607983 -73.796539 1,725 212 182 2432
2019-06-25 03:22:01 GMT 40.609863 -73.794983 1,625 212 181 3072
2019-06-25 03:21:58 GMT 40.612034 -73.793297 1,425 212 183 3712
2019-06-25 03:21:53 GMT 40.615524 -73.790482 1,200 211 184 3648
2019-06-25 03:21:48 GMT 40.619797 -73.787170 875 211 186 3072
2019-06-25 03:21:43 GMT 40.623367 -73.784485 625 211 186 2816
2019-06-25 03:21:38 GMT 40.627396 -73.781372 375 211 186 2560
2019-06-25 03:21:32 GMT 40.631538 -73.778122 200 211 182 640
2019-06-25 03:21:26 GMT 40.635590 -73.774986 0 210 170
2019-06-25 03:21:16 GMT 40.641968 -73.769997 0 210 130
2019-06-25 03:21:04 GMT 40.647121 -73.765968 0 210 76
2019-06-25 03:20:58 GMT 40.648636 -73.764801 0 208 45
2019-06-25 03:20:55 GMT 40.649220 -73.764343 0 208 29
2019-06-25 03:20:49 GMT 40.649715 -73.763939 0 222 9
2019-06-25 03:20:42 GMT 40.649822 -73.763847 0 222 2
2019-06-25 03:20:34 GMT 40.649857 -73.763832 0 222 0
2019-06-25 03:20:29 GMT 40.649918 -73.763779 0 222 5
2019-06-25 03:20:23 GMT 40.650043 -73.763641 0 225 8
2019-06-25 03:20:19 GMT 40.650158 -73.763504 0 196 8
2019-06-25 03:20:10 GMT 40.650455 -73.763550 0 123 8
2019-06-25 03:19:58 GMT 40.650696 -73.764069 0 118 9
2019-06-25 03:19:49 GMT 40.650856 -73.764458 0 120 8
2019-06-25 03:19:35 GMT 40.651051 -73.765030 0 78 9
2019-06-25 03:19:29 GMT 40.650970 -73.765289 0 120 8
2019-06-25 03:19:19 GMT 40.650696 -73.765503 0 120 6
2019-06-25 03:19:09 GMT 40.650513 -73.765640 0 120 5
2019-06-25 03:19:02 GMT 40.650436 -73.765701 0 120 4
2019-06-25 03:18:58 GMT 40.650410 -73.765732 0 120 3
2019-06-25 03:18:55 GMT 40.650379 -73.765747 0 120 2
2019-06-25 03:18:47 GMT 40.650352 -73.765778 0 120 2
2019-06-25 03:18:44 GMT 40.650333 -73.765778 0 120 2
2019-06-25 03:18:37 GMT 40.650272 -73.765823 0 120 3
2019-06-25 03:18:32 GMT 40.650230 -73.765862 0 120 3
2019-06-25 03:18:27 GMT 40.650204 -73.765877 0 120 2
2019-06-25 03:18:17 GMT 40.650192 -73.765884 0 120 0
2019-06-25 03:18:12 GMT 40.650192 -73.765892 0 120 0
2019-06-25 03:18:02 GMT 40.650192 -73.765884 0 120 0
2019-06-25 03:17:52 GMT 40.650192 -73.765892 0 120 0
2019-06-25 03:17:38 GMT 40.650192 -73.765884 0 120 0
2019-06-25 03:17:28 GMT 40.650192 -73.765892 0 120 0
2019-06-25 03:17:23 GMT 40.650192 -73.765884 0 120 0
2019-06-25 03:17:17 GMT 40.650192 -73.765892 0 120 0
2019-06-25 03:17:10 GMT 40.650192 -73.765884 0 120 0
2019-06-25 03:16:59 GMT 40.650192 -73.765892 0 120 0
2019-06-25 03:16:49 GMT 40.650192 -73.765884 0 120 0
2019-06-25 03:16:38 GMT 40.650066 -73.765984 0 120 6
2019-06-25 03:16:30 GMT 40.649872 -73.766129 0 120 8
2019-06-25 03:16:27 GMT 40.649799 -73.766205 0 120 8
2019-06-25 03:16:20 GMT 40.649544 -73.766388 0 120 7
2019-06-25 03:16:09 GMT 40.649345 -73.766541 0 120 6
2019-06-25 03:15:59 GMT 40.649124 -73.766716 0 120 6
2019-06-25 03:15:48 GMT 40.648972 -73.766846 0 120 4
2019-06-25 03:15:37 GMT 40.648853 -73.766922 0 120 3
2019-06-25 03:15:27 GMT 40.648773 -73.766983 0 120 4
2019-06-25 03:15:17 GMT 40.648636 -73.767174 0 120 6
2019-06-25 03:15:00 GMT 40.648762 -73.767563 0 120 6
2019-06-25 03:14:56 GMT 40.648819 -73.767670 0 120 6
2019-06-25 03:14:45 GMT 40.648956 -73.767990 0 120 7
2019-06-25 03:14:34 GMT 40.649113 -73.768326 0 120 6
2019-06-25 03:14:22 GMT 40.649265 -73.768661 0 120 6
2019-06-25 03:14:12 GMT 40.649391 -73.768936 0 120 6
2019-06-25 03:14:02 GMT 40.649521 -73.769234 0 120 7
2019-06-25 03:13:52 GMT 40.649654 -73.769531 0 120 6
2019-06-25 03:13:40 GMT 40.649799 -73.769836 0 120 5
2019-06-25 03:13:32 GMT 40.649891 -73.770042 0 120 5
2019-06-25 03:13:20 GMT 40.649982 -73.770264 0 120 4
2019-06-25 03:13:10 GMT 40.650055 -73.770401 0 120 3
2019-06-25 03:12:59 GMT 40.650089 -73.770493 0 120 2
2019-06-25 03:12:49 GMT 40.650158 -73.770630 0 120 4
2019-06-25 03:12:38 GMT 40.650272 -73.770889 0 120 6
2019-06-25 03:12:28 GMT 40.650410 -73.771194 0 120 7
2019-06-25 03:12:18 GMT 40.650566 -73.771523 0 120 8
2019-06-25 03:12:07 GMT 40.650742 -73.771896 0 120 7
2019-06-25 03:11:56 GMT 40.650913 -73.772308 0 120 8
2019-06-25 03:11:46 GMT 40.651096 -73.772690 0 120 8
2019-06-25 03:11:35 GMT 40.651291 -73.773132 0 120 7
2019-06-25 03:11:25 GMT 40.651463 -73.773499 0 120 8
2019-06-25 03:11:16 GMT 40.651615 -73.773849 0 120 9
2019-06-25 03:11:09 GMT 40.651749 -73.774139 0 120 8
2019-06-25 03:11:06 GMT 40.651806 -73.774277 0 120 8
2019-06-25 03:10:55 GMT 40.651985 -73.774673 0 120 7
2019-06-25 03:10:45 GMT 40.652138 -73.775002 0 120 6
2019-06-25 03:10:34 GMT 40.652290 -73.775314 0 120 7
2019-06-25 03:10:24 GMT 40.652428 -73.775642 0 120 7
2019-06-25 03:10:20 GMT 40.652489 -73.775764 0 120 7
2019-06-25 03:10:07 GMT 40.652672 -73.776192 0 120 7
2019-06-25 03:09:36 GMT 40.653172 -73.777267 0 120 7
2019-06-25 03:09:31 GMT 40.653236 -73.777420 0 120 7
2019-06-25 03:09:25 GMT 40.653336 -73.777641 0 120 8
2019-06-25 03:09:09 GMT 40.653625 -73.778259 0 120 8
2019-06-25 03:08:57 GMT 40.653824 -73.778717 0 120 8
2019-06-25 03:08:53 GMT 40.653900 -73.778870 0 120 8
2019-06-25 03:08:50 GMT 40.653957 -73.778992 0 120 8
2019-06-25 03:08:45 GMT 40.654057 -73.779205 0 120 9
2019-06-25 03:08:40 GMT 40.654163 -73.779449 0 120 9
2019-06-25 03:08:31 GMT 40.654358 -73.779877 0 120 9
2019-06-25 03:08:27 GMT 40.654419 -73.780029 0 120 9
2019-06-25 03:08:19 GMT 40.654575 -73.780365 0 120 8
2019-06-25 03:08:11 GMT 40.654686 -73.780640 0 61 7
2019-06-25 03:08:08 GMT 40.654736 -73.780731 0 61 7
2019-06-25 03:07:55 GMT 40.654919 -73.781128 0 61 6
2019-06-25 03:07:31 GMT 40.654800 -73.781868 0 61 8
2019-06-25 03:07:24 GMT 40.654678 -73.782181 0 59 10
2019-06-25 03:07:16 GMT 40.654507 -73.782562 0 61 10
2019-06-25 03:07:03 GMT 40.654221 -73.783241 0 59 10
2019-06-25 03:06:59 GMT 40.654125 -73.783447 0 59 10
2019-06-25 03:06:49 GMT 40.653923 -73.783890 0 50 8
2019-06-25 03:06:38 GMT 40.653664 -73.784271 0 39 8
2019-06-25 03:06:28 GMT 40.653404 -73.784554 0 281 9
2019-06-25 03:06:15 GMT 40.653053 -73.784470 0 281 7
2019-06-25 03:06:06 GMT 40.652802 -73.784393 0 281 8
2019-06-25 03:06:03 GMT 40.652706 -73.784286 0 281 7
2019-06-25 03:05:56 GMT 40.652664 -73.784058 0 281 7
2019-06-25 03:05:53 GMT 40.652649 -73.783913 0 284 8
2019-06-25 03:05:45 GMT 40.652573 -73.783600 0 298 8
2019-06-25 03:05:42 GMT 40.652515 -73.783463 0 300 8
2019-06-25 03:05:35 GMT 40.652412 -73.783249 0 300 8
2019-06-25 03:05:25 GMT 40.652229 -73.782837 0 300 8
2019-06-25 03:05:14 GMT 40.652035 -73.782410 0 300 8
2019-06-25 03:05:11 GMT 40.651985 -73.782288 0 300 8
2019-06-25 03:04:59 GMT 40.651775 -73.781853 0 7
2019-06-25 03:04:50 GMT 40.651672 -73.781609 0 4
2019-06-25 03:04:32 GMT 40.651623 -73.781494 0 0
2019-06-25 03:04:18 GMT 40.651627 -73.781494 0 0
2019-06-25 03:03:13 GMT 40.651623 -73.781494 0 0
2019-06-25 03:02:43 GMT 40.651627 -73.781494 0 0
2019-06-25 03:02:28 GMT 40.651623 -73.781494 0 0
2019-06-25 03:02:18 GMT 40.651623 -73.781494 0 0
2019-06-25 03:02:03 GMT 40.651623 -73.781494 0 0
2019-06-25 03:00:39 GMT 40.651627 -73.781494 0 0
2019-06-25 03:00:27 GMT 40.651623 -73.781479 0 0
2019-06-25 03:00:17 GMT 40.651604 -73.781433 0 0
2019-06-25 03:00:04 GMT 40.651566 -73.781372 0 2
2019-06-25 02:59:58 GMT 40.651531 -73.781326 0 3
2019-06-25 02:59:43 GMT 40.651485 -73.781189 0 2
2019-06-25 02:59:32 GMT 40.651485 -73.781136 0 0
2019-06-25 02:59:23 GMT 40.651485 -73.781166 0 2
2019-06-25 02:59:14 GMT 40.651508 -73.781258 0 3
2019-06-25 02:59:02 GMT 40.651474 -73.781403 0 3
2019-06-25 02:58:44 GMT 40.651360 -73.781616 0 3
2019-06-25 02:58:34 GMT 40.651276 -73.781700 0 3
2019-06-25 02:58:30 GMT 40.651245 -73.781738 0 3
2019-06-25 02:58:23 GMT 40.651184 -73.781776 0 3
2019-06-25 02:58:19 GMT 40.651142 -73.781815 0 3
2019-06-25 02:58:13 GMT 40.651073 -73.781860 0 4
2019-06-25 02:58:09 GMT 40.651016 -73.781891 0 4
2019-06-25 02:58:03 GMT 40.650959 -73.781982 0 4
2019-06-25 02:57:58 GMT 40.650925 -73.782059 0 4
2019-06-25 02:57:44 GMT 40.650856 -73.782272 0 4
2019-06-25 02:57:41 GMT 40.650833 -73.782318 0 4
2019-06-25 02:57:37 GMT 40.650799 -73.782372 0 3

Making use of Plane Finder data

You are free to use the raw flight data, aircraft information and images provided in this report for your own purposes provided the data is correctly attributed to Plane Finder. We ask that you please credit Plane Finder and link to planefinder.net in close proximity to the content.

Optionally one of the following logos (no smaller then 150x24px) can be used and must link to planefinder.net

Embedding the Plane Finder map

You are welcome to embed the Plane Finder playback map on your website to offer visitors a more interactive experience. We suggest using the following HTML code:

<iframe src="//planefinder.net/data/report/BA182-G-STBG-7700-squawk-2019-06-25/map" width="800" height="600" seamless="seamless"></iframe>

Where our data comes from

Plane Finder has a global network of data feeds and antenna radars that receive data broadcast directly from aircraft. The primary technologies used are ADS-B and MLAT. We also show feeds from the FAA and a FLARM glider feed.

Click here to find out more about the Plane Finder network.

How we collect our data